<?xml version="1.0" encoding="UTF-8" standalone="no" ?>
<gpx xmlns="http://www.topografix.com/GPX/1/1" xmlns:xsi="http://www.w3.org/2001/XMLSchema-instance" xsi:schemaLocation="http://www.topografix.com/GPX/1/1 http://www.topografix.com/GPX/1/1/gpx.xsd" version="1.1" creator="VisuGPX - https://www.visugpx.com">
  <metadata>
    <name>Gorges de l'Ardèche Saint Remeze 2020-08-30</name>
  </metadata>
  <trk>
    <name><![CDATA[TRK-2020-08-30]]></name>
    <trkseg>
      <trkpt lat="44.40726" lon="4.39561">
        <ele>161.76166</ele>
        <time>2020-08-30 09:40:29</time>
      </trkpt>
      <trkpt lat="44.40722" lon="4.39554">
        <ele>163.73242</ele>
        <time>2020-08-30 09:40:32</time>
      </trkpt>
      <trkpt lat="44.4072" lon="4.39548">
        <ele>165.48889</ele>
        <time>2020-08-30 09:40:34</time>
      </trkpt>
      <trkpt lat="44.40713" lon="4.39521">
        <ele>166.2832</ele>
        <time>2020-08-30 09:40:42</time>
      </trkpt>
      <trkpt lat="44.40711" lon="4.39518">
        <ele>166.0376</ele>
        <time>2020-08-30 09:40:43</time>
      </trkpt>
      <trkpt lat="44.40709" lon="4.39516">
        <ele>165.2096</ele>
        <time>2020-08-30 09:40:44</time>
      </trkpt>
      <trkpt lat="44.40701" lon="4.39508">
        <ele>165.76245</ele>
        <time>2020-08-30 09:40:47</time>
      </trkpt>
      <trkpt lat="44.4069" lon="4.39492">
        <ele>167.12585</ele>
        <time>2020-08-30 09:40:51</time>
      </trkpt>
      <trkpt lat="44.40657" lon="4.39444">
        <ele>165.59418</ele>
        <time>2020-08-30 09:41:01</time>
      </trkpt>
      <trkpt lat="44.40621" lon="4.39409">
        <ele>163.35828</ele>
        <time>2020-08-30 09:41:09</time>
      </trkpt>
      <trkpt lat="44.40608" lon="4.394">
        <ele>157.56122</ele>
        <time>2020-08-30 09:41:12</time>
      </trkpt>
      <trkpt lat="44.40603" lon="4.39398">
        <ele>156.46967</ele>
        <time>2020-08-30 09:41:13</time>
      </trkpt>
      <trkpt lat="44.406" lon="4.39395">
        <ele>154.74963</ele>
        <time>2020-08-30 09:41:14</time>
      </trkpt>
      <trkpt lat="44.40589" lon="4.39386">
        <ele>155.89459</ele>
        <time>2020-08-30 09:41:17</time>
      </trkpt>
      <trkpt lat="44.40568" lon="4.39373">
        <ele>154.10211</ele>
        <time>2020-08-30 09:41:22</time>
      </trkpt>
      <trkpt lat="44.40553" lon="4.39361">
        <ele>156.0238</ele>
        <time>2020-08-30 09:41:26</time>
      </trkpt>
      <trkpt lat="44.40548" lon="4.3936">
        <ele>156.45978</ele>
        <time>2020-08-30 09:41:27</time>
      </trkpt>
      <trkpt lat="44.40437" lon="4.39295">
        <ele>154.54376</ele>
        <time>2020-08-30 09:41:51</time>
      </trkpt>
      <trkpt lat="44.40391" lon="4.39266">
        <ele>154.45447</ele>
        <time>2020-08-30 09:42:01</time>
      </trkpt>
      <trkpt lat="44.40294" lon="4.39204">
        <ele>152.61255</ele>
        <time>2020-08-30 09:42:22</time>
      </trkpt>
      <trkpt lat="44.40268" lon="4.3918">
        <ele>150.47266</ele>
        <time>2020-08-30 09:42:28</time>
      </trkpt>
      <trkpt lat="44.40237" lon="4.39141">
        <ele>150.02673</ele>
        <time>2020-08-30 09:42:36</time>
      </trkpt>
      <trkpt lat="44.40123" lon="4.38948">
        <ele>149.45844</ele>
        <time>2020-08-30 09:43:06</time>
      </trkpt>
      <trkpt lat="44.40053" lon="4.38821">
        <ele>142.85431</ele>
        <time>2020-08-30 09:43:24</time>
      </trkpt>
      <trkpt lat="44.4005" lon="4.38808">
        <ele>142.27478</ele>
        <time>2020-08-30 09:43:26</time>
      </trkpt>
      <trkpt lat="44.4005" lon="4.38804">
        <ele>143.51941</ele>
        <time>2020-08-30 09:43:27</time>
      </trkpt>
      <trkpt lat="44.4005" lon="4.388">
        <ele>143.91284</ele>
        <time>2020-08-30 09:43:28</time>
      </trkpt>
      <trkpt lat="44.40052" lon="4.38793">
        <ele>145.36584</ele>
        <time>2020-08-30 09:43:31</time>
      </trkpt>
      <trkpt lat="44.40054" lon="4.38785">
        <ele>145.92108</ele>
        <time>2020-08-30 09:43:34</time>
      </trkpt>
      <trkpt lat="44.40054" lon="4.3878">
        <ele>145.8648</ele>
        <time>2020-08-30 09:43:35</time>
      </trkpt>
      <trkpt lat="44.40054" lon="4.38776">
        <ele>144.6695</ele>
        <time>2020-08-30 09:43:36</time>
      </trkpt>
      <trkpt lat="44.40053" lon="4.38772">
        <ele>145.50415</ele>
        <time>2020-08-30 09:43:37</time>
      </trkpt>
      <trkpt lat="44.40049" lon="4.38763">
        <ele>144.56427</ele>
        <time>2020-08-30 09:43:39</time>
      </trkpt>
      <trkpt lat="44.40043" lon="4.38761">
        <ele>145.36584</ele>
        <time>2020-08-30 09:43:40</time>
      </trkpt>
      <trkpt lat="44.40038" lon="4.3876">
        <ele>143.35046</ele>
        <time>2020-08-30 09:43:41</time>
      </trkpt>
      <trkpt lat="44.40032" lon="4.38762">
        <ele>142.5155</ele>
        <time>2020-08-30 09:43:42</time>
      </trkpt>
      <trkpt lat="44.40028" lon="4.38766">
        <ele>142.93018</ele>
        <time>2020-08-30 09:43:43</time>
      </trkpt>
      <trkpt lat="44.40025" lon="4.38772">
        <ele>142.34705</ele>
        <time>2020-08-30 09:43:44</time>
      </trkpt>
      <trkpt lat="44.40023" lon="4.38779">
        <ele>142.08093</ele>
        <time>2020-08-30 09:43:45</time>
      </trkpt>
      <trkpt lat="44.40022" lon="4.38787">
        <ele>142.05219</ele>
        <time>2020-08-30 09:43:46</time>
      </trkpt>
      <trkpt lat="44.40021" lon="4.38793">
        <ele>141.13416</ele>
        <time>2020-08-30 09:43:47</time>
      </trkpt>
      <trkpt lat="44.40018" lon="4.388">
        <ele>140.8938</ele>
        <time>2020-08-30 09:43:48</time>
      </trkpt>
      <trkpt lat="44.40014" lon="4.38805">
        <ele>141.01013</ele>
        <time>2020-08-30 09:43:49</time>
      </trkpt>
      <trkpt lat="44.3998" lon="4.38854">
        <ele>137.39838</ele>
        <time>2020-08-30 09:43:56</time>
      </trkpt>
      <trkpt lat="44.39951" lon="4.38905">
        <ele>135.09235</ele>
        <time>2020-08-30 09:44:01</time>
      </trkpt>
      <trkpt lat="44.3993" lon="4.38954">
        <ele>132.84729</ele>
        <time>2020-08-30 09:44:05</time>
      </trkpt>
      <trkpt lat="44.3991" lon="4.3902">
        <ele>135.09235</ele>
        <time>2020-08-30 09:44:10</time>
      </trkpt>
      <trkpt lat="44.39898" lon="4.39087">
        <ele>129.93884</ele>
        <time>2020-08-30 09:44:15</time>
      </trkpt>
      <trkpt lat="44.39861" lon="4.39406">
        <ele>130.68219</ele>
        <time>2020-08-30 09:44:45</time>
      </trkpt>
      <trkpt lat="44.39851" lon="4.39538">
        <ele>126.96826</ele>
        <time>2020-08-30 09:45:00</time>
      </trkpt>
      <trkpt lat="44.39851" lon="4.39552">
        <ele>127.61041</ele>
        <time>2020-08-30 09:45:02</time>
      </trkpt>
      <trkpt lat="44.39851" lon="4.39558">
        <ele>128.05219</ele>
        <time>2020-08-30 09:45:03</time>
      </trkpt>
      <trkpt lat="44.39848" lon="4.39572">
        <ele>128.9939</ele>
        <time>2020-08-30 09:45:05</time>
      </trkpt>
      <trkpt lat="44.39849" lon="4.39578">
        <ele>128.99329</ele>
        <time>2020-08-30 09:45:06</time>
      </trkpt>
      <trkpt lat="44.39847" lon="4.3959">
        <ele>129.07635</ele>
        <time>2020-08-30 09:45:08</time>
      </trkpt>
      <trkpt lat="44.39847" lon="4.39598">
        <ele>129.57379</ele>
        <time>2020-08-30 09:45:09</time>
      </trkpt>
      <trkpt lat="44.39842" lon="4.39617">
        <ele>130.62988</ele>
        <time>2020-08-30 09:45:12</time>
      </trkpt>
      <trkpt lat="44.39835" lon="4.39645">
        <ele>131.89215</ele>
        <time>2020-08-30 09:45:16</time>
      </trkpt>
      <trkpt lat="44.39833" lon="4.39667">
        <ele>131.05273</ele>
        <time>2020-08-30 09:45:19</time>
      </trkpt>
      <trkpt lat="44.39833" lon="4.39737">
        <ele>130.80634</ele>
        <time>2020-08-30 09:45:28</time>
      </trkpt>
      <trkpt lat="44.39835" lon="4.3976">
        <ele>131.59344</ele>
        <time>2020-08-30 09:45:31</time>
      </trkpt>
      <trkpt lat="44.39834" lon="4.39767">
        <ele>132.01984</ele>
        <time>2020-08-30 09:45:32</time>
      </trkpt>
      <trkpt lat="44.39835" lon="4.39774">
        <ele>132.21484</ele>
        <time>2020-08-30 09:45:33</time>
      </trkpt>
      <trkpt lat="44.39832" lon="4.39809">
        <ele>130.72955</ele>
        <time>2020-08-30 09:45:38</time>
      </trkpt>
      <trkpt lat="44.39832" lon="4.39824">
        <ele>131.59344</ele>
        <time>2020-08-30 09:45:40</time>
      </trkpt>
      <trkpt lat="44.3983" lon="4.3984">
        <ele>132.82086</ele>
        <time>2020-08-30 09:45:42</time>
      </trkpt>
      <trkpt lat="44.39816" lon="4.39912">
        <ele>128.93604</ele>
        <time>2020-08-30 09:45:52</time>
      </trkpt>
      <trkpt lat="44.3981" lon="4.39939">
        <ele>123.337524</ele>
        <time>2020-08-30 09:45:56</time>
      </trkpt>
      <trkpt lat="44.39797" lon="4.40008">
        <ele>129.59784</ele>
        <time>2020-08-30 09:46:06</time>
      </trkpt>
      <trkpt lat="44.39793" lon="4.40021">
        <ele>128.9754</ele>
        <time>2020-08-30 09:46:08</time>
      </trkpt>
      <trkpt lat="44.39726" lon="4.40185">
        <ele>131.90009</ele>
        <time>2020-08-30 09:46:35</time>
      </trkpt>
      <trkpt lat="44.39716" lon="4.40201">
        <ele>131.67944</ele>
        <time>2020-08-30 09:46:38</time>
      </trkpt>
      <trkpt lat="44.39659" lon="4.40265">
        <ele>130.96313</ele>
        <time>2020-08-30 09:46:52</time>
      </trkpt>
      <trkpt lat="44.39613" lon="4.40314">
        <ele>133.50012</ele>
        <time>2020-08-30 09:47:03</time>
      </trkpt>
      <trkpt lat="44.39598" lon="4.40321">
        <ele>132.8374</ele>
        <time>2020-08-30 09:47:06</time>
      </trkpt>
      <trkpt lat="44.39585" lon="4.40325">
        <ele>131.99835</ele>
        <time>2020-08-30 09:47:09</time>
      </trkpt>
      <trkpt lat="44.39438" lon="4.40358">
        <ele>133.29834</ele>
        <time>2020-08-30 09:47:39</time>
      </trkpt>
      <trkpt lat="44.39376" lon="4.40373">
        <ele>136.61926</ele>
        <time>2020-08-30 09:47:52</time>
      </trkpt>
      <trkpt lat="44.39372" lon="4.40374">
        <ele>138.11816</ele>
        <time>2020-08-30 09:47:53</time>
      </trkpt>
      <trkpt lat="44.39353" lon="4.4038">
        <ele>137.94446</ele>
        <time>2020-08-30 09:47:57</time>
      </trkpt>
      <trkpt lat="44.39339" lon="4.40379">
        <ele>134.57239</ele>
        <time>2020-08-30 09:48:00</time>
      </trkpt>
      <trkpt lat="44.3933" lon="4.40376">
        <ele>137.93921</ele>
        <time>2020-08-30 09:48:02</time>
      </trkpt>
      <trkpt lat="44.39323" lon="4.40371">
        <ele>138.45691</ele>
        <time>2020-08-30 09:48:04</time>
      </trkpt>
      <trkpt lat="44.39317" lon="4.40365">
        <ele>139.30505</ele>
        <time>2020-08-30 09:48:06</time>
      </trkpt>
      <trkpt lat="44.39314" lon="4.40361">
        <ele>140.22375</ele>
        <time>2020-08-30 09:48:07</time>
      </trkpt>
      <trkpt lat="44.39311" lon="4.40352">
        <ele>140.64252</ele>
        <time>2020-08-30 09:48:09</time>
      </trkpt>
      <trkpt lat="44.39299" lon="4.4032">
        <ele>141.74799</ele>
        <time>2020-08-30 09:48:16</time>
      </trkpt>
      <trkpt lat="44.39283" lon="4.40277">
        <ele>143.39294</ele>
        <time>2020-08-30 09:48:26</time>
      </trkpt>
      <trkpt lat="44.3927" lon="4.40254">
        <ele>144.83423</ele>
        <time>2020-08-30 09:48:32</time>
      </trkpt>
      <trkpt lat="44.39265" lon="4.40248">
        <ele>145.05249</ele>
        <time>2020-08-30 09:48:34</time>
      </trkpt>
      <trkpt lat="44.39242" lon="4.40218">
        <ele>149.14264</ele>
        <time>2020-08-30 09:48:43</time>
      </trkpt>
      <trkpt lat="44.39238" lon="4.4021">
        <ele>150.59637</ele>
        <time>2020-08-30 09:48:45</time>
      </trkpt>
      <trkpt lat="44.39225" lon="4.40186">
        <ele>151.73859</ele>
        <time>2020-08-30 09:48:51</time>
      </trkpt>
      <trkpt lat="44.39212" lon="4.40171">
        <ele>154.8139</ele>
        <time>2020-08-30 09:48:56</time>
      </trkpt>
      <trkpt lat="44.39205" lon="4.40167">
        <ele>155.2616</ele>
        <time>2020-08-30 09:48:58</time>
      </trkpt>
      <trkpt lat="44.39188" lon="4.40158">
        <ele>153.80835</ele>
        <time>2020-08-30 09:49:03</time>
      </trkpt>
      <trkpt lat="44.39184" lon="4.40157">
        <ele>153.31927</ele>
        <time>2020-08-30 09:49:04</time>
      </trkpt>
      <trkpt lat="44.39176" lon="4.40157">
        <ele>153.29633</ele>
        <time>2020-08-30 09:49:06</time>
      </trkpt>
      <trkpt lat="44.39167" lon="4.40159">
        <ele>152.56293</ele>
        <time>2020-08-30 09:49:08</time>
      </trkpt>
      <trkpt lat="44.39163" lon="4.4016">
        <ele>152.70496</ele>
        <time>2020-08-30 09:49:09</time>
      </trkpt>
      <trkpt lat="44.39156" lon="4.40168">
        <ele>152.36981</ele>
        <time>2020-08-30 09:49:11</time>
      </trkpt>
      <trkpt lat="44.39145" lon="4.4018">
        <ele>149.42358</ele>
        <time>2020-08-30 09:49:14</time>
      </trkpt>
      <trkpt lat="44.39139" lon="4.40191">
        <ele>149.02112</ele>
        <time>2020-08-30 09:49:16</time>
      </trkpt>
      <trkpt lat="44.39105" lon="4.40261">
        <ele>148.92316</ele>
        <time>2020-08-30 09:49:29</time>
      </trkpt>
      <trkpt lat="44.39102" lon="4.40267">
        <ele>149.55774</ele>
        <time>2020-08-30 09:49:30</time>
      </trkpt>
      <trkpt lat="44.39094" lon="4.40292">
        <ele>145.01166</ele>
        <time>2020-08-30 09:49:34</time>
      </trkpt>
      <trkpt lat="44.39089" lon="4.40314">
        <ele>146.30188</ele>
        <time>2020-08-30 09:49:37</time>
      </trkpt>
      <trkpt lat="44.39088" lon="4.40321">
        <ele>146.21252</ele>
        <time>2020-08-30 09:49:38</time>
      </trkpt>
      <trkpt lat="44.39086" lon="4.40336">
        <ele>147.9336</ele>
        <time>2020-08-30 09:49:40</time>
      </trkpt>
      <trkpt lat="44.39093" lon="4.40429">
        <ele>146.54346</ele>
        <time>2020-08-30 09:49:52</time>
      </trkpt>
      <trkpt lat="44.39091" lon="4.40445">
        <ele>144.71552</ele>
        <time>2020-08-30 09:49:54</time>
      </trkpt>
      <trkpt lat="44.39088" lon="4.40452">
        <ele>141.6972</ele>
        <time>2020-08-30 09:49:55</time>
      </trkpt>
      <trkpt lat="44.39079" lon="4.40474">
        <ele>141.2107</ele>
        <time>2020-08-30 09:49:58</time>
      </trkpt>
      <trkpt lat="44.39069" lon="4.40494">
        <ele>143.73889</ele>
        <time>2020-08-30 09:50:01</time>
      </trkpt>
      <trkpt lat="44.39048" lon="4.40522">
        <ele>144.8645</ele>
        <time>2020-08-30 09:50:06</time>
      </trkpt>
      <trkpt lat="44.39039" lon="4.40533">
        <ele>146.62762</ele>
        <time>2020-08-30 09:50:08</time>
      </trkpt>
      <trkpt lat="44.39003" lon="4.40567">
        <ele>143.62482</ele>
        <time>2020-08-30 09:50:15</time>
      </trkpt>
      <trkpt lat="44.38992" lon="4.40585">
        <ele>143.9397</ele>
        <time>2020-08-30 09:50:18</time>
      </trkpt>
      <trkpt lat="44.38975" lon="4.40619">
        <ele>142.0332</ele>
        <time>2020-08-30 09:50:23</time>
      </trkpt>
      <trkpt lat="44.38972" lon="4.40633">
        <ele>142.20825</ele>
        <time>2020-08-30 09:50:25</time>
      </trkpt>
      <trkpt lat="44.38966" lon="4.40657">
        <ele>141.03815</ele>
        <time>2020-08-30 09:50:28</time>
      </trkpt>
      <trkpt lat="44.3896" lon="4.40672">
        <ele>142.84987</ele>
        <time>2020-08-30 09:50:30</time>
      </trkpt>
      <trkpt lat="44.38931" lon="4.40736">
        <ele>136.78003</ele>
        <time>2020-08-30 09:50:39</time>
      </trkpt>
      <trkpt lat="44.38921" lon="4.40748">
        <ele>137.63379</ele>
        <time>2020-08-30 09:50:41</time>
      </trkpt>
      <trkpt lat="44.38912" lon="4.40758">
        <ele>137.19275</ele>
        <time>2020-08-30 09:50:43</time>
      </trkpt>
      <trkpt lat="44.389" lon="4.40763">
        <ele>136.76233</ele>
        <time>2020-08-30 09:50:45</time>
      </trkpt>
      <trkpt lat="44.38893" lon="4.40763">
        <ele>135.9284</ele>
        <time>2020-08-30 09:50:46</time>
      </trkpt>
      <trkpt lat="44.38887" lon="4.40761">
        <ele>135.33032</ele>
        <time>2020-08-30 09:50:47</time>
      </trkpt>
      <trkpt lat="44.38868" lon="4.40758">
        <ele>137.63379</ele>
        <time>2020-08-30 09:50:50</time>
      </trkpt>
      <trkpt lat="44.38862" lon="4.4076">
        <ele>133.72046</ele>
        <time>2020-08-30 09:50:51</time>
      </trkpt>
      <trkpt lat="44.38855" lon="4.40763">
        <ele>132.94604</ele>
        <time>2020-08-30 09:50:52</time>
      </trkpt>
      <trkpt lat="44.38849" lon="4.40768">
        <ele>132.95435</ele>
        <time>2020-08-30 09:50:53</time>
      </trkpt>
      <trkpt lat="44.38838" lon="4.4078">
        <ele>132.6264</ele>
        <time>2020-08-30 09:50:55</time>
      </trkpt>
      <trkpt lat="44.38791" lon="4.40833">
        <ele>134.20135</ele>
        <time>2020-08-30 09:51:04</time>
      </trkpt>
      <trkpt lat="44.38782" lon="4.40839">
        <ele>135.79443</ele>
        <time>2020-08-30 09:51:06</time>
      </trkpt>
      <trkpt lat="44.38766" lon="4.40843">
        <ele>138.79169</ele>
        <time>2020-08-30 09:51:09</time>
      </trkpt>
      <trkpt lat="44.38723" lon="4.40845">
        <ele>143.28058</ele>
        <time>2020-08-30 09:51:19</time>
      </trkpt>
      <trkpt lat="44.38702" lon="4.40844">
        <ele>144.31647</ele>
        <time>2020-08-30 09:51:28</time>
      </trkpt>
      <trkpt lat="44.38704" lon="4.40845">
        <ele>147.46234</ele>
        <time>2020-08-30 09:51:56</time>
      </trkpt>
      <trkpt lat="44.38704" lon="4.40847">
        <ele>147.40381</ele>
        <time>2020-08-30 09:51:57</time>
      </trkpt>
      <trkpt lat="44.38706" lon="4.40849">
        <ele>147.99524</ele>
        <time>2020-08-30 09:51:58</time>
      </trkpt>
      <trkpt lat="44.38709" lon="4.4085">
        <ele>148.50482</ele>
        <time>2020-08-30 09:51:59</time>
      </trkpt>
      <trkpt lat="44.38712" lon="4.40851">
        <ele>147.88</ele>
        <time>2020-08-30 09:52:00</time>
      </trkpt>
      <trkpt lat="44.38715" lon="4.40851">
        <ele>147.94415</ele>
        <time>2020-08-30 09:52:01</time>
      </trkpt>
      <trkpt lat="44.38723" lon="4.40848">
        <ele>147.50043</ele>
        <time>2020-08-30 09:52:03</time>
      </trkpt>
      <trkpt lat="44.38773" lon="4.40839">
        <ele>148.49097</ele>
        <time>2020-08-30 09:52:15</time>
      </trkpt>
      <trkpt lat="44.38775" lon="4.40836">
        <ele>149.09473</ele>
        <time>2020-08-30 09:52:19</time>
      </trkpt>
      <trkpt lat="44.38774" lon="4.40835">
        <ele>149.42725</ele>
        <time>2020-08-30 09:52:20</time>
      </trkpt>
      <trkpt lat="44.38772" lon="4.40835">
        <ele>149.45813</ele>
        <time>2020-08-30 09:52:21</time>
      </trkpt>
      <trkpt lat="44.38769" lon="4.40837">
        <ele>149.56488</ele>
        <time>2020-08-30 09:52:23</time>
      </trkpt>
      <trkpt lat="44.38765" lon="4.40838">
        <ele>148.94928</ele>
        <time>2020-08-30 09:52:25</time>
      </trkpt>
      <trkpt lat="44.38745" lon="4.4084">
        <ele>151.1206</ele>
        <time>2020-08-30 09:52:33</time>
      </trkpt>
      <trkpt lat="44.38718" lon="4.4084">
        <ele>152.258</ele>
        <time>2020-08-30 09:52:43</time>
      </trkpt>
      <trkpt lat="44.38705" lon="4.40838">
        <ele>150.4928</ele>
        <time>2020-08-30 09:52:47</time>
      </trkpt>
      <trkpt lat="44.38702" lon="4.40838">
        <ele>150.6759</ele>
        <time>2020-08-30 09:52:48</time>
      </trkpt>
      <trkpt lat="44.38693" lon="4.40839">
        <ele>150.41864</ele>
        <time>2020-08-30 09:52:51</time>
      </trkpt>
      <trkpt lat="44.38651" lon="4.40838">
        <ele>147.88092</ele>
        <time>2020-08-30 09:53:01</time>
      </trkpt>
      <trkpt lat="44.38649" lon="4.40841">
        <ele>148.37628</ele>
        <time>2020-08-30 09:53:02</time>
      </trkpt>
      <trkpt lat="44.3864" lon="4.4085">
        <ele>148.28253</ele>
        <time>2020-08-30 09:53:05</time>
      </trkpt>
      <trkpt lat="44.38622" lon="4.40866">
        <ele>149.24274</ele>
        <time>2020-08-30 09:53:11</time>
      </trkpt>
      <trkpt lat="44.38555" lon="4.40877">
        <ele>148.14221</ele>
        <time>2020-08-30 09:53:31</time>
      </trkpt>
      <trkpt lat="44.38535" lon="4.40873">
        <ele>149.49512</ele>
        <time>2020-08-30 09:53:35</time>
      </trkpt>
      <trkpt lat="44.3851" lon="4.40868">
        <ele>149.36633</ele>
        <time>2020-08-30 09:53:40</time>
      </trkpt>
      <trkpt lat="44.38483" lon="4.40857">
        <ele>149.66962</ele>
        <time>2020-08-30 09:53:46</time>
      </trkpt>
      <trkpt lat="44.38466" lon="4.40857">
        <ele>150.98358</ele>
        <time>2020-08-30 09:53:50</time>
      </trkpt>
      <trkpt lat="44.38461" lon="4.40857">
        <ele>151.21619</ele>
        <time>2020-08-30 09:53:51</time>
      </trkpt>
      <trkpt lat="44.38447" lon="4.40853">
        <ele>150.13983</ele>
        <time>2020-08-30 09:53:54</time>
      </trkpt>
      <trkpt lat="44.38431" lon="4.40839">
        <ele>150.73785</ele>
        <time>2020-08-30 09:53:57</time>
      </trkpt>
      <trkpt lat="44.38428" lon="4.40838">
        <ele>150.93498</ele>
        <time>2020-08-30 09:53:58</time>
      </trkpt>
      <trkpt lat="44.38398" lon="4.40818">
        <ele>152.35681</ele>
        <time>2020-08-30 09:54:05</time>
      </trkpt>
      <trkpt lat="44.38381" lon="4.40798">
        <ele>152.53204</ele>
        <time>2020-08-30 09:54:09</time>
      </trkpt>
      <trkpt lat="44.38377" lon="4.40795">
        <ele>151.74982</ele>
        <time>2020-08-30 09:54:10</time>
      </trkpt>
      <trkpt lat="44.38374" lon="4.40794">
        <ele>152.71564</ele>
        <time>2020-08-30 09:54:11</time>
      </trkpt>
      <trkpt lat="44.38365" lon="4.40793">
        <ele>153.30322</ele>
        <time>2020-08-30 09:54:13</time>
      </trkpt>
      <trkpt lat="44.38359" lon="4.40794">
        <ele>153.33533</ele>
        <time>2020-08-30 09:54:14</time>
      </trkpt>
      <trkpt lat="44.38353" lon="4.40794">
        <ele>153.94366</ele>
        <time>2020-08-30 09:54:15</time>
      </trkpt>
      <trkpt lat="44.38332" lon="4.40796">
        <ele>154.56946</ele>
        <time>2020-08-30 09:54:19</time>
      </trkpt>
      <trkpt lat="44.38321" lon="4.40797">
        <ele>153.7583</ele>
        <time>2020-08-30 09:54:21</time>
      </trkpt>
      <trkpt lat="44.38309" lon="4.40801">
        <ele>152.11694</ele>
        <time>2020-08-30 09:54:23</time>
      </trkpt>
      <trkpt lat="44.38304" lon="4.40804">
        <ele>152.32849</ele>
        <time>2020-08-30 09:54:24</time>
      </trkpt>
      <trkpt lat="44.38298" lon="4.40808">
        <ele>151.29541</ele>
        <time>2020-08-30 09:54:25</time>
      </trkpt>
      <trkpt lat="44.3829" lon="4.40818">
        <ele>151.45532</ele>
        <time>2020-08-30 09:54:27</time>
      </trkpt>
      <trkpt lat="44.38285" lon="4.40825">
        <ele>154.56946</ele>
        <time>2020-08-30 09:54:28</time>
      </trkpt>
      <trkpt lat="44.38277" lon="4.40838">
        <ele>148.61877</ele>
        <time>2020-08-30 09:54:30</time>
      </trkpt>
      <trkpt lat="44.38258" lon="4.40881">
        <ele>144.1391</ele>
        <time>2020-08-30 09:54:36</time>
      </trkpt>
      <trkpt lat="44.38255" lon="4.40896">
        <ele>148.42688</ele>
        <time>2020-08-30 09:54:38</time>
      </trkpt>
      <trkpt lat="44.38232" lon="4.4099">
        <ele>142.23602</ele>
        <time>2020-08-30 09:54:49</time>
      </trkpt>
      <trkpt lat="44.38215" lon="4.41051">
        <ele>136.30554</ele>
        <time>2020-08-30 09:54:56</time>
      </trkpt>
      <trkpt lat="44.38201" lon="4.41113">
        <ele>133.48718</ele>
        <time>2020-08-30 09:55:02</time>
      </trkpt>
      <trkpt lat="44.38197" lon="4.41145">
        <ele>132.2127</ele>
        <time>2020-08-30 09:55:05</time>
      </trkpt>
      <trkpt lat="44.38196" lon="4.41155">
        <ele>131.32202</ele>
        <time>2020-08-30 09:55:06</time>
      </trkpt>
      <trkpt lat="44.38195" lon="4.41187">
        <ele>131.5907</ele>
        <time>2020-08-30 09:55:09</time>
      </trkpt>
      <trkpt lat="44.38195" lon="4.41206">
        <ele>131.49481</ele>
        <time>2020-08-30 09:55:11</time>
      </trkpt>
      <trkpt lat="44.38197" lon="4.41238">
        <ele>132.12689</ele>
        <time>2020-08-30 09:55:14</time>
      </trkpt>
      <trkpt lat="44.38199" lon="4.4127">
        <ele>131.42719</ele>
        <time>2020-08-30 09:55:17</time>
      </trkpt>
      <trkpt lat="44.38213" lon="4.41306">
        <ele>130.13275</ele>
        <time>2020-08-30 09:55:21</time>
      </trkpt>
      <trkpt lat="44.38229" lon="4.41343">
        <ele>128.62268</ele>
        <time>2020-08-30 09:55:25</time>
      </trkpt>
      <trkpt lat="44.38243" lon="4.41361">
        <ele>133.38196</ele>
        <time>2020-08-30 09:55:28</time>
      </trkpt>
      <trkpt lat="44.38261" lon="4.41371">
        <ele>129.53809</ele>
        <time>2020-08-30 09:55:31</time>
      </trkpt>
      <trkpt lat="44.38268" lon="4.4137">
        <ele>129.61987</ele>
        <time>2020-08-30 09:55:32</time>
      </trkpt>
      <trkpt lat="44.38275" lon="4.41366">
        <ele>128.62408</ele>
        <time>2020-08-30 09:55:33</time>
      </trkpt>
      <trkpt lat="44.38315" lon="4.41354">
        <ele>128.67285</ele>
        <time>2020-08-30 09:55:39</time>
      </trkpt>
      <trkpt lat="44.38328" lon="4.41357">
        <ele>127.68121</ele>
        <time>2020-08-30 09:55:41</time>
      </trkpt>
      <trkpt lat="44.38341" lon="4.41364">
        <ele>130.16699</ele>
        <time>2020-08-30 09:55:43</time>
      </trkpt>
      <trkpt lat="44.38421" lon="4.41416">
        <ele>133.91302</ele>
        <time>2020-08-30 09:56:01</time>
      </trkpt>
      <trkpt lat="44.38422" lon="4.41417">
        <ele>134.02283</ele>
        <time>2020-08-30 09:56:35</time>
      </trkpt>
      <trkpt lat="44.38421" lon="4.41416">
        <ele>135.5343</ele>
        <time>2020-08-30 09:57:20</time>
      </trkpt>
      <trkpt lat="44.38421" lon="4.41416">
        <ele>135.04926</ele>
        <time>2020-08-30 09:58:00</time>
      </trkpt>
      <trkpt lat="44.38421" lon="4.41417">
        <ele>134.66504</ele>
        <time>2020-08-30 09:58:35</time>
      </trkpt>
      <trkpt lat="44.38421" lon="4.41416">
        <ele>134.11725</ele>
        <time>2020-08-30 09:58:44</time>
      </trkpt>
      <trkpt lat="44.38423" lon="4.41418">
        <ele>133.44159</ele>
        <time>2020-08-30 09:58:46</time>
      </trkpt>
      <trkpt lat="44.38424" lon="4.41416">
        <ele>132.6344</ele>
        <time>2020-08-30 09:58:47</time>
      </trkpt>
      <trkpt lat="44.38432" lon="4.41415">
        <ele>133.66052</ele>
        <time>2020-08-30 09:58:51</time>
      </trkpt>
      <trkpt lat="44.38438" lon="4.41413">
        <ele>135.03955</ele>
        <time>2020-08-30 09:58:54</time>
      </trkpt>
      <trkpt lat="44.3844" lon="4.41411">
        <ele>135.31561</ele>
        <time>2020-08-30 09:58:55</time>
      </trkpt>
      <trkpt lat="44.3848" lon="4.41393">
        <ele>134.33533</ele>
        <time>2020-08-30 09:59:05</time>
      </trkpt>
      <trkpt lat="44.38499" lon="4.41389">
        <ele>134.65997</ele>
        <time>2020-08-30 09:59:09</time>
      </trkpt>
      <trkpt lat="44.38554" lon="4.41371">
        <ele>136.03772</ele>
        <time>2020-08-30 09:59:20</time>
      </trkpt>
      <trkpt lat="44.38567" lon="4.41372">
        <ele>136.60602</ele>
        <time>2020-08-30 09:59:23</time>
      </trkpt>
      <trkpt lat="44.38571" lon="4.41375">
        <ele>135.86682</ele>
        <time>2020-08-30 09:59:24</time>
      </trkpt>
      <trkpt lat="44.38575" lon="4.41378">
        <ele>135.17566</ele>
        <time>2020-08-30 09:59:25</time>
      </trkpt>
      <trkpt lat="44.38583" lon="4.41389">
        <ele>137.63037</ele>
        <time>2020-08-30 09:59:27</time>
      </trkpt>
      <trkpt lat="44.38585" lon="4.41395">
        <ele>135.579</ele>
        <time>2020-08-30 09:59:28</time>
      </trkpt>
      <trkpt lat="44.38601" lon="4.41422">
        <ele>141.05908</ele>
        <time>2020-08-30 09:59:32</time>
      </trkpt>
      <trkpt lat="44.38602" lon="4.41427">
        <ele>141.5893</ele>
        <time>2020-08-30 09:59:33</time>
      </trkpt>
      <trkpt lat="44.38614" lon="4.41458">
        <ele>140.29047</ele>
        <time>2020-08-30 09:59:39</time>
      </trkpt>
      <trkpt lat="44.38617" lon="4.41477">
        <ele>136.55481</ele>
        <time>2020-08-30 09:59:42</time>
      </trkpt>
      <trkpt lat="44.3862" lon="4.41482">
        <ele>137.36768</ele>
        <time>2020-08-30 09:59:43</time>
      </trkpt>
      <trkpt lat="44.38633" lon="4.4158">
        <ele>135.04578</ele>
        <time>2020-08-30 09:59:56</time>
      </trkpt>
      <trkpt lat="44.38632" lon="4.41596">
        <ele>136.86304</ele>
        <time>2020-08-30 09:59:58</time>
      </trkpt>
      <trkpt lat="44.38629" lon="4.41613">
        <ele>132.65424</ele>
        <time>2020-08-30 10:00:00</time>
      </trkpt>
      <trkpt lat="44.38624" lon="4.41628">
        <ele>132.72131</ele>
        <time>2020-08-30 10:00:02</time>
      </trkpt>
      <trkpt lat="44.38611" lon="4.41665">
        <ele>131.04724</ele>
        <time>2020-08-30 10:00:07</time>
      </trkpt>
      <trkpt lat="44.38572" lon="4.41731">
        <ele>130.2201</ele>
        <time>2020-08-30 10:00:17</time>
      </trkpt>
      <trkpt lat="44.38556" lon="4.41746">
        <ele>129.80786</ele>
        <time>2020-08-30 10:00:20</time>
      </trkpt>
      <trkpt lat="44.38514" lon="4.41781">
        <ele>129.52917</ele>
        <time>2020-08-30 10:00:28</time>
      </trkpt>
      <trkpt lat="44.3851" lon="4.41785">
        <ele>129.91742</ele>
        <time>2020-08-30 10:00:29</time>
      </trkpt>
      <trkpt lat="44.38504" lon="4.41788">
        <ele>129.72876</ele>
        <time>2020-08-30 10:00:30</time>
      </trkpt>
      <trkpt lat="44.38488" lon="4.41795">
        <ele>130.23853</ele>
        <time>2020-08-30 10:00:33</time>
      </trkpt>
      <trkpt lat="44.38434" lon="4.41813">
        <ele>129.59686</ele>
        <time>2020-08-30 10:00:43</time>
      </trkpt>
      <trkpt lat="44.38411" lon="4.41826">
        <ele>125.85889</ele>
        <time>2020-08-30 10:00:47</time>
      </trkpt>
      <trkpt lat="44.38378" lon="4.41851">
        <ele>127.30475</ele>
        <time>2020-08-30 10:00:53</time>
      </trkpt>
      <trkpt lat="44.38357" lon="4.41861">
        <ele>130.63037</ele>
        <time>2020-08-30 10:00:57</time>
      </trkpt>
      <trkpt lat="44.38342" lon="4.41862">
        <ele>132.34991</ele>
        <time>2020-08-30 10:01:01</time>
      </trkpt>
      <trkpt lat="44.38327" lon="4.41862">
        <ele>131.6875</ele>
        <time>2020-08-30 10:01:04</time>
      </trkpt>
      <trkpt lat="44.38321" lon="4.41862">
        <ele>132.6084</ele>
        <time>2020-08-30 10:01:06</time>
      </trkpt>
      <trkpt lat="44.38316" lon="4.41859">
        <ele>134.39557</ele>
        <time>2020-08-30 10:01:07</time>
      </trkpt>
      <trkpt lat="44.38311" lon="4.41858">
        <ele>131.6466</ele>
        <time>2020-08-30 10:01:08</time>
      </trkpt>
      <trkpt lat="44.38288" lon="4.41856">
        <ele>138.4331</ele>
        <time>2020-08-30 10:01:15</time>
      </trkpt>
      <trkpt lat="44.38269" lon="4.41854">
        <ele>137.62732</ele>
        <time>2020-08-30 10:01:22</time>
      </trkpt>
      <trkpt lat="44.38231" lon="4.41847">
        <ele>136.3338</ele>
        <time>2020-08-30 10:01:34</time>
      </trkpt>
      <trkpt lat="44.38227" lon="4.41846">
        <ele>135.98999</ele>
        <time>2020-08-30 10:01:35</time>
      </trkpt>
      <trkpt lat="44.38176" lon="4.41833">
        <ele>138.26471</ele>
        <time>2020-08-30 10:01:52</time>
      </trkpt>
      <trkpt lat="44.38175" lon="4.41834">
        <ele>136.83447</ele>
        <time>2020-08-30 10:01:54</time>
      </trkpt>
      <trkpt lat="44.38174" lon="4.41833">
        <ele>139.78577</ele>
        <time>2020-08-30 10:02:01</time>
      </trkpt>
      <trkpt lat="44.38174" lon="4.41834">
        <ele>139.06458</ele>
        <time>2020-08-30 10:02:02</time>
      </trkpt>
      <trkpt lat="44.38174" lon="4.41832">
        <ele>140.35486</ele>
        <time>2020-08-30 10:02:09</time>
      </trkpt>
      <trkpt lat="44.38174" lon="4.41832">
        <ele>141.12897</ele>
        <time>2020-08-30 10:02:11</time>
      </trkpt>
      <trkpt lat="44.38174" lon="4.4183">
        <ele>140.06238</ele>
        <time>2020-08-30 10:02:43</time>
      </trkpt>
      <trkpt lat="44.38173" lon="4.4183">
        <ele>140.88647</ele>
        <time>2020-08-30 10:03:11</time>
      </trkpt>
      <trkpt lat="44.38158" lon="4.41829">
        <ele>143.16888</ele>
        <time>2020-08-30 10:03:18</time>
      </trkpt>
      <trkpt lat="44.38074" lon="4.41826">
        <ele>150.08221</ele>
        <time>2020-08-30 10:03:47</time>
      </trkpt>
      <trkpt lat="44.38051" lon="4.41823">
        <ele>151.93799</ele>
        <time>2020-08-30 10:03:55</time>
      </trkpt>
      <trkpt lat="44.38042" lon="4.41824">
        <ele>149.64655</ele>
        <time>2020-08-30 10:03:58</time>
      </trkpt>
      <trkpt lat="44.38012" lon="4.41827">
        <ele>150.83179</ele>
        <time>2020-08-30 10:04:05</time>
      </trkpt>
      <trkpt lat="44.37985" lon="4.41832">
        <ele>152.0683</ele>
        <time>2020-08-30 10:04:11</time>
      </trkpt>
      <trkpt lat="44.37979" lon="4.41832">
        <ele>152.48914</ele>
        <time>2020-08-30 10:04:12</time>
      </trkpt>
      <trkpt lat="44.3796" lon="4.41836">
        <ele>152.06256</ele>
        <time>2020-08-30 10:04:16</time>
      </trkpt>
      <trkpt lat="44.37933" lon="4.41841">
        <ele>151.1654</ele>
        <time>2020-08-30 10:04:22</time>
      </trkpt>
      <trkpt lat="44.37924" lon="4.41845">
        <ele>150.44397</ele>
        <time>2020-08-30 10:04:24</time>
      </trkpt>
      <trkpt lat="44.37916" lon="4.41847">
        <ele>150.0213</ele>
        <time>2020-08-30 10:04:26</time>
      </trkpt>
      <trkpt lat="44.37911" lon="4.41849">
        <ele>149.59985</ele>
        <time>2020-08-30 10:04:27</time>
      </trkpt>
      <trkpt lat="44.37893" lon="4.41853">
        <ele>146.86237</ele>
        <time>2020-08-30 10:04:31</time>
      </trkpt>
      <trkpt lat="44.37884" lon="4.41854">
        <ele>146.79474</ele>
        <time>2020-08-30 10:04:33</time>
      </trkpt>
      <trkpt lat="44.37858" lon="4.41864">
        <ele>147.25244</ele>
        <time>2020-08-30 10:04:39</time>
      </trkpt>
      <trkpt lat="44.37822" lon="4.41884">
        <ele>146.58948</ele>
        <time>2020-08-30 10:04:51</time>
      </trkpt>
      <trkpt lat="44.37819" lon="4.41886">
        <ele>147.11584</ele>
        <time>2020-08-30 10:04:52</time>
      </trkpt>
      <trkpt lat="44.37816" lon="4.41886">
        <ele>146.81116</ele>
        <time>2020-08-30 10:04:53</time>
      </trkpt>
      <trkpt lat="44.37805" lon="4.41891">
        <ele>143.96033</ele>
        <time>2020-08-30 10:04:56</time>
      </trkpt>
      <trkpt lat="44.37788" lon="4.41903">
        <ele>145.26752</ele>
        <time>2020-08-30 10:05:01</time>
      </trkpt>
      <trkpt lat="44.37779" lon="4.41914">
        <ele>145.67279</ele>
        <time>2020-08-30 10:05:04</time>
      </trkpt>
      <trkpt lat="44.37776" lon="4.41918">
        <ele>145.25385</ele>
        <time>2020-08-30 10:05:05</time>
      </trkpt>
      <trkpt lat="44.37761" lon="4.41947">
        <ele>147.21094</ele>
        <time>2020-08-30 10:05:11</time>
      </trkpt>
      <trkpt lat="44.37748" lon="4.41962">
        <ele>148.32129</ele>
        <time>2020-08-30 10:05:15</time>
      </trkpt>
      <trkpt lat="44.37726" lon="4.41987">
        <ele>150.68756</ele>
        <time>2020-08-30 10:05:22</time>
      </trkpt>
      <trkpt lat="44.37717" lon="4.42003">
        <ele>149.14526</ele>
        <time>2020-08-30 10:05:25</time>
      </trkpt>
      <trkpt lat="44.37702" lon="4.42039">
        <ele>146.36914</ele>
        <time>2020-08-30 10:05:31</time>
      </trkpt>
      <trkpt lat="44.37695" lon="4.42055">
        <ele>145.21326</ele>
        <time>2020-08-30 10:05:34</time>
      </trkpt>
      <trkpt lat="44.37632" lon="4.42206">
        <ele>149.48315</ele>
        <time>2020-08-30 10:06:01</time>
      </trkpt>
      <trkpt lat="44.37628" lon="4.42218">
        <ele>149.8205</ele>
        <time>2020-08-30 10:06:03</time>
      </trkpt>
      <trkpt lat="44.37623" lon="4.42267">
        <ele>150.44958</ele>
        <time>2020-08-30 10:06:10</time>
      </trkpt>
      <trkpt lat="44.37623" lon="4.42283">
        <ele>151.26233</ele>
        <time>2020-08-30 10:06:12</time>
      </trkpt>
      <trkpt lat="44.37626" lon="4.42313">
        <ele>152.44196</ele>
        <time>2020-08-30 10:06:16</time>
      </trkpt>
      <trkpt lat="44.37632" lon="4.42356">
        <ele>149.7345</ele>
        <time>2020-08-30 10:06:22</time>
      </trkpt>
      <trkpt lat="44.37638" lon="4.42376">
        <ele>148.42462</ele>
        <time>2020-08-30 10:06:25</time>
      </trkpt>
      <trkpt lat="44.37678" lon="4.42476">
        <ele>147.18018</ele>
        <time>2020-08-30 10:06:38</time>
      </trkpt>
      <trkpt lat="44.37683" lon="4.42498">
        <ele>146.86841</ele>
        <time>2020-08-30 10:06:40</time>
      </trkpt>
      <trkpt lat="44.37691" lon="4.42561">
        <ele>146.06085</ele>
        <time>2020-08-30 10:06:46</time>
      </trkpt>
      <trkpt lat="44.37698" lon="4.42578">
        <ele>146.58624</ele>
        <time>2020-08-30 10:06:48</time>
      </trkpt>
      <trkpt lat="44.37816" lon="4.42837">
        <ele>146.70844</ele>
        <time>2020-08-30 10:07:18</time>
      </trkpt>
      <trkpt lat="44.37856" lon="4.42942">
        <ele>139.26837</ele>
        <time>2020-08-30 10:07:31</time>
      </trkpt>
      <trkpt lat="44.37888" lon="4.43035">
        <ele>134.41504</ele>
        <time>2020-08-30 10:07:42</time>
      </trkpt>
      <trkpt lat="44.37891" lon="4.43045">
        <ele>133.96002</ele>
        <time>2020-08-30 10:07:43</time>
      </trkpt>
      <trkpt lat="44.379" lon="4.43084">
        <ele>133.11792</ele>
        <time>2020-08-30 10:07:47</time>
      </trkpt>
      <trkpt lat="44.37931" lon="4.43353">
        <ele>125.51752</ele>
        <time>2020-08-30 10:08:17</time>
      </trkpt>
      <trkpt lat="44.37935" lon="4.43465">
        <ele>125.57764</ele>
        <time>2020-08-30 10:08:30</time>
      </trkpt>
      <trkpt lat="44.37931" lon="4.4348">
        <ele>125.74597</ele>
        <time>2020-08-30 10:08:32</time>
      </trkpt>
      <trkpt lat="44.37926" lon="4.43494">
        <ele>126.50702</ele>
        <time>2020-08-30 10:08:34</time>
      </trkpt>
      <trkpt lat="44.37892" lon="4.43572">
        <ele>132.1903</ele>
        <time>2020-08-30 10:08:51</time>
      </trkpt>
      <trkpt lat="44.37892" lon="4.43575">
        <ele>133.21423</ele>
        <time>2020-08-30 10:08:52</time>
      </trkpt>
      <trkpt lat="44.37891" lon="4.43578">
        <ele>133.03687</ele>
        <time>2020-08-30 10:08:53</time>
      </trkpt>
      <trkpt lat="44.37889" lon="4.4359">
        <ele>132.87946</ele>
        <time>2020-08-30 10:08:57</time>
      </trkpt>
      <trkpt lat="44.37889" lon="4.43594">
        <ele>131.68658</ele>
        <time>2020-08-30 10:08:58</time>
      </trkpt>
      <trkpt lat="44.37889" lon="4.43604">
        <ele>133.13702</ele>
        <time>2020-08-30 10:09:01</time>
      </trkpt>
      <trkpt lat="44.37894" lon="4.43616">
        <ele>133.66388</ele>
        <time>2020-08-30 10:09:05</time>
      </trkpt>
      <trkpt lat="44.37897" lon="4.43622">
        <ele>133.59528</ele>
        <time>2020-08-30 10:09:07</time>
      </trkpt>
      <trkpt lat="44.37905" lon="4.43631">
        <ele>134.60876</ele>
        <time>2020-08-30 10:09:11</time>
      </trkpt>
      <trkpt lat="44.37907" lon="4.43634">
        <ele>134.19977</ele>
        <time>2020-08-30 10:09:12</time>
      </trkpt>
      <trkpt lat="44.37908" lon="4.43636">
        <ele>134.81812</ele>
        <time>2020-08-30 10:09:13</time>
      </trkpt>
      <trkpt lat="44.37911" lon="4.4364">
        <ele>136.33899</ele>
        <time>2020-08-30 10:09:15</time>
      </trkpt>
      <trkpt lat="44.37913" lon="4.43643">
        <ele>136.91522</ele>
        <time>2020-08-30 10:09:16</time>
      </trkpt>
      <trkpt lat="44.37921" lon="4.43654">
        <ele>137.31201</ele>
        <time>2020-08-30 10:09:21</time>
      </trkpt>
      <trkpt lat="44.37925" lon="4.43658">
        <ele>136.78467</ele>
        <time>2020-08-30 10:09:23</time>
      </trkpt>
      <trkpt lat="44.37934" lon="4.43669">
        <ele>137.63538</ele>
        <time>2020-08-30 10:09:28</time>
      </trkpt>
      <trkpt lat="44.37936" lon="4.43671">
        <ele>137.8313</ele>
        <time>2020-08-30 10:09:29</time>
      </trkpt>
      <trkpt lat="44.37945" lon="4.43684">
        <ele>140.23889</ele>
        <time>2020-08-30 10:09:35</time>
      </trkpt>
      <trkpt lat="44.37946" lon="4.43687">
        <ele>140.50787</ele>
        <time>2020-08-30 10:09:36</time>
      </trkpt>
      <trkpt lat="44.37948" lon="4.43689">
        <ele>141.03375</ele>
        <time>2020-08-30 10:09:37</time>
      </trkpt>
      <trkpt lat="44.37954" lon="4.43696">
        <ele>140.17065</ele>
        <time>2020-08-30 10:09:41</time>
      </trkpt>
      <trkpt lat="44.37955" lon="4.43698">
        <ele>140.12146</ele>
        <time>2020-08-30 10:09:42</time>
      </trkpt>
      <trkpt lat="44.37956" lon="4.43701">
        <ele>140.28577</ele>
        <time>2020-08-30 10:09:43</time>
      </trkpt>
      <trkpt lat="44.37958" lon="4.43705">
        <ele>140.47699</ele>
        <time>2020-08-30 10:09:45</time>
      </trkpt>
      <trkpt lat="44.37966" lon="4.43715">
        <ele>143.10565</ele>
        <time>2020-08-30 10:09:51</time>
      </trkpt>
      <trkpt lat="44.37969" lon="4.43718">
        <ele>143.64526</ele>
        <time>2020-08-30 10:09:53</time>
      </trkpt>
      <trkpt lat="44.37975" lon="4.43724">
        <ele>145.9668</ele>
        <time>2020-08-30 10:09:57</time>
      </trkpt>
      <trkpt lat="44.37977" lon="4.43728">
        <ele>146.52008</ele>
        <time>2020-08-30 10:09:59</time>
      </trkpt>
      <trkpt lat="44.37979" lon="4.43729">
        <ele>145.99084</ele>
        <time>2020-08-30 10:10:00</time>
      </trkpt>
      <trkpt lat="44.37982" lon="4.43732">
        <ele>146.37372</ele>
        <time>2020-08-30 10:10:02</time>
      </trkpt>
      <trkpt lat="44.37985" lon="4.43735">
        <ele>146.76428</ele>
        <time>2020-08-30 10:10:04</time>
      </trkpt>
      <trkpt lat="44.37993" lon="4.43743">
        <ele>148.34998</ele>
        <time>2020-08-30 10:10:09</time>
      </trkpt>
      <trkpt lat="44.37997" lon="4.43748">
        <ele>147.41138</ele>
        <time>2020-08-30 10:10:12</time>
      </trkpt>
      <trkpt lat="44.38001" lon="4.43754">
        <ele>148.2362</ele>
        <time>2020-08-30 10:10:15</time>
      </trkpt>
      <trkpt lat="44.38018" lon="4.43774">
        <ele>149.67657</ele>
        <time>2020-08-30 10:10:27</time>
      </trkpt>
      <trkpt lat="44.38024" lon="4.43781">
        <ele>150.22467</ele>
        <time>2020-08-30 10:10:31</time>
      </trkpt>
      <trkpt lat="44.38032" lon="4.43788">
        <ele>151.88184</ele>
        <time>2020-08-30 10:10:36</time>
      </trkpt>
      <trkpt lat="44.38034" lon="4.4379">
        <ele>152.65503</ele>
        <time>2020-08-30 10:10:37</time>
      </trkpt>
      <trkpt lat="44.38049" lon="4.43808">
        <ele>153.41418</ele>
        <time>2020-08-30 10:10:50</time>
      </trkpt>
      <trkpt lat="44.38056" lon="4.43814">
        <ele>154.67078</ele>
        <time>2020-08-30 10:10:55</time>
      </trkpt>
      <trkpt lat="44.38061" lon="4.4382">
        <ele>155.7334</ele>
        <time>2020-08-30 10:10:59</time>
      </trkpt>
      <trkpt lat="44.38062" lon="4.43822">
        <ele>155.51697</ele>
        <time>2020-08-30 10:11:00</time>
      </trkpt>
      <trkpt lat="44.38073" lon="4.43835">
        <ele>158.51428</ele>
        <time>2020-08-30 10:11:09</time>
      </trkpt>
      <trkpt lat="44.38077" lon="4.43838">
        <ele>159.2937</ele>
        <time>2020-08-30 10:11:12</time>
      </trkpt>
      <trkpt lat="44.38078" lon="4.43839">
        <ele>158.88806</ele>
        <time>2020-08-30 10:11:13</time>
      </trkpt>
      <trkpt lat="44.38079" lon="4.43841">
        <ele>159.37091</ele>
        <time>2020-08-30 10:11:14</time>
      </trkpt>
      <trkpt lat="44.38082" lon="4.43844">
        <ele>159.49695</ele>
        <time>2020-08-30 10:11:16</time>
      </trkpt>
      <trkpt lat="44.38085" lon="4.43847">
        <ele>158.51428</ele>
        <time>2020-08-30 10:11:18</time>
      </trkpt>
      <trkpt lat="44.38101" lon="4.43868">
        <ele>161.11859</ele>
        <time>2020-08-30 10:11:30</time>
      </trkpt>
      <trkpt lat="44.38107" lon="4.43875">
        <ele>159.16254</ele>
        <time>2020-08-30 10:11:34</time>
      </trkpt>
      <trkpt lat="44.38109" lon="4.43878">
        <ele>160.17047</ele>
        <time>2020-08-30 10:11:36</time>
      </trkpt>
      <trkpt lat="44.3811" lon="4.4388">
        <ele>159.27448</ele>
        <time>2020-08-30 10:11:37</time>
      </trkpt>
      <trkpt lat="44.38114" lon="4.43885">
        <ele>160.33545</ele>
        <time>2020-08-30 10:11:40</time>
      </trkpt>
      <trkpt lat="44.38119" lon="4.43892">
        <ele>162.19287</ele>
        <time>2020-08-30 10:11:44</time>
      </trkpt>
      <trkpt lat="44.3812" lon="4.43894">
        <ele>162.74097</ele>
        <time>2020-08-30 10:11:45</time>
      </trkpt>
      <trkpt lat="44.38123" lon="4.43899">
        <ele>159.76599</ele>
        <time>2020-08-30 10:11:48</time>
      </trkpt>
      <trkpt lat="44.38126" lon="4.43902">
        <ele>163.15692</ele>
        <time>2020-08-30 10:11:50</time>
      </trkpt>
      <trkpt lat="44.38127" lon="4.43904">
        <ele>162.72449</ele>
        <time>2020-08-30 10:11:51</time>
      </trkpt>
      <trkpt lat="44.38128" lon="4.43906">
        <ele>162.96704</ele>
        <time>2020-08-30 10:11:52</time>
      </trkpt>
      <trkpt lat="44.38147" lon="4.43937">
        <ele>164.02966</ele>
        <time>2020-08-30 10:12:10</time>
      </trkpt>
      <trkpt lat="44.38148" lon="4.43939">
        <ele>164.30652</ele>
        <time>2020-08-30 10:12:11</time>
      </trkpt>
      <trkpt lat="44.38153" lon="4.43945">
        <ele>165.85858</ele>
        <time>2020-08-30 10:12:15</time>
      </trkpt>
      <trkpt lat="44.38154" lon="4.43947">
        <ele>166.79541</ele>
        <time>2020-08-30 10:12:16</time>
      </trkpt>
      <trkpt lat="44.38181" lon="4.43981">
        <ele>171.86243</ele>
        <time>2020-08-30 10:12:35</time>
      </trkpt>
      <trkpt lat="44.38186" lon="4.43988">
        <ele>174.51855</ele>
        <time>2020-08-30 10:12:39</time>
      </trkpt>
      <trkpt lat="44.3819" lon="4.43995">
        <ele>175.6394</ele>
        <time>2020-08-30 10:12:43</time>
      </trkpt>
      <trkpt lat="44.38195" lon="4.44003">
        <ele>177.6388</ele>
        <time>2020-08-30 10:12:47</time>
      </trkpt>
      <trkpt lat="44.38202" lon="4.44014">
        <ele>178.0199</ele>
        <time>2020-08-30 10:12:53</time>
      </trkpt>
      <trkpt lat="44.3821" lon="4.44028">
        <ele>177.67151</ele>
        <time>2020-08-30 10:13:00</time>
      </trkpt>
      <trkpt lat="44.3821" lon="4.4403">
        <ele>177.03387</ele>
        <time>2020-08-30 10:13:01</time>
      </trkpt>
      <trkpt lat="44.38213" lon="4.44038">
        <ele>177.59546</ele>
        <time>2020-08-30 10:13:05</time>
      </trkpt>
      <trkpt lat="44.38214" lon="4.44043">
        <ele>178.72852</ele>
        <time>2020-08-30 10:13:07</time>
      </trkpt>
      <trkpt lat="44.38216" lon="4.44048">
        <ele>179.87231</ele>
        <time>2020-08-30 10:13:09</time>
      </trkpt>
      <trkpt lat="44.38217" lon="4.4405">
        <ele>181.71863</ele>
        <time>2020-08-30 10:13:10</time>
      </trkpt>
      <trkpt lat="44.38219" lon="4.44058">
        <ele>181.09253</ele>
        <time>2020-08-30 10:13:13</time>
      </trkpt>
      <trkpt lat="44.3822" lon="4.4406">
        <ele>182.35724</ele>
        <time>2020-08-30 10:13:14</time>
      </trkpt>
      <trkpt lat="44.38227" lon="4.44076">
        <ele>183.29114</ele>
        <time>2020-08-30 10:13:21</time>
      </trkpt>
      <trkpt lat="44.3824" lon="4.441">
        <ele>184.68256</ele>
        <time>2020-08-30 10:13:32</time>
      </trkpt>
      <trkpt lat="44.38247" lon="4.44108">
        <ele>187.1178</ele>
        <time>2020-08-30 10:13:37</time>
      </trkpt>
      <trkpt lat="44.38257" lon="4.44115">
        <ele>188.21375</ele>
        <time>2020-08-30 10:13:43</time>
      </trkpt>
      <trkpt lat="44.38267" lon="4.44122">
        <ele>186.94092</ele>
        <time>2020-08-30 10:13:48</time>
      </trkpt>
      <trkpt lat="44.38279" lon="4.44131">
        <ele>189.08997</ele>
        <time>2020-08-30 10:13:54</time>
      </trkpt>
      <trkpt lat="44.3828" lon="4.44132">
        <ele>189.40344</ele>
        <time>2020-08-30 10:13:55</time>
      </trkpt>
      <trkpt lat="44.38287" lon="4.44141">
        <ele>191.3501</ele>
        <time>2020-08-30 10:14:00</time>
      </trkpt>
      <trkpt lat="44.38289" lon="4.44144">
        <ele>191.1283</ele>
        <time>2020-08-30 10:14:02</time>
      </trkpt>
      <trkpt lat="44.38292" lon="4.44151">
        <ele>194.5487</ele>
        <time>2020-08-30 10:14:05</time>
      </trkpt>
      <trkpt lat="44.38293" lon="4.44153">
        <ele>193.63666</ele>
        <time>2020-08-30 10:14:06</time>
      </trkpt>
      <trkpt lat="44.38298" lon="4.44164">
        <ele>195.50739</ele>
        <time>2020-08-30 10:14:11</time>
      </trkpt>
      <trkpt lat="44.38299" lon="4.44166">
        <ele>195.09167</ele>
        <time>2020-08-30 10:14:12</time>
      </trkpt>
      <trkpt lat="44.38301" lon="4.44173">
        <ele>195.2851</ele>
        <time>2020-08-30 10:14:15</time>
      </trkpt>
      <trkpt lat="44.38302" lon="4.44175">
        <ele>196.47144</ele>
        <time>2020-08-30 10:14:16</time>
      </trkpt>
      <trkpt lat="44.38303" lon="4.44177">
        <ele>196.86505</ele>
        <time>2020-08-30 10:14:17</time>
      </trkpt>
      <trkpt lat="44.38307" lon="4.44186">
        <ele>198.29883</ele>
        <time>2020-08-30 10:14:21</time>
      </trkpt>
      <trkpt lat="44.38308" lon="4.44189">
        <ele>198.63354</ele>
        <time>2020-08-30 10:14:22</time>
      </trkpt>
      <trkpt lat="44.3831" lon="4.44193">
        <ele>197.86292</ele>
        <time>2020-08-30 10:14:24</time>
      </trkpt>
      <trkpt lat="44.38315" lon="4.44207">
        <ele>198.20618</ele>
        <time>2020-08-30 10:14:30</time>
      </trkpt>
      <trkpt lat="44.38317" lon="4.44213">
        <ele>199.52582</ele>
        <time>2020-08-30 10:14:33</time>
      </trkpt>
      <trkpt lat="44.3832" lon="4.44219">
        <ele>199.98846</ele>
        <time>2020-08-30 10:14:36</time>
      </trkpt>
      <trkpt lat="44.38322" lon="4.44228">
        <ele>198.21814</ele>
        <time>2020-08-30 10:14:40</time>
      </trkpt>
      <trkpt lat="44.38326" lon="4.44239">
        <ele>199.4721</ele>
        <time>2020-08-30 10:14:45</time>
      </trkpt>
      <trkpt lat="44.38328" lon="4.44244">
        <ele>198.62</ele>
        <time>2020-08-30 10:14:47</time>
      </trkpt>
      <trkpt lat="44.38332" lon="4.44255">
        <ele>200.02014</ele>
        <time>2020-08-30 10:14:52</time>
      </trkpt>
      <trkpt lat="44.38339" lon="4.44282">
        <ele>203.53442</ele>
        <time>2020-08-30 10:15:03</time>
      </trkpt>
      <trkpt lat="44.3834" lon="4.44285">
        <ele>204.22656</ele>
        <time>2020-08-30 10:15:04</time>
      </trkpt>
      <trkpt lat="44.38341" lon="4.4429">
        <ele>203.31012</ele>
        <time>2020-08-30 10:15:06</time>
      </trkpt>
      <trkpt lat="44.38341" lon="4.44292">
        <ele>202.72882</ele>
        <time>2020-08-30 10:15:07</time>
      </trkpt>
      <trkpt lat="44.38342" lon="4.44302">
        <ele>203.83795</ele>
        <time>2020-08-30 10:15:11</time>
      </trkpt>
      <trkpt lat="44.38343" lon="4.44309">
        <ele>204.68445</ele>
        <time>2020-08-30 10:15:14</time>
      </trkpt>
      <trkpt lat="44.38345" lon="4.4432">
        <ele>203.01282</ele>
        <time>2020-08-30 10:15:19</time>
      </trkpt>
      <trkpt lat="44.38345" lon="4.44323">
        <ele>202.7096</ele>
        <time>2020-08-30 10:15:20</time>
      </trkpt>
      <trkpt lat="44.38345" lon="4.44327">
        <ele>202.91858</ele>
        <time>2020-08-30 10:15:22</time>
      </trkpt>
      <trkpt lat="44.38346" lon="4.44332">
        <ele>203.93665</ele>
        <time>2020-08-30 10:15:24</time>
      </trkpt>
      <trkpt lat="44.38347" lon="4.44336">
        <ele>205.39764</ele>
        <time>2020-08-30 10:15:26</time>
      </trkpt>
      <trkpt lat="44.38348" lon="4.44339">
        <ele>205.66846</ele>
        <time>2020-08-30 10:15:27</time>
      </trkpt>
      <trkpt lat="44.38352" lon="4.44357">
        <ele>206.65027</ele>
        <time>2020-08-30 10:15:35</time>
      </trkpt>
      <trkpt lat="44.38353" lon="4.44358">
        <ele>206.19733</ele>
        <time>2020-08-30 10:15:36</time>
      </trkpt>
      <trkpt lat="44.38355" lon="4.44367">
        <ele>205.13702</ele>
        <time>2020-08-30 10:15:40</time>
      </trkpt>
      <trkpt lat="44.38357" lon="4.44377">
        <ele>205.34222</ele>
        <time>2020-08-30 10:15:45</time>
      </trkpt>
      <trkpt lat="44.38359" lon="4.44391">
        <ele>204.67139</ele>
        <time>2020-08-30 10:15:51</time>
      </trkpt>
      <trkpt lat="44.38359" lon="4.44393">
        <ele>205.245</ele>
        <time>2020-08-30 10:15:52</time>
      </trkpt>
      <trkpt lat="44.3836" lon="4.44398">
        <ele>204.94684</ele>
        <time>2020-08-30 10:15:54</time>
      </trkpt>
      <trkpt lat="44.38361" lon="4.44403">
        <ele>206.11438</ele>
        <time>2020-08-30 10:15:56</time>
      </trkpt>
      <trkpt lat="44.38366" lon="4.44427">
        <ele>210.901</ele>
        <time>2020-08-30 10:16:06</time>
      </trkpt>
      <trkpt lat="44.38367" lon="4.44432">
        <ele>207.5028</ele>
        <time>2020-08-30 10:16:08</time>
      </trkpt>
      <trkpt lat="44.38369" lon="4.44439">
        <ele>213.98682</ele>
        <time>2020-08-30 10:16:11</time>
      </trkpt>
      <trkpt lat="44.3837" lon="4.44442">
        <ele>214.65851</ele>
        <time>2020-08-30 10:16:12</time>
      </trkpt>
      <trkpt lat="44.38371" lon="4.44446">
        <ele>214.38916</ele>
        <time>2020-08-30 10:16:14</time>
      </trkpt>
      <trkpt lat="44.38372" lon="4.44454">
        <ele>214.80469</ele>
        <time>2020-08-30 10:16:17</time>
      </trkpt>
      <trkpt lat="44.38374" lon="4.44459">
        <ele>215.1565</ele>
        <time>2020-08-30 10:16:19</time>
      </trkpt>
      <trkpt lat="44.38376" lon="4.4447">
        <ele>215.52795</ele>
        <time>2020-08-30 10:16:24</time>
      </trkpt>
      <trkpt lat="44.38378" lon="4.4448">
        <ele>215.1565</ele>
        <time>2020-08-30 10:16:28</time>
      </trkpt>
      <trkpt lat="44.38378" lon="4.44483">
        <ele>217.05829</ele>
        <time>2020-08-30 10:16:29</time>
      </trkpt>
      <trkpt lat="44.3838" lon="4.44489">
        <ele>219.07013</ele>
        <time>2020-08-30 10:16:32</time>
      </trkpt>
      <trkpt lat="44.38381" lon="4.44492">
        <ele>218.76135</ele>
        <time>2020-08-30 10:16:33</time>
      </trkpt>
      <trkpt lat="44.38381" lon="4.44494">
        <ele>219.56567</ele>
        <time>2020-08-30 10:16:34</time>
      </trkpt>
      <trkpt lat="44.38382" lon="4.44501">
        <ele>220.77295</ele>
        <time>2020-08-30 10:16:37</time>
      </trkpt>
      <trkpt lat="44.38385" lon="4.44511">
        <ele>221.56543</ele>
        <time>2020-08-30 10:16:41</time>
      </trkpt>
      <trkpt lat="44.38385" lon="4.44519">
        <ele>221.64478</ele>
        <time>2020-08-30 10:16:44</time>
      </trkpt>
      <trkpt lat="44.38387" lon="4.44526">
        <ele>222.62231</ele>
        <time>2020-08-30 10:16:47</time>
      </trkpt>
      <trkpt lat="44.38388" lon="4.44534">
        <ele>223.31763</ele>
        <time>2020-08-30 10:16:50</time>
      </trkpt>
      <trkpt lat="44.38388" lon="4.44543">
        <ele>225.32776</ele>
        <time>2020-08-30 10:16:54</time>
      </trkpt>
      <trkpt lat="44.38389" lon="4.44553">
        <ele>223.63635</ele>
        <time>2020-08-30 10:16:58</time>
      </trkpt>
      <trkpt lat="44.3839" lon="4.44562">
        <ele>228.61566</ele>
        <time>2020-08-30 10:17:02</time>
      </trkpt>
      <trkpt lat="44.38394" lon="4.44579">
        <ele>230.58765</ele>
        <time>2020-08-30 10:17:10</time>
      </trkpt>
      <trkpt lat="44.38396" lon="4.44584">
        <ele>230.94873</ele>
        <time>2020-08-30 10:17:12</time>
      </trkpt>
      <trkpt lat="44.38399" lon="4.44598">
        <ele>229.7716</ele>
        <time>2020-08-30 10:17:18</time>
      </trkpt>
      <trkpt lat="44.38399" lon="4.446">
        <ele>234.0271</ele>
        <time>2020-08-30 10:17:19</time>
      </trkpt>
      <trkpt lat="44.38402" lon="4.44613">
        <ele>234.52002</ele>
        <time>2020-08-30 10:17:24</time>
      </trkpt>
      <trkpt lat="44.38406" lon="4.44622">
        <ele>234.0271</ele>
        <time>2020-08-30 10:17:28</time>
      </trkpt>
      <trkpt lat="44.38407" lon="4.44624">
        <ele>236.26831</ele>
        <time>2020-08-30 10:17:29</time>
      </trkpt>
      <trkpt lat="44.3841" lon="4.44628">
        <ele>235.38489</ele>
        <time>2020-08-30 10:17:31</time>
      </trkpt>
      <trkpt lat="44.38411" lon="4.4463">
        <ele>235.91663</ele>
        <time>2020-08-30 10:17:32</time>
      </trkpt>
      <trkpt lat="44.38414" lon="4.44636">
        <ele>236.9773</ele>
        <time>2020-08-30 10:17:35</time>
      </trkpt>
      <trkpt lat="44.38415" lon="4.44638">
        <ele>236.62189</ele>
        <time>2020-08-30 10:17:36</time>
      </trkpt>
      <trkpt lat="44.38416" lon="4.4464">
        <ele>236.34802</ele>
        <time>2020-08-30 10:17:37</time>
      </trkpt>
      <trkpt lat="44.38418" lon="4.44645">
        <ele>236.52045</ele>
        <time>2020-08-30 10:17:40</time>
      </trkpt>
      <trkpt lat="44.3842" lon="4.44648">
        <ele>236.89325</ele>
        <time>2020-08-30 10:17:42</time>
      </trkpt>
      <trkpt lat="44.38422" lon="4.44652">
        <ele>237.98273</ele>
        <time>2020-08-30 10:17:44</time>
      </trkpt>
      <trkpt lat="44.38424" lon="4.44655">
        <ele>238.47571</ele>
        <time>2020-08-30 10:17:46</time>
      </trkpt>
      <trkpt lat="44.38432" lon="4.44675">
        <ele>240.16437</ele>
        <time>2020-08-30 10:17:55</time>
      </trkpt>
      <trkpt lat="44.38433" lon="4.44677">
        <ele>240.72058</ele>
        <time>2020-08-30 10:17:56</time>
      </trkpt>
      <trkpt lat="44.38433" lon="4.44679">
        <ele>240.58722</ele>
        <time>2020-08-30 10:17:57</time>
      </trkpt>
      <trkpt lat="44.38435" lon="4.44695">
        <ele>239.55566</ele>
        <time>2020-08-30 10:18:04</time>
      </trkpt>
      <trkpt lat="44.38436" lon="4.44698">
        <ele>239.58502</ele>
        <time>2020-08-30 10:18:05</time>
      </trkpt>
      <trkpt lat="44.38436" lon="4.447">
        <ele>240.66547</ele>
        <time>2020-08-30 10:18:06</time>
      </trkpt>
      <trkpt lat="44.38436" lon="4.44703">
        <ele>240.96228</ele>
        <time>2020-08-30 10:18:07</time>
      </trkpt>
      <trkpt lat="44.38436" lon="4.44706">
        <ele>239.69336</ele>
        <time>2020-08-30 10:18:08</time>
      </trkpt>
      <trkpt lat="44.38439" lon="4.44736">
        <ele>244.60559</ele>
        <time>2020-08-30 10:18:19</time>
      </trkpt>
      <trkpt lat="44.3844" lon="4.44754">
        <ele>245.30988</ele>
        <time>2020-08-30 10:18:26</time>
      </trkpt>
      <trkpt lat="44.38441" lon="4.44757">
        <ele>245.6792</ele>
        <time>2020-08-30 10:18:27</time>
      </trkpt>
      <trkpt lat="44.38441" lon="4.44759">
        <ele>244.60559</ele>
        <time>2020-08-30 10:18:28</time>
      </trkpt>
      <trkpt lat="44.38441" lon="4.44764">
        <ele>246.89117</ele>
        <time>2020-08-30 10:18:30</time>
      </trkpt>
      <trkpt lat="44.3844" lon="4.44782">
        <ele>245.67206</ele>
        <time>2020-08-30 10:18:37</time>
      </trkpt>
      <trkpt lat="44.38437" lon="4.44789">
        <ele>247.0072</ele>
        <time>2020-08-30 10:18:40</time>
      </trkpt>
      <trkpt lat="44.38436" lon="4.44792">
        <ele>246.99982</ele>
        <time>2020-08-30 10:18:41</time>
      </trkpt>
      <trkpt lat="44.38432" lon="4.44795">
        <ele>246.72571</ele>
        <time>2020-08-30 10:18:43</time>
      </trkpt>
      <trkpt lat="44.38428" lon="4.44794">
        <ele>247.25262</ele>
        <time>2020-08-30 10:18:45</time>
      </trkpt>
      <trkpt lat="44.38427" lon="4.44792">
        <ele>247.13159</ele>
        <time>2020-08-30 10:18:46</time>
      </trkpt>
      <trkpt lat="44.38426" lon="4.4479">
        <ele>247.75903</ele>
        <time>2020-08-30 10:18:47</time>
      </trkpt>
      <trkpt lat="44.38425" lon="4.44787">
        <ele>247.24449</ele>
        <time>2020-08-30 10:18:48</time>
      </trkpt>
      <trkpt lat="44.38425" lon="4.4478">
        <ele>247.48718</ele>
        <time>2020-08-30 10:18:50</time>
      </trkpt>
      <trkpt lat="44.38426" lon="4.44777">
        <ele>248.02393</ele>
        <time>2020-08-30 10:18:51</time>
      </trkpt>
      <trkpt lat="44.3843" lon="4.44762">
        <ele>248.66455</ele>
        <time>2020-08-30 10:18:56</time>
      </trkpt>
      <trkpt lat="44.38431" lon="4.44755">
        <ele>249.02625</ele>
        <time>2020-08-30 10:18:59</time>
      </trkpt>
      <trkpt lat="44.3843" lon="4.44741">
        <ele>249.85803</ele>
        <time>2020-08-30 10:19:04</time>
      </trkpt>
      <trkpt lat="44.3843" lon="4.44738">
        <ele>250.40033</ele>
        <time>2020-08-30 10:19:05</time>
      </trkpt>
      <trkpt lat="44.38428" lon="4.4473">
        <ele>249.02625</ele>
        <time>2020-08-30 10:19:08</time>
      </trkpt>
      <trkpt lat="44.38427" lon="4.44727">
        <ele>249.41364</ele>
        <time>2020-08-30 10:19:09</time>
      </trkpt>
      <trkpt lat="44.38424" lon="4.44716">
        <ele>249.66248</ele>
        <time>2020-08-30 10:19:13</time>
      </trkpt>
      <trkpt lat="44.38422" lon="4.44708">
        <ele>251.00806</ele>
        <time>2020-08-30 10:19:16</time>
      </trkpt>
      <trkpt lat="44.3842" lon="4.44703">
        <ele>249.41364</ele>
        <time>2020-08-30 10:19:18</time>
      </trkpt>
      <trkpt lat="44.38416" lon="4.44697">
        <ele>251.63678</ele>
        <time>2020-08-30 10:19:21</time>
      </trkpt>
      <trkpt lat="44.38413" lon="4.44693">
        <ele>251.49432</ele>
        <time>2020-08-30 10:19:23</time>
      </trkpt>
      <trkpt lat="44.38408" lon="4.44686">
        <ele>251.35919</ele>
        <time>2020-08-30 10:19:26</time>
      </trkpt>
      <trkpt lat="44.38392" lon="4.44666">
        <ele>251.83337</ele>
        <time>2020-08-30 10:19:38</time>
      </trkpt>
      <trkpt lat="44.38391" lon="4.44665">
        <ele>254.11163</ele>
        <time>2020-08-30 10:19:39</time>
      </trkpt>
      <trkpt lat="44.38388" lon="4.4466">
        <ele>255.04297</ele>
        <time>2020-08-30 10:19:42</time>
      </trkpt>
      <trkpt lat="44.38385" lon="4.44655">
        <ele>253.58215</ele>
        <time>2020-08-30 10:19:45</time>
      </trkpt>
      <trkpt lat="44.38379" lon="4.44649">
        <ele>252.40784</ele>
        <time>2020-08-30 10:19:49</time>
      </trkpt>
      <trkpt lat="44.38369" lon="4.44635">
        <ele>251.63043</ele>
        <time>2020-08-30 10:19:56</time>
      </trkpt>
      <trkpt lat="44.38368" lon="4.44633">
        <ele>252.61536</ele>
        <time>2020-08-30 10:19:57</time>
      </trkpt>
      <trkpt lat="44.38365" lon="4.4463">
        <ele>253.17755</ele>
        <time>2020-08-30 10:19:59</time>
      </trkpt>
      <trkpt lat="44.38348" lon="4.44603">
        <ele>257.4781</ele>
        <time>2020-08-30 10:20:13</time>
      </trkpt>
      <trkpt lat="44.38347" lon="4.44601">
        <ele>257.78247</ele>
        <time>2020-08-30 10:20:14</time>
      </trkpt>
      <trkpt lat="44.38341" lon="4.44593">
        <ele>258.6255</ele>
        <time>2020-08-30 10:20:19</time>
      </trkpt>
      <trkpt lat="44.38338" lon="4.44587">
        <ele>258.9864</ele>
        <time>2020-08-30 10:20:22</time>
      </trkpt>
      <trkpt lat="44.38336" lon="4.44585">
        <ele>259.40417</ele>
        <time>2020-08-30 10:20:23</time>
      </trkpt>
      <trkpt lat="44.38335" lon="4.44583">
        <ele>259.09204</ele>
        <time>2020-08-30 10:20:24</time>
      </trkpt>
      <trkpt lat="44.38331" lon="4.44577">
        <ele>259.35907</ele>
        <time>2020-08-30 10:20:27</time>
      </trkpt>
      <trkpt lat="44.3833" lon="4.44575">
        <ele>258.6255</ele>
        <time>2020-08-30 10:20:28</time>
      </trkpt>
      <trkpt lat="44.38327" lon="4.4457">
        <ele>261.82227</ele>
        <time>2020-08-30 10:20:31</time>
      </trkpt>
      <trkpt lat="44.3832" lon="4.44559">
        <ele>263.1579</ele>
        <time>2020-08-30 10:20:37</time>
      </trkpt>
      <trkpt lat="44.38316" lon="4.44551">
        <ele>263.43262</ele>
        <time>2020-08-30 10:20:41</time>
      </trkpt>
      <trkpt lat="44.38309" lon="4.4454">
        <ele>262.22705</ele>
        <time>2020-08-30 10:20:48</time>
      </trkpt>
      <trkpt lat="44.38307" lon="4.44536">
        <ele>266.59265</ele>
        <time>2020-08-30 10:20:50</time>
      </trkpt>
      <trkpt lat="44.38304" lon="4.44531">
        <ele>267.25073</ele>
        <time>2020-08-30 10:20:53</time>
      </trkpt>
      <trkpt lat="44.38299" lon="4.44518">
        <ele>269.14966</ele>
        <time>2020-08-30 10:21:00</time>
      </trkpt>
      <trkpt lat="44.38296" lon="4.44512">
        <ele>269.71594</ele>
        <time>2020-08-30 10:21:03</time>
      </trkpt>
      <trkpt lat="44.3829" lon="4.44497">
        <ele>273.3117</ele>
        <time>2020-08-30 10:21:11</time>
      </trkpt>
      <trkpt lat="44.38289" lon="4.44495">
        <ele>273.0255</ele>
        <time>2020-08-30 10:21:12</time>
      </trkpt>
      <trkpt lat="44.38286" lon="4.44488">
        <ele>273.16406</ele>
        <time>2020-08-30 10:21:15</time>
      </trkpt>
      <trkpt lat="44.38283" lon="4.44482">
        <ele>272.27258</ele>
        <time>2020-08-30 10:21:18</time>
      </trkpt>
      <trkpt lat="44.38279" lon="4.44474">
        <ele>274.1421</ele>
        <time>2020-08-30 10:21:22</time>
      </trkpt>
      <trkpt lat="44.38276" lon="4.44469">
        <ele>274.23108</ele>
        <time>2020-08-30 10:21:25</time>
      </trkpt>
      <trkpt lat="44.38275" lon="4.44467">
        <ele>274.2522</ele>
        <time>2020-08-30 10:21:26</time>
      </trkpt>
      <trkpt lat="44.38273" lon="4.44465">
        <ele>273.95374</ele>
        <time>2020-08-30 10:21:27</time>
      </trkpt>
      <trkpt lat="44.38271" lon="4.44461">
        <ele>274.60632</ele>
        <time>2020-08-30 10:21:29</time>
      </trkpt>
      <trkpt lat="44.3827" lon="4.44459">
        <ele>274.8991</ele>
        <time>2020-08-30 10:21:30</time>
      </trkpt>
      <trkpt lat="44.38263" lon="4.4445">
        <ele>276.33453</ele>
        <time>2020-08-30 10:21:35</time>
      </trkpt>
      <trkpt lat="44.38243" lon="4.44425">
        <ele>278.93445</ele>
        <time>2020-08-30 10:21:50</time>
      </trkpt>
      <trkpt lat="44.38242" lon="4.44423">
        <ele>279.52832</ele>
        <time>2020-08-30 10:21:51</time>
      </trkpt>
      <trkpt lat="44.38236" lon="4.44418">
        <ele>279.7567</ele>
        <time>2020-08-30 10:21:55</time>
      </trkpt>
      <trkpt lat="44.38233" lon="4.44416">
        <ele>279.97168</ele>
        <time>2020-08-30 10:21:57</time>
      </trkpt>
      <trkpt lat="44.38224" lon="4.44409">
        <ele>281.89014</ele>
        <time>2020-08-30 10:22:03</time>
      </trkpt>
      <trkpt lat="44.38222" lon="4.44407">
        <ele>282.30823</ele>
        <time>2020-08-30 10:22:04</time>
      </trkpt>
      <trkpt lat="44.38219" lon="4.44405">
        <ele>283.2074</ele>
        <time>2020-08-30 10:22:06</time>
      </trkpt>
      <trkpt lat="44.38215" lon="4.44401">
        <ele>283.02264</ele>
        <time>2020-08-30 10:22:09</time>
      </trkpt>
      <trkpt lat="44.3821" lon="4.44397">
        <ele>281.62634</ele>
        <time>2020-08-30 10:22:12</time>
      </trkpt>
      <trkpt lat="44.38206" lon="4.44393">
        <ele>282.8225</ele>
        <time>2020-08-30 10:22:14</time>
      </trkpt>
      <trkpt lat="44.38204" lon="4.44392">
        <ele>283.19904</ele>
        <time>2020-08-30 10:22:15</time>
      </trkpt>
      <trkpt lat="44.38203" lon="4.4439">
        <ele>283.28418</ele>
        <time>2020-08-30 10:22:16</time>
      </trkpt>
      <trkpt lat="44.38201" lon="4.44389">
        <ele>283.90704</ele>
        <time>2020-08-30 10:22:17</time>
      </trkpt>
      <trkpt lat="44.38199" lon="4.44387">
        <ele>283.02264</ele>
        <time>2020-08-30 10:22:18</time>
      </trkpt>
      <trkpt lat="44.38193" lon="4.44381">
        <ele>285.4651</ele>
        <time>2020-08-30 10:22:22</time>
      </trkpt>
      <trkpt lat="44.38192" lon="4.4438">
        <ele>285.74133</ele>
        <time>2020-08-30 10:22:23</time>
      </trkpt>
      <trkpt lat="44.3819" lon="4.44378">
        <ele>285.69263</ele>
        <time>2020-08-30 10:22:24</time>
      </trkpt>
      <trkpt lat="44.38185" lon="4.44372">
        <ele>284.1577</ele>
        <time>2020-08-30 10:22:28</time>
      </trkpt>
      <trkpt lat="44.3818" lon="4.44368">
        <ele>286.99677</ele>
        <time>2020-08-30 10:22:31</time>
      </trkpt>
      <trkpt lat="44.38179" lon="4.44367">
        <ele>286.88068</ele>
        <time>2020-08-30 10:22:32</time>
      </trkpt>
      <trkpt lat="44.38175" lon="4.44363">
        <ele>288.41858</ele>
        <time>2020-08-30 10:22:35</time>
      </trkpt>
      <trkpt lat="44.38173" lon="4.44361">
        <ele>288.4713</ele>
        <time>2020-08-30 10:22:36</time>
      </trkpt>
      <trkpt lat="44.38157" lon="4.44345">
        <ele>288.64783</ele>
        <time>2020-08-30 10:22:48</time>
      </trkpt>
      <trkpt lat="44.38152" lon="4.44342">
        <ele>294.5633</ele>
        <time>2020-08-30 10:22:51</time>
      </trkpt>
      <trkpt lat="44.38147" lon="4.44339">
        <ele>294.4563</ele>
        <time>2020-08-30 10:22:54</time>
      </trkpt>
      <trkpt lat="44.38145" lon="4.44338">
        <ele>294.36884</ele>
        <time>2020-08-30 10:22:55</time>
      </trkpt>
      <trkpt lat="44.38119" lon="4.44324">
        <ele>295.89868</ele>
        <time>2020-08-30 10:23:10</time>
      </trkpt>
      <trkpt lat="44.38114" lon="4.44322">
        <ele>295.9746</ele>
        <time>2020-08-30 10:23:13</time>
      </trkpt>
      <trkpt lat="44.38108" lon="4.44319">
        <ele>296.9984</ele>
        <time>2020-08-30 10:23:17</time>
      </trkpt>
      <trkpt lat="44.38101" lon="4.44314">
        <ele>298.4469</ele>
        <time>2020-08-30 10:23:21</time>
      </trkpt>
      <trkpt lat="44.38093" lon="4.4431">
        <ele>299.61713</ele>
        <time>2020-08-30 10:23:26</time>
      </trkpt>
      <trkpt lat="44.38083" lon="4.44303">
        <ele>302.30737</ele>
        <time>2020-08-30 10:23:33</time>
      </trkpt>
      <trkpt lat="44.3808" lon="4.443">
        <ele>303.6277</ele>
        <time>2020-08-30 10:23:36</time>
      </trkpt>
      <trkpt lat="44.38078" lon="4.44299">
        <ele>304.26343</ele>
        <time>2020-08-30 10:23:37</time>
      </trkpt>
      <trkpt lat="44.38073" lon="4.44293">
        <ele>305.26404</ele>
        <time>2020-08-30 10:23:42</time>
      </trkpt>
      <trkpt lat="44.38072" lon="4.44292">
        <ele>305.27405</ele>
        <time>2020-08-30 10:23:43</time>
      </trkpt>
      <trkpt lat="44.37998" lon="4.44298">
        <ele>309.25714</ele>
        <time>2020-08-30 10:24:36</time>
      </trkpt>
      <trkpt lat="44.37982" lon="4.44257">
        <ele>308.3844</ele>
        <time>2020-08-30 10:24:37</time>
      </trkpt>
      <trkpt lat="44.3798" lon="4.44244">
        <ele>311.72913</ele>
        <time>2020-08-30 10:24:38</time>
      </trkpt>
      <trkpt lat="44.37981" lon="4.44242">
        <ele>309.87433</ele>
        <time>2020-08-30 10:24:39</time>
      </trkpt>
      <trkpt lat="44.3798" lon="4.4424">
        <ele>310.81567</ele>
        <time>2020-08-30 10:24:40</time>
      </trkpt>
      <trkpt lat="44.3798" lon="4.44236">
        <ele>308.70703</ele>
        <time>2020-08-30 10:24:41</time>
      </trkpt>
      <trkpt lat="44.3798" lon="4.44224">
        <ele>311.64954</ele>
        <time>2020-08-30 10:24:44</time>
      </trkpt>
      <trkpt lat="44.37979" lon="4.44207">
        <ele>317.01746</ele>
        <time>2020-08-30 10:24:48</time>
      </trkpt>
      <trkpt lat="44.37978" lon="4.442">
        <ele>319.39026</ele>
        <time>2020-08-30 10:24:50</time>
      </trkpt>
      <trkpt lat="44.37973" lon="4.44186">
        <ele>322.78503</ele>
        <time>2020-08-30 10:24:55</time>
      </trkpt>
      <trkpt lat="44.37971" lon="4.44182">
        <ele>323.35876</ele>
        <time>2020-08-30 10:24:57</time>
      </trkpt>
      <trkpt lat="44.37959" lon="4.44165">
        <ele>325.07568</ele>
        <time>2020-08-30 10:25:08</time>
      </trkpt>
      <trkpt lat="44.37951" lon="4.44158">
        <ele>325.9181</ele>
        <time>2020-08-30 10:25:14</time>
      </trkpt>
      <trkpt lat="44.3794" lon="4.44147">
        <ele>327.0763</ele>
        <time>2020-08-30 10:25:22</time>
      </trkpt>
      <trkpt lat="44.37938" lon="4.44145">
        <ele>328.3966</ele>
        <time>2020-08-30 10:25:24</time>
      </trkpt>
      <trkpt lat="44.37937" lon="4.44144">
        <ele>328.15137</ele>
        <time>2020-08-30 10:25:25</time>
      </trkpt>
      <trkpt lat="44.37935" lon="4.44143">
        <ele>327.67468</ele>
        <time>2020-08-30 10:25:26</time>
      </trkpt>
      <trkpt lat="44.37925" lon="4.44132">
        <ele>328.80658</ele>
        <time>2020-08-30 10:25:34</time>
      </trkpt>
      <trkpt lat="44.37921" lon="4.44129">
        <ele>329.80573</ele>
        <time>2020-08-30 10:25:37</time>
      </trkpt>
      <trkpt lat="44.37919" lon="4.44128">
        <ele>330.45068</ele>
        <time>2020-08-30 10:25:38</time>
      </trkpt>
      <trkpt lat="44.37917" lon="4.44125">
        <ele>328.49677</ele>
        <time>2020-08-30 10:25:40</time>
      </trkpt>
      <trkpt lat="44.37914" lon="4.44122">
        <ele>332.40906</ele>
        <time>2020-08-30 10:25:42</time>
      </trkpt>
      <trkpt lat="44.379" lon="4.4411">
        <ele>333.95447</ele>
        <time>2020-08-30 10:25:53</time>
      </trkpt>
      <trkpt lat="44.37896" lon="4.44104">
        <ele>335.7528</ele>
        <time>2020-08-30 10:25:57</time>
      </trkpt>
      <trkpt lat="44.37893" lon="4.44095">
        <ele>336.90924</ele>
        <time>2020-08-30 10:26:01</time>
      </trkpt>
      <trkpt lat="44.37891" lon="4.44084">
        <ele>336.99036</ele>
        <time>2020-08-30 10:26:06</time>
      </trkpt>
      <trkpt lat="44.37891" lon="4.44081">
        <ele>336.62683</ele>
        <time>2020-08-30 10:26:07</time>
      </trkpt>
      <trkpt lat="44.37891" lon="4.44076">
        <ele>336.62323</ele>
        <time>2020-08-30 10:26:09</time>
      </trkpt>
      <trkpt lat="44.37892" lon="4.44069">
        <ele>335.99878</ele>
        <time>2020-08-30 10:26:12</time>
      </trkpt>
      <trkpt lat="44.37892" lon="4.44066">
        <ele>335.73645</ele>
        <time>2020-08-30 10:26:13</time>
      </trkpt>
      <trkpt lat="44.37892" lon="4.44063">
        <ele>335.97144</ele>
        <time>2020-08-30 10:26:14</time>
      </trkpt>
      <trkpt lat="44.37893" lon="4.44056">
        <ele>336.5987</ele>
        <time>2020-08-30 10:26:17</time>
      </trkpt>
      <trkpt lat="44.37893" lon="4.44052">
        <ele>336.98035</ele>
        <time>2020-08-30 10:26:19</time>
      </trkpt>
      <trkpt lat="44.37893" lon="4.44047">
        <ele>337.3797</ele>
        <time>2020-08-30 10:26:21</time>
      </trkpt>
      <trkpt lat="44.37893" lon="4.44039">
        <ele>337.67438</ele>
        <time>2020-08-30 10:26:24</time>
      </trkpt>
      <trkpt lat="44.37892" lon="4.44035">
        <ele>336.09094</ele>
        <time>2020-08-30 10:26:26</time>
      </trkpt>
      <trkpt lat="44.37891" lon="4.44027">
        <ele>337.0843</ele>
        <time>2020-08-30 10:26:29</time>
      </trkpt>
      <trkpt lat="44.3789" lon="4.44025">
        <ele>337.3797</ele>
        <time>2020-08-30 10:26:30</time>
      </trkpt>
      <trkpt lat="44.37889" lon="4.44023">
        <ele>336.09814</ele>
        <time>2020-08-30 10:26:31</time>
      </trkpt>
      <trkpt lat="44.37883" lon="4.44014">
        <ele>336.1056</ele>
        <time>2020-08-30 10:26:36</time>
      </trkpt>
      <trkpt lat="44.37879" lon="4.44009">
        <ele>335.71924</ele>
        <time>2020-08-30 10:26:39</time>
      </trkpt>
      <trkpt lat="44.37873" lon="4.44005">
        <ele>336.6181</ele>
        <time>2020-08-30 10:26:42</time>
      </trkpt>
      <trkpt lat="44.37862" lon="4.44">
        <ele>336.62665</ele>
        <time>2020-08-30 10:26:48</time>
      </trkpt>
      <trkpt lat="44.37846" lon="4.43988">
        <ele>336.37292</ele>
        <time>2020-08-30 10:26:57</time>
      </trkpt>
      <trkpt lat="44.37841" lon="4.43982">
        <ele>336.08215</ele>
        <time>2020-08-30 10:27:00</time>
      </trkpt>
      <trkpt lat="44.37825" lon="4.4395">
        <ele>341.1258</ele>
        <time>2020-08-30 10:27:13</time>
      </trkpt>
      <trkpt lat="44.37814" lon="4.43924">
        <ele>343.62012</ele>
        <time>2020-08-30 10:27:22</time>
      </trkpt>
      <trkpt lat="44.37764" lon="4.43851">
        <ele>346.6765</ele>
        <time>2020-08-30 10:27:48</time>
      </trkpt>
      <trkpt lat="44.37754" lon="4.4384">
        <ele>346.11804</ele>
        <time>2020-08-30 10:27:52</time>
      </trkpt>
      <trkpt lat="44.3774" lon="4.43833">
        <ele>346.78552</ele>
        <time>2020-08-30 10:27:56</time>
      </trkpt>
      <trkpt lat="44.37733" lon="4.43831">
        <ele>347.01794</ele>
        <time>2020-08-30 10:27:58</time>
      </trkpt>
      <trkpt lat="44.37702" lon="4.43817">
        <ele>347.19128</ele>
        <time>2020-08-30 10:28:07</time>
      </trkpt>
      <trkpt lat="44.37681" lon="4.43811">
        <ele>349.34552</ele>
        <time>2020-08-30 10:28:13</time>
      </trkpt>
      <trkpt lat="44.3767" lon="4.4381">
        <ele>349.93317</ele>
        <time>2020-08-30 10:28:16</time>
      </trkpt>
      <trkpt lat="44.37656" lon="4.43814">
        <ele>349.97614</ele>
        <time>2020-08-30 10:28:21</time>
      </trkpt>
      <trkpt lat="44.37615" lon="4.43832">
        <ele>353.63452</ele>
        <time>2020-08-30 10:28:37</time>
      </trkpt>
      <trkpt lat="44.37605" lon="4.43838">
        <ele>356.80298</ele>
        <time>2020-08-30 10:28:43</time>
      </trkpt>
      <trkpt lat="44.37603" lon="4.43838">
        <ele>357.5987</ele>
        <time>2020-08-30 10:28:44</time>
      </trkpt>
      <trkpt lat="44.37598" lon="4.4384">
        <ele>357.7196</ele>
        <time>2020-08-30 10:28:47</time>
      </trkpt>
      <trkpt lat="44.37596" lon="4.4384">
        <ele>357.7345</ele>
        <time>2020-08-30 10:28:48</time>
      </trkpt>
      <trkpt lat="44.37592" lon="4.43841">
        <ele>355.1726</ele>
        <time>2020-08-30 10:28:50</time>
      </trkpt>
      <trkpt lat="44.37585" lon="4.43843">
        <ele>359.25464</ele>
        <time>2020-08-30 10:28:54</time>
      </trkpt>
      <trkpt lat="44.3758" lon="4.43848">
        <ele>360.5127</ele>
        <time>2020-08-30 10:28:57</time>
      </trkpt>
      <trkpt lat="44.37571" lon="4.43852">
        <ele>360.8487</ele>
        <time>2020-08-30 10:29:02</time>
      </trkpt>
      <trkpt lat="44.37567" lon="4.43854">
        <ele>360.75812</ele>
        <time>2020-08-30 10:29:04</time>
      </trkpt>
      <trkpt lat="44.37559" lon="4.43857">
        <ele>361.55103</ele>
        <time>2020-08-30 10:29:08</time>
      </trkpt>
      <trkpt lat="44.37549" lon="4.4386">
        <ele>362.46307</ele>
        <time>2020-08-30 10:29:13</time>
      </trkpt>
      <trkpt lat="44.37538" lon="4.43865">
        <ele>363.12292</ele>
        <time>2020-08-30 10:29:19</time>
      </trkpt>
      <trkpt lat="44.37536" lon="4.43865">
        <ele>362.2223</ele>
        <time>2020-08-30 10:29:20</time>
      </trkpt>
      <trkpt lat="44.37522" lon="4.43873">
        <ele>366.0791</ele>
        <time>2020-08-30 10:29:28</time>
      </trkpt>
      <trkpt lat="44.37518" lon="4.43875">
        <ele>364.661</ele>
        <time>2020-08-30 10:29:30</time>
      </trkpt>
      <trkpt lat="44.37516" lon="4.43876">
        <ele>365.08423</ele>
        <time>2020-08-30 10:29:31</time>
      </trkpt>
      <trkpt lat="44.37515" lon="4.43877">
        <ele>365.37018</ele>
        <time>2020-08-30 10:29:32</time>
      </trkpt>
      <trkpt lat="44.37513" lon="4.43878">
        <ele>365.72034</ele>
        <time>2020-08-30 10:29:33</time>
      </trkpt>
      <trkpt lat="44.37511" lon="4.43879">
        <ele>365.57794</ele>
        <time>2020-08-30 10:29:34</time>
      </trkpt>
      <trkpt lat="44.37498" lon="4.43885">
        <ele>367.6615</ele>
        <time>2020-08-30 10:29:41</time>
      </trkpt>
      <trkpt lat="44.37496" lon="4.43886">
        <ele>367.29962</ele>
        <time>2020-08-30 10:29:42</time>
      </trkpt>
      <trkpt lat="44.37491" lon="4.43887">
        <ele>368.1693</ele>
        <time>2020-08-30 10:29:44</time>
      </trkpt>
      <trkpt lat="44.37489" lon="4.43888">
        <ele>368.09155</ele>
        <time>2020-08-30 10:29:45</time>
      </trkpt>
      <trkpt lat="44.37487" lon="4.43889">
        <ele>368.69934</ele>
        <time>2020-08-30 10:29:46</time>
      </trkpt>
      <trkpt lat="44.37481" lon="4.43891">
        <ele>369.0404</ele>
        <time>2020-08-30 10:29:49</time>
      </trkpt>
      <trkpt lat="44.37473" lon="4.43892">
        <ele>371.1869</ele>
        <time>2020-08-30 10:29:53</time>
      </trkpt>
      <trkpt lat="44.37471" lon="4.43893">
        <ele>371.62366</ele>
        <time>2020-08-30 10:29:54</time>
      </trkpt>
      <trkpt lat="44.37467" lon="4.43893">
        <ele>372.6902</ele>
        <time>2020-08-30 10:29:56</time>
      </trkpt>
      <trkpt lat="44.37461" lon="4.43892">
        <ele>373.8745</ele>
        <time>2020-08-30 10:29:59</time>
      </trkpt>
      <trkpt lat="44.37452" lon="4.43888">
        <ele>374.70587</ele>
        <time>2020-08-30 10:30:04</time>
      </trkpt>
      <trkpt lat="44.3745" lon="4.43887">
        <ele>375.00537</ele>
        <time>2020-08-30 10:30:05</time>
      </trkpt>
      <trkpt lat="44.37448" lon="4.43886">
        <ele>374.75476</ele>
        <time>2020-08-30 10:30:06</time>
      </trkpt>
      <trkpt lat="44.37436" lon="4.43883">
        <ele>375.54443</ele>
        <time>2020-08-30 10:30:12</time>
      </trkpt>
      <trkpt lat="44.37435" lon="4.43883">
        <ele>375.8717</ele>
        <time>2020-08-30 10:30:13</time>
      </trkpt>
      <trkpt lat="44.3743" lon="4.43884">
        <ele>376.38477</ele>
        <time>2020-08-30 10:30:15</time>
      </trkpt>
      <trkpt lat="44.37428" lon="4.43885">
        <ele>376.00232</ele>
        <time>2020-08-30 10:30:16</time>
      </trkpt>
      <trkpt lat="44.37424" lon="4.43887">
        <ele>376.30548</ele>
        <time>2020-08-30 10:30:21</time>
      </trkpt>
      <trkpt lat="44.37425" lon="4.43888">
        <ele>376.8178</ele>
        <time>2020-08-30 10:30:43</time>
      </trkpt>
      <trkpt lat="44.37425" lon="4.43887">
        <ele>377.07117</ele>
        <time>2020-08-30 10:30:45</time>
      </trkpt>
      <trkpt lat="44.37425" lon="4.43886">
        <ele>376.7951</ele>
        <time>2020-08-30 10:30:48</time>
      </trkpt>
      <trkpt lat="44.37425" lon="4.43886">
        <ele>376.52124</ele>
        <time>2020-08-30 10:30:49</time>
      </trkpt>
      <trkpt lat="44.37425" lon="4.43886">
        <ele>377.01178</ele>
        <time>2020-08-30 10:30:50</time>
      </trkpt>
      <trkpt lat="44.37425" lon="4.43886">
        <ele>375.4923</ele>
        <time>2020-08-30 10:30:51</time>
      </trkpt>
      <trkpt lat="44.37424" lon="4.43886">
        <ele>375.27478</ele>
        <time>2020-08-30 10:30:53</time>
      </trkpt>
      <trkpt lat="44.37423" lon="4.43885">
        <ele>376.758</ele>
        <time>2020-08-30 10:31:29</time>
      </trkpt>
      <trkpt lat="44.37423" lon="4.43886">
        <ele>376.54218</ele>
        <time>2020-08-30 10:31:30</time>
      </trkpt>
      <trkpt lat="44.37422" lon="4.43888">
        <ele>376.1317</ele>
        <time>2020-08-30 10:31:32</time>
      </trkpt>
      <trkpt lat="44.37421" lon="4.43886">
        <ele>376.67694</ele>
        <time>2020-08-30 10:31:58</time>
      </trkpt>
      <trkpt lat="44.37418" lon="4.43886">
        <ele>377.26715</ele>
        <time>2020-08-30 10:32:02</time>
      </trkpt>
      <trkpt lat="44.37418" lon="4.43886">
        <ele>376.7292</ele>
        <time>2020-08-30 10:32:03</time>
      </trkpt>
      <trkpt lat="44.37418" lon="4.43886">
        <ele>377.79797</ele>
        <time>2020-08-30 10:32:04</time>
      </trkpt>
      <trkpt lat="44.37418" lon="4.43886">
        <ele>378.07538</ele>
        <time>2020-08-30 10:32:05</time>
      </trkpt>
      <trkpt lat="44.37418" lon="4.43886">
        <ele>378.80963</ele>
        <time>2020-08-30 10:32:40</time>
      </trkpt>
      <trkpt lat="44.37418" lon="4.43882">
        <ele>380.1911</ele>
        <time>2020-08-30 10:32:57</time>
      </trkpt>
      <trkpt lat="44.37418" lon="4.43882">
        <ele>379.87817</ele>
        <time>2020-08-30 10:32:58</time>
      </trkpt>
      <trkpt lat="44.37419" lon="4.43882">
        <ele>379.45844</ele>
        <time>2020-08-30 10:33:59</time>
      </trkpt>
      <trkpt lat="44.37417" lon="4.43882">
        <ele>378.594</ele>
        <time>2020-08-30 10:35:02</time>
      </trkpt>
      <trkpt lat="44.37417" lon="4.43882">
        <ele>378.35547</ele>
        <time>2020-08-30 10:35:16</time>
      </trkpt>
      <trkpt lat="44.37415" lon="4.43884">
        <ele>378.58508</ele>
        <time>2020-08-30 10:35:20</time>
      </trkpt>
      <trkpt lat="44.37415" lon="4.43885">
        <ele>378.95068</ele>
        <time>2020-08-30 10:35:23</time>
      </trkpt>
      <trkpt lat="44.37415" lon="4.43885">
        <ele>379.00928</ele>
        <time>2020-08-30 10:35:24</time>
      </trkpt>
      <trkpt lat="44.37415" lon="4.43885">
        <ele>379.31628</ele>
        <time>2020-08-30 10:35:29</time>
      </trkpt>
      <trkpt lat="44.37408" lon="4.4389">
        <ele>378.7127</ele>
        <time>2020-08-30 10:35:41</time>
      </trkpt>
      <trkpt lat="44.37407" lon="4.4389">
        <ele>378.70703</ele>
        <time>2020-08-30 10:35:43</time>
      </trkpt>
      <trkpt lat="44.37401" lon="4.43894">
        <ele>378.81885</ele>
        <time>2020-08-30 10:35:48</time>
      </trkpt>
      <trkpt lat="44.37397" lon="4.43897">
        <ele>377.8084</ele>
        <time>2020-08-30 10:35:54</time>
      </trkpt>
      <trkpt lat="44.37394" lon="4.43899">
        <ele>377.83972</ele>
        <time>2020-08-30 10:35:57</time>
      </trkpt>
      <trkpt lat="44.37391" lon="4.43902">
        <ele>377.4867</ele>
        <time>2020-08-30 10:35:59</time>
      </trkpt>
      <trkpt lat="44.37389" lon="4.43904">
        <ele>378.82483</ele>
        <time>2020-08-30 10:36:00</time>
      </trkpt>
      <trkpt lat="44.37388" lon="4.43906">
        <ele>376.76318</ele>
        <time>2020-08-30 10:36:01</time>
      </trkpt>
      <trkpt lat="44.37385" lon="4.43912">
        <ele>376.53937</ele>
        <time>2020-08-30 10:36:03</time>
      </trkpt>
      <trkpt lat="44.37384" lon="4.43915">
        <ele>376.7514</ele>
        <time>2020-08-30 10:36:04</time>
      </trkpt>
      <trkpt lat="44.37382" lon="4.43918">
        <ele>376.95593</ele>
        <time>2020-08-30 10:36:05</time>
      </trkpt>
      <trkpt lat="44.37381" lon="4.43921">
        <ele>377.0442</ele>
        <time>2020-08-30 10:36:06</time>
      </trkpt>
      <trkpt lat="44.37381" lon="4.43925">
        <ele>376.51917</ele>
        <time>2020-08-30 10:36:07</time>
      </trkpt>
      <trkpt lat="44.37381" lon="4.43928">
        <ele>375.9242</ele>
        <time>2020-08-30 10:36:08</time>
      </trkpt>
      <trkpt lat="44.37382" lon="4.43936">
        <ele>376.15967</ele>
        <time>2020-08-30 10:36:11</time>
      </trkpt>
      <trkpt lat="44.37384" lon="4.43939">
        <ele>375.5141</ele>
        <time>2020-08-30 10:36:13</time>
      </trkpt>
      <trkpt lat="44.3739" lon="4.43944">
        <ele>377.12274</ele>
        <time>2020-08-30 10:36:18</time>
      </trkpt>
      <trkpt lat="44.37392" lon="4.43946">
        <ele>376.15967</ele>
        <time>2020-08-30 10:36:20</time>
      </trkpt>
      <trkpt lat="44.37394" lon="4.43948">
        <ele>376.44592</ele>
        <time>2020-08-30 10:36:21</time>
      </trkpt>
      <trkpt lat="44.37404" lon="4.43956">
        <ele>375.41223</ele>
        <time>2020-08-30 10:36:26</time>
      </trkpt>
      <trkpt lat="44.37406" lon="4.43957">
        <ele>375.4209</ele>
        <time>2020-08-30 10:36:27</time>
      </trkpt>
      <trkpt lat="44.37439" lon="4.43982">
        <ele>372.20398</ele>
        <time>2020-08-30 10:36:37</time>
      </trkpt>
      <trkpt lat="44.37446" lon="4.43986">
        <ele>372.2373</ele>
        <time>2020-08-30 10:36:39</time>
      </trkpt>
      <trkpt lat="44.37458" lon="4.43995">
        <ele>371.44763</ele>
        <time>2020-08-30 10:36:42</time>
      </trkpt>
      <trkpt lat="44.37464" lon="4.44">
        <ele>371.86218</ele>
        <time>2020-08-30 10:36:44</time>
      </trkpt>
      <trkpt lat="44.37468" lon="4.44002">
        <ele>372.1277</ele>
        <time>2020-08-30 10:36:45</time>
      </trkpt>
      <trkpt lat="44.37474" lon="4.44003">
        <ele>372.53986</ele>
        <time>2020-08-30 10:36:47</time>
      </trkpt>
      <trkpt lat="44.37477" lon="4.44003">
        <ele>372.1869</ele>
        <time>2020-08-30 10:36:48</time>
      </trkpt>
      <trkpt lat="44.37482" lon="4.44002">
        <ele>372.00183</ele>
        <time>2020-08-30 10:36:50</time>
      </trkpt>
      <trkpt lat="44.37484" lon="4.44003">
        <ele>372.17737</ele>
        <time>2020-08-30 10:36:51</time>
      </trkpt>
      <trkpt lat="44.37489" lon="4.44005">
        <ele>372.33325</ele>
        <time>2020-08-30 10:36:53</time>
      </trkpt>
      <trkpt lat="44.37494" lon="4.44009">
        <ele>371.5681</ele>
        <time>2020-08-30 10:36:55</time>
      </trkpt>
      <trkpt lat="44.37497" lon="4.44015">
        <ele>372.32208</ele>
        <time>2020-08-30 10:36:57</time>
      </trkpt>
      <trkpt lat="44.37501" lon="4.44023">
        <ele>373.53735</ele>
        <time>2020-08-30 10:36:59</time>
      </trkpt>
      <trkpt lat="44.37502" lon="4.44026">
        <ele>372.17737</ele>
        <time>2020-08-30 10:37:00</time>
      </trkpt>
      <trkpt lat="44.37502" lon="4.4403">
        <ele>374.06653</ele>
        <time>2020-08-30 10:37:01</time>
      </trkpt>
      <trkpt lat="44.37502" lon="4.44038">
        <ele>374.47235</ele>
        <time>2020-08-30 10:37:03</time>
      </trkpt>
      <trkpt lat="44.37501" lon="4.44041">
        <ele>374.01825</ele>
        <time>2020-08-30 10:37:04</time>
      </trkpt>
      <trkpt lat="44.37498" lon="4.44047">
        <ele>374.58594</ele>
        <time>2020-08-30 10:37:06</time>
      </trkpt>
      <trkpt lat="44.37496" lon="4.44049">
        <ele>375.05176</ele>
        <time>2020-08-30 10:37:07</time>
      </trkpt>
      <trkpt lat="44.37476" lon="4.44072">
        <ele>376.5515</ele>
        <time>2020-08-30 10:37:17</time>
      </trkpt>
      <trkpt lat="44.37471" lon="4.44079">
        <ele>376.2619</ele>
        <time>2020-08-30 10:37:20</time>
      </trkpt>
      <trkpt lat="44.37469" lon="4.44081">
        <ele>378.2727</ele>
        <time>2020-08-30 10:37:21</time>
      </trkpt>
      <trkpt lat="44.37468" lon="4.44083">
        <ele>378.8498</ele>
        <time>2020-08-30 10:37:22</time>
      </trkpt>
      <trkpt lat="44.37467" lon="4.44085">
        <ele>377.97516</ele>
        <time>2020-08-30 10:37:24</time>
      </trkpt>
      <trkpt lat="44.37467" lon="4.44085">
        <ele>378.53278</ele>
        <time>2020-08-30 10:37:27</time>
      </trkpt>
      <trkpt lat="44.37468" lon="4.44083">
        <ele>378.2727</ele>
        <time>2020-08-30 10:37:30</time>
      </trkpt>
      <trkpt lat="44.37468" lon="4.44081">
        <ele>378.36127</ele>
        <time>2020-08-30 10:37:50</time>
      </trkpt>
      <trkpt lat="44.37464" lon="4.44089">
        <ele>378.23627</ele>
        <time>2020-08-30 10:37:56</time>
      </trkpt>
      <trkpt lat="44.37462" lon="4.4409">
        <ele>378.2516</ele>
        <time>2020-08-30 10:37:57</time>
      </trkpt>
      <trkpt lat="44.37461" lon="4.44092">
        <ele>378.05017</ele>
        <time>2020-08-30 10:37:58</time>
      </trkpt>
      <trkpt lat="44.37458" lon="4.44096">
        <ele>378.5739</ele>
        <time>2020-08-30 10:38:00</time>
      </trkpt>
      <trkpt lat="44.3744" lon="4.4413">
        <ele>380.57214</ele>
        <time>2020-08-30 10:38:14</time>
      </trkpt>
      <trkpt lat="44.37439" lon="4.44133">
        <ele>381.29028</ele>
        <time>2020-08-30 10:38:15</time>
      </trkpt>
      <trkpt lat="44.37427" lon="4.44162">
        <ele>381.64142</ele>
        <time>2020-08-30 10:38:25</time>
      </trkpt>
      <trkpt lat="44.37423" lon="4.44183">
        <ele>381.24988</ele>
        <time>2020-08-30 10:38:30</time>
      </trkpt>
      <trkpt lat="44.37417" lon="4.44244">
        <ele>380.33862</ele>
        <time>2020-08-30 10:38:38</time>
      </trkpt>
      <trkpt lat="44.37419" lon="4.44263">
        <ele>381.8424</ele>
        <time>2020-08-30 10:38:40</time>
      </trkpt>
      <trkpt lat="44.37422" lon="4.44283">
        <ele>379.6892</ele>
        <time>2020-08-30 10:38:42</time>
      </trkpt>
      <trkpt lat="44.37431" lon="4.4431">
        <ele>380.49316</ele>
        <time>2020-08-30 10:38:46</time>
      </trkpt>
      <trkpt lat="44.3744" lon="4.44337">
        <ele>381.61743</ele>
        <time>2020-08-30 10:38:52</time>
      </trkpt>
      <trkpt lat="44.37442" lon="4.44352">
        <ele>381.61346</ele>
        <time>2020-08-30 10:38:56</time>
      </trkpt>
      <trkpt lat="44.37444" lon="4.44361">
        <ele>381.51038</ele>
        <time>2020-08-30 10:38:58</time>
      </trkpt>
      <trkpt lat="44.37447" lon="4.44381">
        <ele>381.7047</ele>
        <time>2020-08-30 10:39:03</time>
      </trkpt>
      <trkpt lat="44.37447" lon="4.44392">
        <ele>382.8664</ele>
        <time>2020-08-30 10:39:06</time>
      </trkpt>
      <trkpt lat="44.37447" lon="4.44403">
        <ele>382.68713</ele>
        <time>2020-08-30 10:39:09</time>
      </trkpt>
      <trkpt lat="44.37447" lon="4.44421">
        <ele>385.61456</ele>
        <time>2020-08-30 10:39:14</time>
      </trkpt>
      <trkpt lat="44.37445" lon="4.44472">
        <ele>385.30676</ele>
        <time>2020-08-30 10:39:26</time>
      </trkpt>
      <trkpt lat="44.37446" lon="4.44515">
        <ele>386.72028</ele>
        <time>2020-08-30 10:39:34</time>
      </trkpt>
      <trkpt lat="44.37449" lon="4.44527">
        <ele>387.00684</ele>
        <time>2020-08-30 10:39:36</time>
      </trkpt>
      <trkpt lat="44.37451" lon="4.44533">
        <ele>387.14172</ele>
        <time>2020-08-30 10:39:37</time>
      </trkpt>
      <trkpt lat="44.37456" lon="4.44544">
        <ele>386.1991</ele>
        <time>2020-08-30 10:39:39</time>
      </trkpt>
      <trkpt lat="44.37464" lon="4.44559">
        <ele>387.09143</ele>
        <time>2020-08-30 10:39:42</time>
      </trkpt>
      <trkpt lat="44.37477" lon="4.44574">
        <ele>386.6184</ele>
        <time>2020-08-30 10:39:46</time>
      </trkpt>
      <trkpt lat="44.37498" lon="4.44597">
        <ele>386.22968</ele>
        <time>2020-08-30 10:39:53</time>
      </trkpt>
      <trkpt lat="44.37501" lon="4.446">
        <ele>385.81165</ele>
        <time>2020-08-30 10:39:54</time>
      </trkpt>
      <trkpt lat="44.37575" lon="4.44671">
        <ele>389.04858</ele>
        <time>2020-08-30 10:40:24</time>
      </trkpt>
      <trkpt lat="44.37585" lon="4.44682">
        <ele>387.96674</ele>
        <time>2020-08-30 10:40:29</time>
      </trkpt>
      <trkpt lat="44.37611" lon="4.447">
        <ele>387.34424</ele>
        <time>2020-08-30 10:40:39</time>
      </trkpt>
      <trkpt lat="44.37643" lon="4.44715">
        <ele>388.86206</ele>
        <time>2020-08-30 10:40:48</time>
      </trkpt>
      <trkpt lat="44.37648" lon="4.4472">
        <ele>387.71448</ele>
        <time>2020-08-30 10:40:50</time>
      </trkpt>
      <trkpt lat="44.37652" lon="4.44726">
        <ele>389.81458</ele>
        <time>2020-08-30 10:40:52</time>
      </trkpt>
      <trkpt lat="44.37655" lon="4.44737">
        <ele>390.55457</ele>
        <time>2020-08-30 10:40:55</time>
      </trkpt>
      <trkpt lat="44.37659" lon="4.44762">
        <ele>390.5547</ele>
        <time>2020-08-30 10:41:03</time>
      </trkpt>
      <trkpt lat="44.3766" lon="4.44765">
        <ele>390.81702</ele>
        <time>2020-08-30 10:41:04</time>
      </trkpt>
      <trkpt lat="44.37661" lon="4.44768">
        <ele>390.48853</ele>
        <time>2020-08-30 10:41:05</time>
      </trkpt>
      <trkpt lat="44.37663" lon="4.44774">
        <ele>390.6211</ele>
        <time>2020-08-30 10:41:07</time>
      </trkpt>
      <trkpt lat="44.37665" lon="4.44776">
        <ele>391.0381</ele>
        <time>2020-08-30 10:41:08</time>
      </trkpt>
      <trkpt lat="44.37675" lon="4.44793">
        <ele>392.9668</ele>
        <time>2020-08-30 10:41:14</time>
      </trkpt>
      <trkpt lat="44.37677" lon="4.44795">
        <ele>393.6145</ele>
        <time>2020-08-30 10:41:15</time>
      </trkpt>
      <trkpt lat="44.37681" lon="4.44801">
        <ele>393.43646</ele>
        <time>2020-08-30 10:41:18</time>
      </trkpt>
      <trkpt lat="44.37683" lon="4.44803">
        <ele>392.97583</ele>
        <time>2020-08-30 10:41:19</time>
      </trkpt>
      <trkpt lat="44.37686" lon="4.44807">
        <ele>393.81226</ele>
        <time>2020-08-30 10:41:21</time>
      </trkpt>
      <trkpt lat="44.37692" lon="4.44814">
        <ele>394.799</ele>
        <time>2020-08-30 10:41:24</time>
      </trkpt>
      <trkpt lat="44.37694" lon="4.44816">
        <ele>394.69507</ele>
        <time>2020-08-30 10:41:25</time>
      </trkpt>
      <trkpt lat="44.37695" lon="4.44819">
        <ele>394.94824</ele>
        <time>2020-08-30 10:41:26</time>
      </trkpt>
      <trkpt lat="44.37703" lon="4.44829">
        <ele>395.6208</ele>
        <time>2020-08-30 10:41:31</time>
      </trkpt>
      <trkpt lat="44.37708" lon="4.44836">
        <ele>397.27826</ele>
        <time>2020-08-30 10:41:34</time>
      </trkpt>
      <trkpt lat="44.37713" lon="4.44844">
        <ele>398.98047</ele>
        <time>2020-08-30 10:41:37</time>
      </trkpt>
      <trkpt lat="44.37717" lon="4.44849">
        <ele>398.9663</ele>
        <time>2020-08-30 10:41:39</time>
      </trkpt>
      <trkpt lat="44.37718" lon="4.44851">
        <ele>395.6208</ele>
        <time>2020-08-30 10:41:40</time>
      </trkpt>
      <trkpt lat="44.37742" lon="4.44884">
        <ele>401.2749</ele>
        <time>2020-08-30 10:41:52</time>
      </trkpt>
      <trkpt lat="44.37756" lon="4.44897">
        <ele>401.90076</ele>
        <time>2020-08-30 10:41:58</time>
      </trkpt>
      <trkpt lat="44.37797" lon="4.44927">
        <ele>403.28198</ele>
        <time>2020-08-30 10:42:14</time>
      </trkpt>
      <trkpt lat="44.37829" lon="4.44942">
        <ele>404.7473</ele>
        <time>2020-08-30 10:42:26</time>
      </trkpt>
      <trkpt lat="44.37836" lon="4.44945">
        <ele>404.81897</ele>
        <time>2020-08-30 10:42:29</time>
      </trkpt>
      <trkpt lat="44.37865" lon="4.44954">
        <ele>404.9751</ele>
        <time>2020-08-30 10:42:40</time>
      </trkpt>
      <trkpt lat="44.37909" lon="4.4496">
        <ele>405.8651</ele>
        <time>2020-08-30 10:42:57</time>
      </trkpt>
      <trkpt lat="44.37912" lon="4.44959">
        <ele>405.64673</ele>
        <time>2020-08-30 10:42:58</time>
      </trkpt>
      <trkpt lat="44.37922" lon="4.44958">
        <ele>405.36536</ele>
        <time>2020-08-30 10:43:01</time>
      </trkpt>
      <trkpt lat="44.37928" lon="4.44958">
        <ele>405.5056</ele>
        <time>2020-08-30 10:43:03</time>
      </trkpt>
      <trkpt lat="44.37932" lon="4.44958">
        <ele>405.61584</ele>
        <time>2020-08-30 10:43:04</time>
      </trkpt>
      <trkpt lat="44.37935" lon="4.44958">
        <ele>405.5089</ele>
        <time>2020-08-30 10:43:05</time>
      </trkpt>
      <trkpt lat="44.37943" lon="4.44961">
        <ele>405.77167</ele>
        <time>2020-08-30 10:43:07</time>
      </trkpt>
      <trkpt lat="44.37946" lon="4.44964">
        <ele>406.50812</ele>
        <time>2020-08-30 10:43:08</time>
      </trkpt>
      <trkpt lat="44.37948" lon="4.44968">
        <ele>407.1278</ele>
        <time>2020-08-30 10:43:09</time>
      </trkpt>
      <trkpt lat="44.37949" lon="4.44974">
        <ele>405.36536</ele>
        <time>2020-08-30 10:43:10</time>
      </trkpt>
      <trkpt lat="44.37949" lon="4.4498">
        <ele>406.19055</ele>
        <time>2020-08-30 10:43:11</time>
      </trkpt>
      <trkpt lat="44.37947" lon="4.44991">
        <ele>405.8745</ele>
        <time>2020-08-30 10:43:13</time>
      </trkpt>
      <trkpt lat="44.37933" lon="4.45042">
        <ele>408.36682</ele>
        <time>2020-08-30 10:43:23</time>
      </trkpt>
      <trkpt lat="44.37928" lon="4.4507">
        <ele>407.79126</ele>
        <time>2020-08-30 10:43:30</time>
      </trkpt>
      <trkpt lat="44.37923" lon="4.45088">
        <ele>409.14893</ele>
        <time>2020-08-30 10:43:35</time>
      </trkpt>
      <trkpt lat="44.37922" lon="4.45091">
        <ele>408.8219</ele>
        <time>2020-08-30 10:43:36</time>
      </trkpt>
      <trkpt lat="44.37917" lon="4.45106">
        <ele>408.51276</ele>
        <time>2020-08-30 10:43:41</time>
      </trkpt>
      <trkpt lat="44.37908" lon="4.45128">
        <ele>409.49646</ele>
        <time>2020-08-30 10:43:48</time>
      </trkpt>
      <trkpt lat="44.37906" lon="4.45131">
        <ele>410.15125</ele>
        <time>2020-08-30 10:43:49</time>
      </trkpt>
      <trkpt lat="44.37905" lon="4.45133">
        <ele>408.51276</ele>
        <time>2020-08-30 10:43:50</time>
      </trkpt>
      <trkpt lat="44.37891" lon="4.45147">
        <ele>412.4704</ele>
        <time>2020-08-30 10:43:57</time>
      </trkpt>
      <trkpt lat="44.3789" lon="4.45149">
        <ele>412.63306</ele>
        <time>2020-08-30 10:43:58</time>
      </trkpt>
      <trkpt lat="44.37883" lon="4.45156">
        <ele>413.2013</ele>
        <time>2020-08-30 10:44:02</time>
      </trkpt>
      <trkpt lat="44.37878" lon="4.45161">
        <ele>414.39368</ele>
        <time>2020-08-30 10:44:05</time>
      </trkpt>
      <trkpt lat="44.37869" lon="4.45172">
        <ele>415.2688</ele>
        <time>2020-08-30 10:44:11</time>
      </trkpt>
      <trkpt lat="44.37823" lon="4.45212">
        <ele>412.17468</ele>
        <time>2020-08-30 10:44:29</time>
      </trkpt>
      <trkpt lat="44.37793" lon="4.45249">
        <ele>412.36548</ele>
        <time>2020-08-30 10:44:38</time>
      </trkpt>
      <trkpt lat="44.37773" lon="4.45282">
        <ele>415.01392</ele>
        <time>2020-08-30 10:44:48</time>
      </trkpt>
      <trkpt lat="44.37753" lon="4.45325">
        <ele>415.6034</ele>
        <time>2020-08-30 10:44:58</time>
      </trkpt>
      <trkpt lat="44.37744" lon="4.45349">
        <ele>413.64496</ele>
        <time>2020-08-30 10:45:03</time>
      </trkpt>
      <trkpt lat="44.37726" lon="4.45395">
        <ele>415.17444</ele>
        <time>2020-08-30 10:45:14</time>
      </trkpt>
      <trkpt lat="44.37719" lon="4.45423">
        <ele>413.23236</ele>
        <time>2020-08-30 10:45:19</time>
      </trkpt>
      <trkpt lat="44.37718" lon="4.45457">
        <ele>412.57288</ele>
        <time>2020-08-30 10:45:24</time>
      </trkpt>
      <trkpt lat="44.37713" lon="4.45503">
        <ele>412.99707</ele>
        <time>2020-08-30 10:45:32</time>
      </trkpt>
      <trkpt lat="44.37708" lon="4.45523">
        <ele>413.29272</ele>
        <time>2020-08-30 10:45:36</time>
      </trkpt>
      <trkpt lat="44.37701" lon="4.45546">
        <ele>413.62286</ele>
        <time>2020-08-30 10:45:42</time>
      </trkpt>
      <trkpt lat="44.37699" lon="4.45549">
        <ele>413.44092</ele>
        <time>2020-08-30 10:45:43</time>
      </trkpt>
      <trkpt lat="44.37691" lon="4.4557">
        <ele>416.60413</ele>
        <time>2020-08-30 10:45:51</time>
      </trkpt>
      <trkpt lat="44.37676" lon="4.45595">
        <ele>419.19147</ele>
        <time>2020-08-30 10:46:02</time>
      </trkpt>
      <trkpt lat="44.37672" lon="4.45601">
        <ele>420.0415</ele>
        <time>2020-08-30 10:46:05</time>
      </trkpt>
      <trkpt lat="44.3767" lon="4.45603">
        <ele>419.81396</ele>
        <time>2020-08-30 10:46:06</time>
      </trkpt>
      <trkpt lat="44.37667" lon="4.45608">
        <ele>419.7492</ele>
        <time>2020-08-30 10:46:08</time>
      </trkpt>
      <trkpt lat="44.3766" lon="4.4562">
        <ele>420.7282</ele>
        <time>2020-08-30 10:46:13</time>
      </trkpt>
      <trkpt lat="44.37657" lon="4.45624">
        <ele>421.64856</ele>
        <time>2020-08-30 10:46:15</time>
      </trkpt>
      <trkpt lat="44.37654" lon="4.4563">
        <ele>422.47955</ele>
        <time>2020-08-30 10:46:18</time>
      </trkpt>
      <trkpt lat="44.37647" lon="4.4564">
        <ele>423.5653</ele>
        <time>2020-08-30 10:46:23</time>
      </trkpt>
      <trkpt lat="44.37646" lon="4.45643">
        <ele>423.4104</ele>
        <time>2020-08-30 10:46:24</time>
      </trkpt>
      <trkpt lat="44.3764" lon="4.45655">
        <ele>425.1482</ele>
        <time>2020-08-30 10:46:28</time>
      </trkpt>
      <trkpt lat="44.37633" lon="4.45676">
        <ele>426.58264</ele>
        <time>2020-08-30 10:46:36</time>
      </trkpt>
      <trkpt lat="44.37631" lon="4.45681">
        <ele>426.9804</ele>
        <time>2020-08-30 10:46:38</time>
      </trkpt>
      <trkpt lat="44.37629" lon="4.45685">
        <ele>426.057</ele>
        <time>2020-08-30 10:46:40</time>
      </trkpt>
      <trkpt lat="44.37628" lon="4.45688">
        <ele>427.3877</ele>
        <time>2020-08-30 10:46:41</time>
      </trkpt>
      <trkpt lat="44.37622" lon="4.45702">
        <ele>428.55597</ele>
        <time>2020-08-30 10:46:47</time>
      </trkpt>
      <trkpt lat="44.37615" lon="4.45729">
        <ele>432.07758</ele>
        <time>2020-08-30 10:46:57</time>
      </trkpt>
      <trkpt lat="44.3761" lon="4.45742">
        <ele>432.16724</ele>
        <time>2020-08-30 10:47:01</time>
      </trkpt>
      <trkpt lat="44.37608" lon="4.45751">
        <ele>432.5686</ele>
        <time>2020-08-30 10:47:04</time>
      </trkpt>
      <trkpt lat="44.37605" lon="4.45762">
        <ele>432.97534</ele>
        <time>2020-08-30 10:47:07</time>
      </trkpt>
      <trkpt lat="44.37597" lon="4.45792">
        <ele>433.0121</ele>
        <time>2020-08-30 10:47:14</time>
      </trkpt>
      <trkpt lat="44.37592" lon="4.45811">
        <ele>432.45044</ele>
        <time>2020-08-30 10:47:18</time>
      </trkpt>
      <trkpt lat="44.37591" lon="4.45816">
        <ele>432.18713</ele>
        <time>2020-08-30 10:47:19</time>
      </trkpt>
      <trkpt lat="44.37563" lon="4.45921">
        <ele>432.64386</ele>
        <time>2020-08-30 10:47:39</time>
      </trkpt>
      <trkpt lat="44.37554" lon="4.45963">
        <ele>430.03345</ele>
        <time>2020-08-30 10:47:48</time>
      </trkpt>
      <trkpt lat="44.37554" lon="4.45972">
        <ele>431.8589</ele>
        <time>2020-08-30 10:47:50</time>
      </trkpt>
      <trkpt lat="44.37555" lon="4.45982">
        <ele>428.53906</ele>
        <time>2020-08-30 10:47:52</time>
      </trkpt>
      <trkpt lat="44.37556" lon="4.45987">
        <ele>428.15796</ele>
        <time>2020-08-30 10:47:53</time>
      </trkpt>
      <trkpt lat="44.37565" lon="4.46015">
        <ele>427.74255</ele>
        <time>2020-08-30 10:47:58</time>
      </trkpt>
      <trkpt lat="44.37609" lon="4.46134">
        <ele>431.1316</ele>
        <time>2020-08-30 10:48:22</time>
      </trkpt>
      <trkpt lat="44.37612" lon="4.46143">
        <ele>430.82935</ele>
        <time>2020-08-30 10:48:24</time>
      </trkpt>
      <trkpt lat="44.37651" lon="4.46252">
        <ele>432.09125</ele>
        <time>2020-08-30 10:48:54</time>
      </trkpt>
      <trkpt lat="44.37656" lon="4.46269">
        <ele>431.30316</ele>
        <time>2020-08-30 10:49:00</time>
      </trkpt>
      <trkpt lat="44.37658" lon="4.46274">
        <ele>434.53687</ele>
        <time>2020-08-30 10:49:02</time>
      </trkpt>
      <trkpt lat="44.37669" lon="4.46301">
        <ele>436.65247</ele>
        <time>2020-08-30 10:49:12</time>
      </trkpt>
      <trkpt lat="44.3767" lon="4.46306">
        <ele>437.38715</ele>
        <time>2020-08-30 10:49:14</time>
      </trkpt>
      <trkpt lat="44.37699" lon="4.46386">
        <ele>440.42358</ele>
        <time>2020-08-30 10:49:42</time>
      </trkpt>
      <trkpt lat="44.37701" lon="4.46393">
        <ele>440.6953</ele>
        <time>2020-08-30 10:49:44</time>
      </trkpt>
      <trkpt lat="44.37718" lon="4.46437">
        <ele>442.24744</ele>
        <time>2020-08-30 10:50:00</time>
      </trkpt>
      <trkpt lat="44.3772" lon="4.46442">
        <ele>440.8994</ele>
        <time>2020-08-30 10:50:02</time>
      </trkpt>
      <trkpt lat="44.37723" lon="4.46451">
        <ele>440.86877</ele>
        <time>2020-08-30 10:50:05</time>
      </trkpt>
      <trkpt lat="44.37729" lon="4.46467">
        <ele>440.00745</ele>
        <time>2020-08-30 10:50:11</time>
      </trkpt>
      <trkpt lat="44.37732" lon="4.46477">
        <ele>440.20264</ele>
        <time>2020-08-30 10:50:15</time>
      </trkpt>
      <trkpt lat="44.37747" lon="4.46508">
        <ele>440.25214</ele>
        <time>2020-08-30 10:50:28</time>
      </trkpt>
      <trkpt lat="44.37767" lon="4.46537">
        <ele>439.32782</ele>
        <time>2020-08-30 10:50:36</time>
      </trkpt>
      <trkpt lat="44.37801" lon="4.46589">
        <ele>440.30817</ele>
        <time>2020-08-30 10:50:50</time>
      </trkpt>
      <trkpt lat="44.37858" lon="4.46677">
        <ele>442.95917</ele>
        <time>2020-08-30 10:51:13</time>
      </trkpt>
      <trkpt lat="44.37884" lon="4.46715">
        <ele>441.52356</ele>
        <time>2020-08-30 10:51:22</time>
      </trkpt>
      <trkpt lat="44.37899" lon="4.46736">
        <ele>439.58984</ele>
        <time>2020-08-30 10:51:27</time>
      </trkpt>
      <trkpt lat="44.3791" lon="4.46753">
        <ele>438.8822</ele>
        <time>2020-08-30 10:51:31</time>
      </trkpt>
      <trkpt lat="44.38021" lon="4.46916">
        <ele>435.11035</ele>
        <time>2020-08-30 10:52:01</time>
      </trkpt>
      <trkpt lat="44.38137" lon="4.47083">
        <ele>430.92926</ele>
        <time>2020-08-30 10:52:31</time>
      </trkpt>
      <trkpt lat="44.38238" lon="4.47233">
        <ele>431.2577</ele>
        <time>2020-08-30 10:53:01</time>
      </trkpt>
      <trkpt lat="44.3833" lon="4.47374">
        <ele>435.32355</ele>
        <time>2020-08-30 10:53:31</time>
      </trkpt>
      <trkpt lat="44.38366" lon="4.47427">
        <ele>433.3883</ele>
        <time>2020-08-30 10:53:45</time>
      </trkpt>
      <trkpt lat="44.38376" lon="4.4744">
        <ele>433.77905</ele>
        <time>2020-08-30 10:53:49</time>
      </trkpt>
      <trkpt lat="44.38386" lon="4.47457">
        <ele>436.59412</ele>
        <time>2020-08-30 10:53:54</time>
      </trkpt>
      <trkpt lat="44.38388" lon="4.4746">
        <ele>436.3316</ele>
        <time>2020-08-30 10:53:55</time>
      </trkpt>
      <trkpt lat="44.38391" lon="4.47469">
        <ele>435.85278</ele>
        <time>2020-08-30 10:53:57</time>
      </trkpt>
      <trkpt lat="44.38413" lon="4.47533">
        <ele>434.72693</ele>
        <time>2020-08-30 10:54:06</time>
      </trkpt>
      <trkpt lat="44.3844" lon="4.47641">
        <ele>431.3623</ele>
        <time>2020-08-30 10:54:21</time>
      </trkpt>
      <trkpt lat="44.38445" lon="4.47653">
        <ele>432.57245</ele>
        <time>2020-08-30 10:54:23</time>
      </trkpt>
      <trkpt lat="44.38448" lon="4.47656">
        <ele>432.82446</ele>
        <time>2020-08-30 10:54:24</time>
      </trkpt>
      <trkpt lat="44.38452" lon="4.47657">
        <ele>432.719</ele>
        <time>2020-08-30 10:54:25</time>
      </trkpt>
      <trkpt lat="44.38455" lon="4.47659">
        <ele>432.49243</ele>
        <time>2020-08-30 10:54:26</time>
      </trkpt>
      <trkpt lat="44.38459" lon="4.47659">
        <ele>432.62183</ele>
        <time>2020-08-30 10:54:27</time>
      </trkpt>
      <trkpt lat="44.38464" lon="4.47657">
        <ele>431.98157</ele>
        <time>2020-08-30 10:54:28</time>
      </trkpt>
      <trkpt lat="44.38489" lon="4.47646">
        <ele>431.95367</ele>
        <time>2020-08-30 10:54:33</time>
      </trkpt>
      <trkpt lat="44.3852" lon="4.47635">
        <ele>429.88354</ele>
        <time>2020-08-30 10:54:39</time>
      </trkpt>
      <trkpt lat="44.38529" lon="4.47629">
        <ele>429.57452</ele>
        <time>2020-08-30 10:54:41</time>
      </trkpt>
      <trkpt lat="44.38532" lon="4.47626">
        <ele>428.92896</ele>
        <time>2020-08-30 10:54:42</time>
      </trkpt>
      <trkpt lat="44.38534" lon="4.47623">
        <ele>428.88342</ele>
        <time>2020-08-30 10:54:43</time>
      </trkpt>
      <trkpt lat="44.38535" lon="4.47619">
        <ele>428.8944</ele>
        <time>2020-08-30 10:54:44</time>
      </trkpt>
      <trkpt lat="44.38535" lon="4.47617">
        <ele>428.46045</ele>
        <time>2020-08-30 10:54:45</time>
      </trkpt>
      <trkpt lat="44.38534" lon="4.47615">
        <ele>429.4605</ele>
        <time>2020-08-30 10:54:46</time>
      </trkpt>
      <trkpt lat="44.38534" lon="4.47612">
        <ele>429.13306</ele>
        <time>2020-08-30 10:54:48</time>
      </trkpt>
      <trkpt lat="44.38534" lon="4.47612">
        <ele>429.1339</ele>
        <time>2020-08-30 10:54:49</time>
      </trkpt>
      <trkpt lat="44.38533" lon="4.47611">
        <ele>430.08447</ele>
        <time>2020-08-30 10:54:58</time>
      </trkpt>
      <trkpt lat="44.38532" lon="4.4761">
        <ele>429.91608</ele>
        <time>2020-08-30 10:55:01</time>
      </trkpt>
      <trkpt lat="44.38533" lon="4.4761">
        <ele>428.70557</ele>
        <time>2020-08-30 10:55:17</time>
      </trkpt>
      <trkpt lat="44.38534" lon="4.47609">
        <ele>429.12927</ele>
        <time>2020-08-30 10:55:19</time>
      </trkpt>
      <trkpt lat="44.38534" lon="4.47609">
        <ele>429.2173</ele>
        <time>2020-08-30 10:55:20</time>
      </trkpt>
      <trkpt lat="44.38534" lon="4.47607">
        <ele>429.17548</ele>
        <time>2020-08-30 10:55:22</time>
      </trkpt>
      <trkpt lat="44.38534" lon="4.47607">
        <ele>428.56207</ele>
        <time>2020-08-30 10:55:24</time>
      </trkpt>
      <trkpt lat="44.38535" lon="4.47606">
        <ele>428.98425</ele>
        <time>2020-08-30 10:55:25</time>
      </trkpt>
      <trkpt lat="44.38535" lon="4.47606">
        <ele>429.41174</ele>
        <time>2020-08-30 10:55:27</time>
      </trkpt>
      <trkpt lat="44.38535" lon="4.47605">
        <ele>429.2931</ele>
        <time>2020-08-30 10:55:28</time>
      </trkpt>
      <trkpt lat="44.38534" lon="4.47604">
        <ele>429.1269</ele>
        <time>2020-08-30 10:55:30</time>
      </trkpt>
      <trkpt lat="44.38533" lon="4.47605">
        <ele>429.52197</ele>
        <time>2020-08-30 10:55:32</time>
      </trkpt>
      <trkpt lat="44.38533" lon="4.47605">
        <ele>429.44287</ele>
        <time>2020-08-30 10:55:33</time>
      </trkpt>
      <trkpt lat="44.38533" lon="4.47605">
        <ele>429.51807</ele>
        <time>2020-08-30 10:55:34</time>
      </trkpt>
      <trkpt lat="44.38534" lon="4.47604">
        <ele>430.53107</ele>
        <time>2020-08-30 10:57:34</time>
      </trkpt>
      <trkpt lat="44.38534" lon="4.47604">
        <ele>430.52014</ele>
        <time>2020-08-30 10:58:13</time>
      </trkpt>
      <trkpt lat="44.38534" lon="4.47604">
        <ele>430.56897</ele>
        <time>2020-08-30 10:58:45</time>
      </trkpt>
      <trkpt lat="44.38534" lon="4.47604">
        <ele>430.5714</ele>
        <time>2020-08-30 10:59:16</time>
      </trkpt>
      <trkpt lat="44.38534" lon="4.47604">
        <ele>430.6413</ele>
        <time>2020-08-30 10:59:47</time>
      </trkpt>
      <trkpt lat="44.38534" lon="4.47604">
        <ele>430.6623</ele>
        <time>2020-08-30 11:00:24</time>
      </trkpt>
      <trkpt lat="44.38534" lon="4.47604">
        <ele>430.67078</ele>
        <time>2020-08-30 11:00:54</time>
      </trkpt>
      <trkpt lat="44.38534" lon="4.47604">
        <ele>430.74347</ele>
        <time>2020-08-30 11:01:27</time>
      </trkpt>
      <trkpt lat="44.38534" lon="4.47604">
        <ele>430.76</ele>
        <time>2020-08-30 11:01:57</time>
      </trkpt>
      <trkpt lat="44.38534" lon="4.47604">
        <ele>430.8205</ele>
        <time>2020-08-30 11:02:31</time>
      </trkpt>
      <trkpt lat="44.38534" lon="4.47604">
        <ele>430.89</ele>
        <time>2020-08-30 11:03:04</time>
      </trkpt>
      <trkpt lat="44.38534" lon="4.47604">
        <ele>430.94775</ele>
        <time>2020-08-30 11:03:36</time>
      </trkpt>
      <trkpt lat="44.38534" lon="4.47604">
        <ele>431.00098</ele>
        <time>2020-08-30 11:04:06</time>
      </trkpt>
      <trkpt lat="44.38534" lon="4.47604">
        <ele>431.0558</ele>
        <time>2020-08-30 11:04:50</time>
      </trkpt>
      <trkpt lat="44.38534" lon="4.47604">
        <ele>432.25586</ele>
        <time>2020-08-30 11:05:20</time>
      </trkpt>
      <trkpt lat="44.38534" lon="4.47605">
        <ele>431.93933</ele>
        <time>2020-08-30 11:05:22</time>
      </trkpt>
      <trkpt lat="44.38534" lon="4.47608">
        <ele>430.66565</ele>
        <time>2020-08-30 11:05:26</time>
      </trkpt>
      <trkpt lat="44.38535" lon="4.4762">
        <ele>429.49542</ele>
        <time>2020-08-30 11:05:32</time>
      </trkpt>
      <trkpt lat="44.38534" lon="4.47624">
        <ele>429.44525</ele>
        <time>2020-08-30 11:05:33</time>
      </trkpt>
      <trkpt lat="44.3853" lon="4.4763">
        <ele>428.50977</ele>
        <time>2020-08-30 11:05:35</time>
      </trkpt>
      <trkpt lat="44.38528" lon="4.47631">
        <ele>428.8932</ele>
        <time>2020-08-30 11:05:36</time>
      </trkpt>
      <trkpt lat="44.38514" lon="4.47637">
        <ele>429.43536</ele>
        <time>2020-08-30 11:05:42</time>
      </trkpt>
      <trkpt lat="44.3851" lon="4.47639">
        <ele>431.07916</ele>
        <time>2020-08-30 11:05:44</time>
      </trkpt>
      <trkpt lat="44.38508" lon="4.4764">
        <ele>431.4973</ele>
        <time>2020-08-30 11:05:45</time>
      </trkpt>
      <trkpt lat="44.38489" lon="4.47645">
        <ele>430.22113</ele>
        <time>2020-08-30 11:05:53</time>
      </trkpt>
      <trkpt lat="44.38485" lon="4.47648">
        <ele>430.29822</ele>
        <time>2020-08-30 11:05:55</time>
      </trkpt>
      <trkpt lat="44.3848" lon="4.47654">
        <ele>430.2124</ele>
        <time>2020-08-30 11:05:58</time>
      </trkpt>
      <trkpt lat="44.38478" lon="4.47656">
        <ele>430.47498</ele>
        <time>2020-08-30 11:05:59</time>
      </trkpt>
      <trkpt lat="44.38472" lon="4.47659">
        <ele>430.61444</ele>
        <time>2020-08-30 11:06:02</time>
      </trkpt>
      <trkpt lat="44.38465" lon="4.47668">
        <ele>431.73254</ele>
        <time>2020-08-30 11:06:06</time>
      </trkpt>
      <trkpt lat="44.38463" lon="4.47673">
        <ele>432.45654</ele>
        <time>2020-08-30 11:06:08</time>
      </trkpt>
      <trkpt lat="44.38461" lon="4.47682">
        <ele>433.62054</ele>
        <time>2020-08-30 11:06:12</time>
      </trkpt>
      <trkpt lat="44.38462" lon="4.47685">
        <ele>434.74243</ele>
        <time>2020-08-30 11:06:13</time>
      </trkpt>
      <trkpt lat="44.38464" lon="4.47688">
        <ele>435.14807</ele>
        <time>2020-08-30 11:06:14</time>
      </trkpt>
      <trkpt lat="44.38469" lon="4.47692">
        <ele>435.53522</ele>
        <time>2020-08-30 11:06:16</time>
      </trkpt>
      <trkpt lat="44.38571" lon="4.47748">
        <ele>431.09778</ele>
        <time>2020-08-30 11:06:41</time>
      </trkpt>
      <trkpt lat="44.38583" lon="4.47761">
        <ele>429.9054</ele>
        <time>2020-08-30 11:06:44</time>
      </trkpt>
      <trkpt lat="44.38594" lon="4.47776">
        <ele>430.1797</ele>
        <time>2020-08-30 11:06:47</time>
      </trkpt>
      <trkpt lat="44.38633" lon="4.47833">
        <ele>428.2221</ele>
        <time>2020-08-30 11:06:57</time>
      </trkpt>
      <trkpt lat="44.3868" lon="4.47933">
        <ele>428.832</ele>
        <time>2020-08-30 11:07:10</time>
      </trkpt>
      <trkpt lat="44.3869" lon="4.47944">
        <ele>425.44885</ele>
        <time>2020-08-30 11:07:12</time>
      </trkpt>
      <trkpt lat="44.38731" lon="4.47985">
        <ele>425.8285</ele>
        <time>2020-08-30 11:07:20</time>
      </trkpt>
      <trkpt lat="44.38735" lon="4.47991">
        <ele>423.74622</ele>
        <time>2020-08-30 11:07:21</time>
      </trkpt>
      <trkpt lat="44.38739" lon="4.47999">
        <ele>423.46906</ele>
        <time>2020-08-30 11:07:22</time>
      </trkpt>
      <trkpt lat="44.38741" lon="4.48007">
        <ele>423.44684</ele>
        <time>2020-08-30 11:07:23</time>
      </trkpt>
      <trkpt lat="44.38745" lon="4.48025">
        <ele>423.5243</ele>
        <time>2020-08-30 11:07:25</time>
      </trkpt>
      <trkpt lat="44.3875" lon="4.48061">
        <ele>422.24768</ele>
        <time>2020-08-30 11:07:29</time>
      </trkpt>
      <trkpt lat="44.38752" lon="4.48069">
        <ele>423.74622</ele>
        <time>2020-08-30 11:07:30</time>
      </trkpt>
      <trkpt lat="44.3876" lon="4.48082">
        <ele>422.10193</ele>
        <time>2020-08-30 11:07:32</time>
      </trkpt>
      <trkpt lat="44.3881" lon="4.48167">
        <ele>423.95947</ele>
        <time>2020-08-30 11:07:47</time>
      </trkpt>
      <trkpt lat="44.38818" lon="4.4819">
        <ele>422.28198</ele>
        <time>2020-08-30 11:07:51</time>
      </trkpt>
      <trkpt lat="44.38818" lon="4.48196">
        <ele>421.537</ele>
        <time>2020-08-30 11:07:52</time>
      </trkpt>
      <trkpt lat="44.38821" lon="4.4822">
        <ele>421.62207</ele>
        <time>2020-08-30 11:07:56</time>
      </trkpt>
      <trkpt lat="44.38821" lon="4.48237">
        <ele>421.65894</ele>
        <time>2020-08-30 11:07:59</time>
      </trkpt>
      <trkpt lat="44.38805" lon="4.48461">
        <ele>420.03174</ele>
        <time>2020-08-30 11:08:29</time>
      </trkpt>
      <trkpt lat="44.38801" lon="4.48666">
        <ele>422.2401</ele>
        <time>2020-08-30 11:08:56</time>
      </trkpt>
      <trkpt lat="44.38807" lon="4.48791">
        <ele>420.8888</ele>
        <time>2020-08-30 11:09:12</time>
      </trkpt>
      <trkpt lat="44.38843" lon="4.4899">
        <ele>417.6635</ele>
        <time>2020-08-30 11:09:38</time>
      </trkpt>
      <trkpt lat="44.38841" lon="4.49179">
        <ele>416.79297</ele>
        <time>2020-08-30 11:10:02</time>
      </trkpt>
      <trkpt lat="44.38837" lon="4.4926">
        <ele>417.58173</ele>
        <time>2020-08-30 11:10:13</time>
      </trkpt>
      <trkpt lat="44.38839" lon="4.49275">
        <ele>417.18555</ele>
        <time>2020-08-30 11:10:15</time>
      </trkpt>
      <trkpt lat="44.38842" lon="4.49283">
        <ele>417.18988</ele>
        <time>2020-08-30 11:10:16</time>
      </trkpt>
      <trkpt lat="44.38844" lon="4.49289">
        <ele>416.89038</ele>
        <time>2020-08-30 11:10:17</time>
      </trkpt>
      <trkpt lat="44.38883" lon="4.49366">
        <ele>416.05176</ele>
        <time>2020-08-30 11:10:28</time>
      </trkpt>
      <trkpt lat="44.38896" lon="4.49406">
        <ele>415.09064</ele>
        <time>2020-08-30 11:10:33</time>
      </trkpt>
      <trkpt lat="44.38918" lon="4.49507">
        <ele>412.62695</ele>
        <time>2020-08-30 11:10:44</time>
      </trkpt>
      <trkpt lat="44.38941" lon="4.49562">
        <ele>413.63147</ele>
        <time>2020-08-30 11:10:51</time>
      </trkpt>
      <trkpt lat="44.39025" lon="4.49741">
        <ele>410.97192</ele>
        <time>2020-08-30 11:11:19</time>
      </trkpt>
      <trkpt lat="44.39031" lon="4.49748">
        <ele>411.24463</ele>
        <time>2020-08-30 11:11:21</time>
      </trkpt>
      <trkpt lat="44.3906" lon="4.49788">
        <ele>411.24463</ele>
        <time>2020-08-30 11:11:30</time>
      </trkpt>
      <trkpt lat="44.39068" lon="4.49807">
        <ele>408.5619</ele>
        <time>2020-08-30 11:11:33</time>
      </trkpt>
      <trkpt lat="44.39071" lon="4.49826">
        <ele>408.42108</ele>
        <time>2020-08-30 11:11:36</time>
      </trkpt>
      <trkpt lat="44.39078" lon="4.49859">
        <ele>411.1422</ele>
        <time>2020-08-30 11:11:41</time>
      </trkpt>
      <trkpt lat="44.39083" lon="4.49883">
        <ele>411.91016</ele>
        <time>2020-08-30 11:11:45</time>
      </trkpt>
      <trkpt lat="44.39085" lon="4.49896">
        <ele>412.6374</ele>
        <time>2020-08-30 11:11:47</time>
      </trkpt>
      <trkpt lat="44.39096" lon="4.49928">
        <ele>413.50092</ele>
        <time>2020-08-30 11:11:52</time>
      </trkpt>
      <trkpt lat="44.39106" lon="4.49948">
        <ele>414.1762</ele>
        <time>2020-08-30 11:11:56</time>
      </trkpt>
      <trkpt lat="44.39176" lon="4.50077">
        <ele>415.03455</ele>
        <time>2020-08-30 11:12:24</time>
      </trkpt>
      <trkpt lat="44.39191" lon="4.50122">
        <ele>415.63287</ele>
        <time>2020-08-30 11:12:35</time>
      </trkpt>
      <trkpt lat="44.39195" lon="4.50127">
        <ele>416.5686</ele>
        <time>2020-08-30 11:12:37</time>
      </trkpt>
      <trkpt lat="44.39198" lon="4.50127">
        <ele>417.2024</ele>
        <time>2020-08-30 11:12:38</time>
      </trkpt>
      <trkpt lat="44.39201" lon="4.50127">
        <ele>418.31177</ele>
        <time>2020-08-30 11:12:39</time>
      </trkpt>
      <trkpt lat="44.39206" lon="4.50123">
        <ele>419.90466</ele>
        <time>2020-08-30 11:12:41</time>
      </trkpt>
      <trkpt lat="44.39208" lon="4.5012">
        <ele>420.26215</ele>
        <time>2020-08-30 11:12:42</time>
      </trkpt>
      <trkpt lat="44.39229" lon="4.50091">
        <ele>419.90466</ele>
        <time>2020-08-30 11:12:50</time>
      </trkpt>
      <trkpt lat="44.39251" lon="4.5007">
        <ele>424.34094</ele>
        <time>2020-08-30 11:12:56</time>
      </trkpt>
      <trkpt lat="44.39266" lon="4.50053">
        <ele>423.07083</ele>
        <time>2020-08-30 11:13:00</time>
      </trkpt>
      <trkpt lat="44.39274" lon="4.50042">
        <ele>417.06738</ele>
        <time>2020-08-30 11:13:04</time>
      </trkpt>
      <trkpt lat="44.39276" lon="4.50038">
        <ele>416.5487</ele>
        <time>2020-08-30 11:13:05</time>
      </trkpt>
      <trkpt lat="44.39277" lon="4.50034">
        <ele>417.02893</ele>
        <time>2020-08-30 11:13:06</time>
      </trkpt>
      <trkpt lat="44.39278" lon="4.50025">
        <ele>416.24</ele>
        <time>2020-08-30 11:13:08</time>
      </trkpt>
      <trkpt lat="44.3928" lon="4.50011">
        <ele>413.44373</ele>
        <time>2020-08-30 11:13:11</time>
      </trkpt>
      <trkpt lat="44.39281" lon="4.50007">
        <ele>414.56702</ele>
        <time>2020-08-30 11:13:12</time>
      </trkpt>
      <trkpt lat="44.39288" lon="4.49997">
        <ele>414.42798</ele>
        <time>2020-08-30 11:13:15</time>
      </trkpt>
      <trkpt lat="44.393" lon="4.49984">
        <ele>414.54443</ele>
        <time>2020-08-30 11:13:19</time>
      </trkpt>
      <trkpt lat="44.39307" lon="4.49971">
        <ele>415.53052</ele>
        <time>2020-08-30 11:13:22</time>
      </trkpt>
      <trkpt lat="44.39308" lon="4.49964">
        <ele>415.50708</ele>
        <time>2020-08-30 11:13:23</time>
      </trkpt>
      <trkpt lat="44.39314" lon="4.49942">
        <ele>414.78528</ele>
        <time>2020-08-30 11:13:26</time>
      </trkpt>
      <trkpt lat="44.39327" lon="4.49892">
        <ele>413.0777</ele>
        <time>2020-08-30 11:13:33</time>
      </trkpt>
      <trkpt lat="44.39331" lon="4.49884">
        <ele>412.62048</ele>
        <time>2020-08-30 11:13:35</time>
      </trkpt>
      <trkpt lat="44.39338" lon="4.49878">
        <ele>410.78284</ele>
        <time>2020-08-30 11:13:38</time>
      </trkpt>
      <trkpt lat="44.39341" lon="4.49877">
        <ele>410.64587</ele>
        <time>2020-08-30 11:13:39</time>
      </trkpt>
      <trkpt lat="44.39344" lon="4.49875">
        <ele>412.04077</ele>
        <time>2020-08-30 11:13:41</time>
      </trkpt>
      <trkpt lat="44.39349" lon="4.49867">
        <ele>411.6925</ele>
        <time>2020-08-30 11:13:44</time>
      </trkpt>
      <trkpt lat="44.39355" lon="4.49857">
        <ele>411.99316</ele>
        <time>2020-08-30 11:13:47</time>
      </trkpt>
      <trkpt lat="44.39395" lon="4.49797">
        <ele>415.48425</ele>
        <time>2020-08-30 11:14:02</time>
      </trkpt>
      <trkpt lat="44.39415" lon="4.49749">
        <ele>418.97083</ele>
        <time>2020-08-30 11:14:12</time>
      </trkpt>
      <trkpt lat="44.39423" lon="4.49728">
        <ele>417.9143</ele>
        <time>2020-08-30 11:14:16</time>
      </trkpt>
      <trkpt lat="44.39447" lon="4.49669">
        <ele>416.347</ele>
        <time>2020-08-30 11:14:27</time>
      </trkpt>
      <trkpt lat="44.39466" lon="4.49609">
        <ele>418.20325</ele>
        <time>2020-08-30 11:14:37</time>
      </trkpt>
      <trkpt lat="44.39474" lon="4.49542">
        <ele>418.2356</ele>
        <time>2020-08-30 11:14:47</time>
      </trkpt>
      <trkpt lat="44.39483" lon="4.49328">
        <ele>418.33813</ele>
        <time>2020-08-30 11:15:17</time>
      </trkpt>
      <trkpt lat="44.39511" lon="4.491">
        <ele>418.79175</ele>
        <time>2020-08-30 11:15:47</time>
      </trkpt>
      <trkpt lat="44.39526" lon="4.48973">
        <ele>423.55658</ele>
        <time>2020-08-30 11:16:04</time>
      </trkpt>
      <trkpt lat="44.39531" lon="4.48915">
        <ele>420.2542</ele>
        <time>2020-08-30 11:16:13</time>
      </trkpt>
      <trkpt lat="44.39531" lon="4.48913">
        <ele>419.66046</ele>
        <time>2020-08-30 11:16:17</time>
      </trkpt>
      <trkpt lat="44.39531" lon="4.48914">
        <ele>418.5611</ele>
        <time>2020-08-30 11:16:50</time>
      </trkpt>
      <trkpt lat="44.39532" lon="4.48914">
        <ele>418.3283</ele>
        <time>2020-08-30 11:16:53</time>
      </trkpt>
      <trkpt lat="44.39532" lon="4.48915">
        <ele>417.4956</ele>
        <time>2020-08-30 11:16:54</time>
      </trkpt>
      <trkpt lat="44.39532" lon="4.48915">
        <ele>417.44043</ele>
        <time>2020-08-30 11:17:01</time>
      </trkpt>
      <trkpt lat="44.39532" lon="4.48915">
        <ele>417.79724</ele>
        <time>2020-08-30 11:17:02</time>
      </trkpt>
      <trkpt lat="44.39533" lon="4.48916">
        <ele>415.66302</ele>
        <time>2020-08-30 11:17:33</time>
      </trkpt>
      <trkpt lat="44.39533" lon="4.48915">
        <ele>415.69092</ele>
        <time>2020-08-30 11:18:00</time>
      </trkpt>
      <trkpt lat="44.39533" lon="4.48915">
        <ele>414.328</ele>
        <time>2020-08-30 11:18:01</time>
      </trkpt>
      <trkpt lat="44.39533" lon="4.48913">
        <ele>414.61597</ele>
        <time>2020-08-30 11:18:23</time>
      </trkpt>
      <trkpt lat="44.39532" lon="4.4891">
        <ele>414.51648</ele>
        <time>2020-08-30 11:18:25</time>
      </trkpt>
      <trkpt lat="44.39532" lon="4.48906">
        <ele>414.98755</ele>
        <time>2020-08-30 11:18:27</time>
      </trkpt>
      <trkpt lat="44.39532" lon="4.48898">
        <ele>414.4347</ele>
        <time>2020-08-30 11:18:30</time>
      </trkpt>
      <trkpt lat="44.39533" lon="4.48894">
        <ele>412.89832</ele>
        <time>2020-08-30 11:18:31</time>
      </trkpt>
      <trkpt lat="44.39534" lon="4.48881">
        <ele>414.31433</ele>
        <time>2020-08-30 11:18:34</time>
      </trkpt>
      <trkpt lat="44.39539" lon="4.48832">
        <ele>414.08087</ele>
        <time>2020-08-30 11:18:43</time>
      </trkpt>
      <trkpt lat="44.39555" lon="4.48691">
        <ele>415.1192</ele>
        <time>2020-08-30 11:19:08</time>
      </trkpt>
      <trkpt lat="44.39558" lon="4.48673">
        <ele>414.93005</ele>
        <time>2020-08-30 11:19:11</time>
      </trkpt>
      <trkpt lat="44.39561" lon="4.48647">
        <ele>415.79382</ele>
        <time>2020-08-30 11:19:15</time>
      </trkpt>
      <trkpt lat="44.39562" lon="4.4864">
        <ele>415.10156</ele>
        <time>2020-08-30 11:19:16</time>
      </trkpt>
      <trkpt lat="44.39568" lon="4.48617">
        <ele>414.93005</ele>
        <time>2020-08-30 11:19:20</time>
      </trkpt>
      <trkpt lat="44.39576" lon="4.48594">
        <ele>420.66016</ele>
        <time>2020-08-30 11:19:24</time>
      </trkpt>
      <trkpt lat="44.39632" lon="4.48451">
        <ele>417.90338</ele>
        <time>2020-08-30 11:19:49</time>
      </trkpt>
      <trkpt lat="44.39726" lon="4.48301">
        <ele>416.76227</ele>
        <time>2020-08-30 11:20:19</time>
      </trkpt>
      <trkpt lat="44.3974" lon="4.48256">
        <ele>417.26575</ele>
        <time>2020-08-30 11:20:26</time>
      </trkpt>
      <trkpt lat="44.39771" lon="4.48152">
        <ele>419.89923</ele>
        <time>2020-08-30 11:20:41</time>
      </trkpt>
      <trkpt lat="44.39779" lon="4.48139">
        <ele>418.00024</ele>
        <time>2020-08-30 11:20:43</time>
      </trkpt>
      <trkpt lat="44.39796" lon="4.48113">
        <ele>415.76056</ele>
        <time>2020-08-30 11:20:47</time>
      </trkpt>
      <trkpt lat="44.39808" lon="4.48102">
        <ele>414.6889</ele>
        <time>2020-08-30 11:20:49</time>
      </trkpt>
      <trkpt lat="44.39826" lon="4.48089">
        <ele>414.74902</ele>
        <time>2020-08-30 11:20:52</time>
      </trkpt>
      <trkpt lat="44.39846" lon="4.48079">
        <ele>413.2046</ele>
        <time>2020-08-30 11:20:55</time>
      </trkpt>
      <trkpt lat="44.39976" lon="4.48043">
        <ele>410.41467</ele>
        <time>2020-08-30 11:21:13</time>
      </trkpt>
      <trkpt lat="44.4" lon="4.4804">
        <ele>409.9895</ele>
        <time>2020-08-30 11:21:16</time>
      </trkpt>
      <trkpt lat="44.40023" lon="4.48045">
        <ele>410.16602</ele>
        <time>2020-08-30 11:21:19</time>
      </trkpt>
      <trkpt lat="44.40038" lon="4.48052">
        <ele>409.97125</ele>
        <time>2020-08-30 11:21:21</time>
      </trkpt>
      <trkpt lat="44.40069" lon="4.48071">
        <ele>408.4392</ele>
        <time>2020-08-30 11:21:25</time>
      </trkpt>
      <trkpt lat="44.40112" lon="4.48112">
        <ele>404.33923</ele>
        <time>2020-08-30 11:21:31</time>
      </trkpt>
      <trkpt lat="44.40138" lon="4.48146">
        <ele>402.54523</ele>
        <time>2020-08-30 11:21:35</time>
      </trkpt>
      <trkpt lat="44.40171" lon="4.48195">
        <ele>399.979</ele>
        <time>2020-08-30 11:21:41</time>
      </trkpt>
      <trkpt lat="44.40176" lon="4.48201">
        <ele>400.37152</ele>
        <time>2020-08-30 11:21:42</time>
      </trkpt>
      <trkpt lat="44.40183" lon="4.48204">
        <ele>400.6023</ele>
        <time>2020-08-30 11:21:43</time>
      </trkpt>
      <trkpt lat="44.4019" lon="4.48206">
        <ele>400.71118</ele>
        <time>2020-08-30 11:21:44</time>
      </trkpt>
      <trkpt lat="44.40196" lon="4.48205">
        <ele>400.38794</ele>
        <time>2020-08-30 11:21:45</time>
      </trkpt>
      <trkpt lat="44.40203" lon="4.48202">
        <ele>401.79755</ele>
        <time>2020-08-30 11:21:46</time>
      </trkpt>
      <trkpt lat="44.40208" lon="4.48198">
        <ele>402.0525</ele>
        <time>2020-08-30 11:21:47</time>
      </trkpt>
      <trkpt lat="44.40218" lon="4.48187">
        <ele>403.11157</ele>
        <time>2020-08-30 11:21:49</time>
      </trkpt>
      <trkpt lat="44.4022" lon="4.48179">
        <ele>399.979</ele>
        <time>2020-08-30 11:21:50</time>
      </trkpt>
      <trkpt lat="44.40222" lon="4.48172">
        <ele>403.4021</ele>
        <time>2020-08-30 11:21:51</time>
      </trkpt>
      <trkpt lat="44.40223" lon="4.48165">
        <ele>403.33856</ele>
        <time>2020-08-30 11:21:52</time>
      </trkpt>
      <trkpt lat="44.40223" lon="4.48157">
        <ele>402.9187</ele>
        <time>2020-08-30 11:21:53</time>
      </trkpt>
      <trkpt lat="44.40223" lon="4.48122">
        <ele>399.64514</ele>
        <time>2020-08-30 11:21:59</time>
      </trkpt>
      <trkpt lat="44.40206" lon="4.47971">
        <ele>407.24622</ele>
        <time>2020-08-30 11:22:29</time>
      </trkpt>
      <trkpt lat="44.402" lon="4.47935">
        <ele>409.10364</ele>
        <time>2020-08-30 11:22:36</time>
      </trkpt>
      <trkpt lat="44.40199" lon="4.4793">
        <ele>409.86212</ele>
        <time>2020-08-30 11:22:37</time>
      </trkpt>
      <trkpt lat="44.40186" lon="4.47884">
        <ele>413.3662</ele>
        <time>2020-08-30 11:22:47</time>
      </trkpt>
      <trkpt lat="44.40164" lon="4.47803">
        <ele>415.98157</ele>
        <time>2020-08-30 11:23:04</time>
      </trkpt>
      <trkpt lat="44.40152" lon="4.47774">
        <ele>415.65186</ele>
        <time>2020-08-30 11:23:10</time>
      </trkpt>
      <trkpt lat="44.40136" lon="4.47745">
        <ele>414.02515</ele>
        <time>2020-08-30 11:23:17</time>
      </trkpt>
      <trkpt lat="44.40117" lon="4.47704">
        <ele>417.0147</ele>
        <time>2020-08-30 11:23:27</time>
      </trkpt>
      <trkpt lat="44.40115" lon="4.47691">
        <ele>416.29968</ele>
        <time>2020-08-30 11:23:30</time>
      </trkpt>
      <trkpt lat="44.40114" lon="4.47681">
        <ele>419.0819</ele>
        <time>2020-08-30 11:23:32</time>
      </trkpt>
      <trkpt lat="44.40113" lon="4.47659">
        <ele>422.8647</ele>
        <time>2020-08-30 11:23:37</time>
      </trkpt>
      <trkpt lat="44.4011" lon="4.47641">
        <ele>422.8324</ele>
        <time>2020-08-30 11:23:41</time>
      </trkpt>
      <trkpt lat="44.40105" lon="4.47628">
        <ele>422.52295</ele>
        <time>2020-08-30 11:23:44</time>
      </trkpt>
      <trkpt lat="44.40102" lon="4.47624">
        <ele>423.5735</ele>
        <time>2020-08-30 11:23:45</time>
      </trkpt>
      <trkpt lat="44.40091" lon="4.47612">
        <ele>424.7937</ele>
        <time>2020-08-30 11:23:49</time>
      </trkpt>
      <trkpt lat="44.40085" lon="4.47605">
        <ele>424.00232</ele>
        <time>2020-08-30 11:23:51</time>
      </trkpt>
      <trkpt lat="44.40061" lon="4.47575">
        <ele>426.75623</ele>
        <time>2020-08-30 11:24:01</time>
      </trkpt>
      <trkpt lat="44.40058" lon="4.47573">
        <ele>426.81573</ele>
        <time>2020-08-30 11:24:02</time>
      </trkpt>
      <trkpt lat="44.40046" lon="4.47566">
        <ele>427.01788</ele>
        <time>2020-08-30 11:24:06</time>
      </trkpt>
      <trkpt lat="44.40036" lon="4.47563">
        <ele>427.12427</ele>
        <time>2020-08-30 11:24:09</time>
      </trkpt>
      <trkpt lat="44.39984" lon="4.47552">
        <ele>431.07556</ele>
        <time>2020-08-30 11:24:25</time>
      </trkpt>
      <trkpt lat="44.39975" lon="4.47547">
        <ele>432.24115</ele>
        <time>2020-08-30 11:24:28</time>
      </trkpt>
      <trkpt lat="44.3997" lon="4.47543">
        <ele>428.52417</ele>
        <time>2020-08-30 11:24:30</time>
      </trkpt>
      <trkpt lat="44.39966" lon="4.47537">
        <ele>432.6731</ele>
        <time>2020-08-30 11:24:32</time>
      </trkpt>
      <trkpt lat="44.39962" lon="4.47529">
        <ele>431.01068</ele>
        <time>2020-08-30 11:24:34</time>
      </trkpt>
      <trkpt lat="44.39958" lon="4.47521">
        <ele>432.7091</ele>
        <time>2020-08-30 11:24:36</time>
      </trkpt>
      <trkpt lat="44.39944" lon="4.47482">
        <ele>436.10278</ele>
        <time>2020-08-30 11:24:46</time>
      </trkpt>
      <trkpt lat="44.3993" lon="4.47432">
        <ele>435.87415</ele>
        <time>2020-08-30 11:24:58</time>
      </trkpt>
      <trkpt lat="44.39927" lon="4.47404">
        <ele>436.56055</ele>
        <time>2020-08-30 11:25:04</time>
      </trkpt>
      <trkpt lat="44.39926" lon="4.47388">
        <ele>436.0462</ele>
        <time>2020-08-30 11:25:07</time>
      </trkpt>
      <trkpt lat="44.39929" lon="4.47338">
        <ele>439.3103</ele>
        <time>2020-08-30 11:25:18</time>
      </trkpt>
      <trkpt lat="44.39935" lon="4.47316">
        <ele>439.29364</ele>
        <time>2020-08-30 11:25:23</time>
      </trkpt>
      <trkpt lat="44.39941" lon="4.47299">
        <ele>439.7599</ele>
        <time>2020-08-30 11:25:27</time>
      </trkpt>
      <trkpt lat="44.39945" lon="4.47292">
        <ele>439.74316</ele>
        <time>2020-08-30 11:25:29</time>
      </trkpt>
      <trkpt lat="44.39952" lon="4.47283">
        <ele>439.58154</ele>
        <time>2020-08-30 11:25:32</time>
      </trkpt>
      <trkpt lat="44.39969" lon="4.47265">
        <ele>443.53552</ele>
        <time>2020-08-30 11:25:39</time>
      </trkpt>
      <trkpt lat="44.40001" lon="4.47238">
        <ele>444.38</ele>
        <time>2020-08-30 11:25:51</time>
      </trkpt>
      <trkpt lat="44.40044" lon="4.47205">
        <ele>446.28235</ele>
        <time>2020-08-30 11:26:07</time>
      </trkpt>
      <trkpt lat="44.40054" lon="4.47193">
        <ele>445.98578</ele>
        <time>2020-08-30 11:26:11</time>
      </trkpt>
      <trkpt lat="44.4006" lon="4.47183">
        <ele>446.56372</ele>
        <time>2020-08-30 11:26:14</time>
      </trkpt>
      <trkpt lat="44.40069" lon="4.47163">
        <ele>444.26245</ele>
        <time>2020-08-30 11:26:19</time>
      </trkpt>
      <trkpt lat="44.40072" lon="4.47153">
        <ele>444.2119</ele>
        <time>2020-08-30 11:26:21</time>
      </trkpt>
      <trkpt lat="44.40086" lon="4.47097">
        <ele>449.52112</ele>
        <time>2020-08-30 11:26:32</time>
      </trkpt>
      <trkpt lat="44.40095" lon="4.47072">
        <ele>450.9331</ele>
        <time>2020-08-30 11:26:37</time>
      </trkpt>
      <trkpt lat="44.40121" lon="4.4703">
        <ele>452.01245</ele>
        <time>2020-08-30 11:26:46</time>
      </trkpt>
      <trkpt lat="44.40143" lon="4.47006">
        <ele>454.24432</ele>
        <time>2020-08-30 11:26:53</time>
      </trkpt>
      <trkpt lat="44.40154" lon="4.46997">
        <ele>455.16064</ele>
        <time>2020-08-30 11:26:56</time>
      </trkpt>
      <trkpt lat="44.40202" lon="4.46973">
        <ele>457.8827</ele>
        <time>2020-08-30 11:27:08</time>
      </trkpt>
      <trkpt lat="44.40299" lon="4.46926">
        <ele>457.27014</ele>
        <time>2020-08-30 11:27:28</time>
      </trkpt>
      <trkpt lat="44.40314" lon="4.46916">
        <ele>456.62817</ele>
        <time>2020-08-30 11:27:31</time>
      </trkpt>
      <trkpt lat="44.40364" lon="4.46869">
        <ele>454.09045</ele>
        <time>2020-08-30 11:27:41</time>
      </trkpt>
      <trkpt lat="44.40381" lon="4.46861">
        <ele>451.963</ele>
        <time>2020-08-30 11:27:44</time>
      </trkpt>
      <trkpt lat="44.40387" lon="4.46859">
        <ele>451.99658</ele>
        <time>2020-08-30 11:27:45</time>
      </trkpt>
      <trkpt lat="44.40391" lon="4.46859">
        <ele>453.49255</ele>
        <time>2020-08-30 11:27:46</time>
      </trkpt>
      <trkpt lat="44.40397" lon="4.46859">
        <ele>451.1217</ele>
        <time>2020-08-30 11:27:47</time>
      </trkpt>
      <trkpt lat="44.40434" lon="4.46864">
        <ele>456.13733</ele>
        <time>2020-08-30 11:27:54</time>
      </trkpt>
      <trkpt lat="44.4045" lon="4.46861">
        <ele>458.02917</ele>
        <time>2020-08-30 11:27:57</time>
      </trkpt>
      <trkpt lat="44.40459" lon="4.46855">
        <ele>459.6089</ele>
        <time>2020-08-30 11:27:59</time>
      </trkpt>
      <trkpt lat="44.40467" lon="4.46847">
        <ele>461.1145</ele>
        <time>2020-08-30 11:28:01</time>
      </trkpt>
      <trkpt lat="44.40472" lon="4.46835">
        <ele>462.80292</ele>
        <time>2020-08-30 11:28:03</time>
      </trkpt>
      <trkpt lat="44.40476" lon="4.46822">
        <ele>463.07672</ele>
        <time>2020-08-30 11:28:05</time>
      </trkpt>
      <trkpt lat="44.40477" lon="4.46816">
        <ele>463.45923</ele>
        <time>2020-08-30 11:28:06</time>
      </trkpt>
      <trkpt lat="44.40477" lon="4.46809">
        <ele>463.742</ele>
        <time>2020-08-30 11:28:07</time>
      </trkpt>
      <trkpt lat="44.40476" lon="4.46794">
        <ele>463.74927</ele>
        <time>2020-08-30 11:28:09</time>
      </trkpt>
      <trkpt lat="44.40473" lon="4.46787">
        <ele>461.1145</ele>
        <time>2020-08-30 11:28:10</time>
      </trkpt>
      <trkpt lat="44.40468" lon="4.46776">
        <ele>463.70728</ele>
        <time>2020-08-30 11:28:12</time>
      </trkpt>
      <trkpt lat="44.40464" lon="4.46768">
        <ele>463.37054</ele>
        <time>2020-08-30 11:28:14</time>
      </trkpt>
      <trkpt lat="44.40461" lon="4.46764">
        <ele>463.797</ele>
        <time>2020-08-30 11:28:15</time>
      </trkpt>
      <trkpt lat="44.40451" lon="4.46754">
        <ele>465.1776</ele>
        <time>2020-08-30 11:28:18</time>
      </trkpt>
      <trkpt lat="44.40439" lon="4.46744">
        <ele>463.2876</ele>
        <time>2020-08-30 11:28:22</time>
      </trkpt>
      <trkpt lat="44.40419" lon="4.46734">
        <ele>465.14697</ele>
        <time>2020-08-30 11:28:28</time>
      </trkpt>
      <trkpt lat="44.40407" lon="4.46727">
        <ele>466.4867</ele>
        <time>2020-08-30 11:28:32</time>
      </trkpt>
      <trkpt lat="44.40349" lon="4.46691">
        <ele>467.7799</ele>
        <time>2020-08-30 11:28:50</time>
      </trkpt>
      <trkpt lat="44.40334" lon="4.46677">
        <ele>471.35254</ele>
        <time>2020-08-30 11:28:55</time>
      </trkpt>
      <trkpt lat="44.40328" lon="4.46665">
        <ele>471.4757</ele>
        <time>2020-08-30 11:28:58</time>
      </trkpt>
      <trkpt lat="44.40321" lon="4.46648">
        <ele>471.02167</ele>
        <time>2020-08-30 11:29:02</time>
      </trkpt>
      <trkpt lat="44.40319" lon="4.46638">
        <ele>471.7235</ele>
        <time>2020-08-30 11:29:04</time>
      </trkpt>
      <trkpt lat="44.40317" lon="4.46624">
        <ele>472.99866</ele>
        <time>2020-08-30 11:29:07</time>
      </trkpt>
      <trkpt lat="44.40317" lon="4.4661">
        <ele>471.08203</ele>
        <time>2020-08-30 11:29:10</time>
      </trkpt>
      <trkpt lat="44.40318" lon="4.46602">
        <ele>474.12384</ele>
        <time>2020-08-30 11:29:12</time>
      </trkpt>
      <trkpt lat="44.40322" lon="4.46584">
        <ele>473.73767</ele>
        <time>2020-08-30 11:29:16</time>
      </trkpt>
      <trkpt lat="44.40325" lon="4.46572">
        <ele>474.3968</ele>
        <time>2020-08-30 11:29:19</time>
      </trkpt>
      <trkpt lat="44.40343" lon="4.46526">
        <ele>474.83307</ele>
        <time>2020-08-30 11:29:30</time>
      </trkpt>
      <trkpt lat="44.40388" lon="4.46402">
        <ele>472.76288</ele>
        <time>2020-08-30 11:29:51</time>
      </trkpt>
      <trkpt lat="44.40396" lon="4.4638">
        <ele>471.9132</ele>
        <time>2020-08-30 11:29:54</time>
      </trkpt>
      <trkpt lat="44.404" lon="4.46365">
        <ele>473.3073</ele>
        <time>2020-08-30 11:29:56</time>
      </trkpt>
      <trkpt lat="44.404" lon="4.46356">
        <ele>473.84595</ele>
        <time>2020-08-30 11:29:57</time>
      </trkpt>
      <trkpt lat="44.40399" lon="4.46337">
        <ele>474.79944</ele>
        <time>2020-08-30 11:29:59</time>
      </trkpt>
      <trkpt lat="44.40396" lon="4.4632">
        <ele>474.81506</ele>
        <time>2020-08-30 11:30:01</time>
      </trkpt>
      <trkpt lat="44.40345" lon="4.46129">
        <ele>464.51172</ele>
        <time>2020-08-30 11:30:21</time>
      </trkpt>
      <trkpt lat="44.4025" lon="4.4583">
        <ele>458.22852</ele>
        <time>2020-08-30 11:30:51</time>
      </trkpt>
      <trkpt lat="44.40172" lon="4.4556">
        <ele>461.2448</ele>
        <time>2020-08-30 11:31:21</time>
      </trkpt>
      <trkpt lat="44.40167" lon="4.45523">
        <ele>460.27356</ele>
        <time>2020-08-30 11:31:25</time>
      </trkpt>
      <trkpt lat="44.40168" lon="4.45496">
        <ele>462.10626</ele>
        <time>2020-08-30 11:31:28</time>
      </trkpt>
      <trkpt lat="44.40171" lon="4.45477">
        <ele>461.2448</ele>
        <time>2020-08-30 11:31:30</time>
      </trkpt>
      <trkpt lat="44.40175" lon="4.45441">
        <ele>462.35114</ele>
        <time>2020-08-30 11:31:35</time>
      </trkpt>
      <trkpt lat="44.40191" lon="4.4518">
        <ele>458.76447</ele>
        <time>2020-08-30 11:32:05</time>
      </trkpt>
      <trkpt lat="44.40194" lon="4.45157">
        <ele>456.31873</ele>
        <time>2020-08-30 11:32:08</time>
      </trkpt>
      <trkpt lat="44.40198" lon="4.45147">
        <ele>458.81732</ele>
        <time>2020-08-30 11:32:10</time>
      </trkpt>
      <trkpt lat="44.40199" lon="4.45143">
        <ele>458.0918</ele>
        <time>2020-08-30 11:32:11</time>
      </trkpt>
      <trkpt lat="44.40204" lon="4.45141">
        <ele>457.3108</ele>
        <time>2020-08-30 11:32:12</time>
      </trkpt>
      <trkpt lat="44.40213" lon="4.45133">
        <ele>457.27515</ele>
        <time>2020-08-30 11:32:14</time>
      </trkpt>
      <trkpt lat="44.40223" lon="4.45128">
        <ele>456.72803</ele>
        <time>2020-08-30 11:32:16</time>
      </trkpt>
      <trkpt lat="44.40229" lon="4.45128">
        <ele>456.02893</ele>
        <time>2020-08-30 11:32:17</time>
      </trkpt>
      <trkpt lat="44.40235" lon="4.45129">
        <ele>456.27173</ele>
        <time>2020-08-30 11:32:18</time>
      </trkpt>
      <trkpt lat="44.40241" lon="4.45132">
        <ele>456.00232</ele>
        <time>2020-08-30 11:32:19</time>
      </trkpt>
      <trkpt lat="44.40248" lon="4.45136">
        <ele>458.0918</ele>
        <time>2020-08-30 11:32:20</time>
      </trkpt>
      <trkpt lat="44.40254" lon="4.45143">
        <ele>453.38354</ele>
        <time>2020-08-30 11:32:21</time>
      </trkpt>
      <trkpt lat="44.40332" lon="4.45246">
        <ele>449.2008</ele>
        <time>2020-08-30 11:32:34</time>
      </trkpt>
      <trkpt lat="44.40348" lon="4.45258">
        <ele>448.83398</ele>
        <time>2020-08-30 11:32:36</time>
      </trkpt>
      <trkpt lat="44.40355" lon="4.45261">
        <ele>448.84302</ele>
        <time>2020-08-30 11:32:37</time>
      </trkpt>
      <trkpt lat="44.40373" lon="4.45265">
        <ele>447.3454</ele>
        <time>2020-08-30 11:32:39</time>
      </trkpt>
      <trkpt lat="44.40409" lon="4.45265">
        <ele>443.18292</ele>
        <time>2020-08-30 11:32:43</time>
      </trkpt>
      <trkpt lat="44.40443" lon="4.45265">
        <ele>439.47534</ele>
        <time>2020-08-30 11:32:47</time>
      </trkpt>
      <trkpt lat="44.40459" lon="4.45268">
        <ele>438.2826</ele>
        <time>2020-08-30 11:32:49</time>
      </trkpt>
      <trkpt lat="44.40468" lon="4.45273">
        <ele>445.32257</ele>
        <time>2020-08-30 11:32:50</time>
      </trkpt>
      <trkpt lat="44.40485" lon="4.45288">
        <ele>435.93237</ele>
        <time>2020-08-30 11:32:52</time>
      </trkpt>
      <trkpt lat="44.40492" lon="4.45298">
        <ele>435.56506</ele>
        <time>2020-08-30 11:32:53</time>
      </trkpt>
      <trkpt lat="44.40619" lon="4.45502">
        <ele>421.3308</ele>
        <time>2020-08-30 11:33:13</time>
      </trkpt>
      <trkpt lat="44.40634" lon="4.45509">
        <ele>419.1737</ele>
        <time>2020-08-30 11:33:15</time>
      </trkpt>
      <trkpt lat="44.40641" lon="4.45509">
        <ele>419.138</ele>
        <time>2020-08-30 11:33:16</time>
      </trkpt>
      <trkpt lat="44.40649" lon="4.45506">
        <ele>419.05457</ele>
        <time>2020-08-30 11:33:17</time>
      </trkpt>
      <trkpt lat="44.40656" lon="4.45499">
        <ele>418.01526</ele>
        <time>2020-08-30 11:33:18</time>
      </trkpt>
      <trkpt lat="44.4066" lon="4.45492">
        <ele>418.30255</ele>
        <time>2020-08-30 11:33:19</time>
      </trkpt>
      <trkpt lat="44.40662" lon="4.45482">
        <ele>421.44476</ele>
        <time>2020-08-30 11:33:20</time>
      </trkpt>
      <trkpt lat="44.40665" lon="4.45472">
        <ele>418.2798</ele>
        <time>2020-08-30 11:33:21</time>
      </trkpt>
      <trkpt lat="44.40665" lon="4.45462">
        <ele>417.7041</ele>
        <time>2020-08-30 11:33:22</time>
      </trkpt>
      <trkpt lat="44.40663" lon="4.45453">
        <ele>417.79535</ele>
        <time>2020-08-30 11:33:23</time>
      </trkpt>
      <trkpt lat="44.40656" lon="4.45432">
        <ele>416.13953</ele>
        <time>2020-08-30 11:33:25</time>
      </trkpt>
      <trkpt lat="44.40593" lon="4.45299">
        <ele>413.17786</ele>
        <time>2020-08-30 11:33:38</time>
      </trkpt>
      <trkpt lat="44.40583" lon="4.45263">
        <ele>410.93976</ele>
        <time>2020-08-30 11:33:41</time>
      </trkpt>
      <trkpt lat="44.40578" lon="4.45222">
        <ele>408.0644</ele>
        <time>2020-08-30 11:33:44</time>
      </trkpt>
      <trkpt lat="44.40578" lon="4.45182">
        <ele>408.26794</ele>
        <time>2020-08-30 11:33:47</time>
      </trkpt>
      <trkpt lat="44.4058" lon="4.45155">
        <ele>406.91992</ele>
        <time>2020-08-30 11:33:49</time>
      </trkpt>
      <trkpt lat="44.40597" lon="4.45046">
        <ele>401.5714</ele>
        <time>2020-08-30 11:33:57</time>
      </trkpt>
      <trkpt lat="44.40592" lon="4.44937">
        <ele>395.12006</ele>
        <time>2020-08-30 11:34:05</time>
      </trkpt>
      <trkpt lat="44.4059" lon="4.44871">
        <ele>397.82495</ele>
        <time>2020-08-30 11:34:10</time>
      </trkpt>
      <trkpt lat="44.40597" lon="4.4483">
        <ele>389.4248</ele>
        <time>2020-08-30 11:34:13</time>
      </trkpt>
      <trkpt lat="44.40622" lon="4.4468">
        <ele>382.00964</ele>
        <time>2020-08-30 11:34:24</time>
      </trkpt>
      <trkpt lat="44.40639" lon="4.44485">
        <ele>371.81775</ele>
        <time>2020-08-30 11:34:39</time>
      </trkpt>
      <trkpt lat="44.40635" lon="4.44459">
        <ele>370.94507</ele>
        <time>2020-08-30 11:34:41</time>
      </trkpt>
      <trkpt lat="44.40616" lon="4.4431">
        <ele>362.99506</ele>
        <time>2020-08-30 11:34:53</time>
      </trkpt>
      <trkpt lat="44.40618" lon="4.44286">
        <ele>363.97754</ele>
        <time>2020-08-30 11:34:55</time>
      </trkpt>
      <trkpt lat="44.40619" lon="4.44274">
        <ele>363.41138</ele>
        <time>2020-08-30 11:34:56</time>
      </trkpt>
      <trkpt lat="44.40625" lon="4.44254">
        <ele>361.57837</ele>
        <time>2020-08-30 11:34:58</time>
      </trkpt>
      <trkpt lat="44.40655" lon="4.44169">
        <ele>354.81146</ele>
        <time>2020-08-30 11:35:06</time>
      </trkpt>
      <trkpt lat="44.40676" lon="4.44054">
        <ele>350.49182</ele>
        <time>2020-08-30 11:35:16</time>
      </trkpt>
      <trkpt lat="44.40699" lon="4.43981">
        <ele>344.55847</ele>
        <time>2020-08-30 11:35:23</time>
      </trkpt>
      <trkpt lat="44.40704" lon="4.43947">
        <ele>341.81116</ele>
        <time>2020-08-30 11:35:26</time>
      </trkpt>
      <trkpt lat="44.4072" lon="4.43815">
        <ele>333.61133</ele>
        <time>2020-08-30 11:35:37</time>
      </trkpt>
      <trkpt lat="44.40717" lon="4.43781">
        <ele>336.6682</ele>
        <time>2020-08-30 11:35:40</time>
      </trkpt>
      <trkpt lat="44.40693" lon="4.43582">
        <ele>323.6371</ele>
        <time>2020-08-30 11:35:57</time>
      </trkpt>
      <trkpt lat="44.40687" lon="4.43565">
        <ele>323.96155</ele>
        <time>2020-08-30 11:35:59</time>
      </trkpt>
      <trkpt lat="44.40673" lon="4.4353">
        <ele>321.32678</ele>
        <time>2020-08-30 11:36:03</time>
      </trkpt>
      <trkpt lat="44.40669" lon="4.43508">
        <ele>318.60583</ele>
        <time>2020-08-30 11:36:05</time>
      </trkpt>
      <trkpt lat="44.40669" lon="4.43497">
        <ele>317.87274</ele>
        <time>2020-08-30 11:36:06</time>
      </trkpt>
      <trkpt lat="44.4067" lon="4.43486">
        <ele>315.93274</ele>
        <time>2020-08-30 11:36:07</time>
      </trkpt>
      <trkpt lat="44.40672" lon="4.43475">
        <ele>315.56287</ele>
        <time>2020-08-30 11:36:08</time>
      </trkpt>
      <trkpt lat="44.40691" lon="4.43388">
        <ele>315.75452</ele>
        <time>2020-08-30 11:36:16</time>
      </trkpt>
      <trkpt lat="44.40693" lon="4.43367">
        <ele>315.1996</ele>
        <time>2020-08-30 11:36:18</time>
      </trkpt>
      <trkpt lat="44.4069" lon="4.43346">
        <ele>315.33716</ele>
        <time>2020-08-30 11:36:20</time>
      </trkpt>
      <trkpt lat="44.40681" lon="4.43304">
        <ele>314.3192</ele>
        <time>2020-08-30 11:36:24</time>
      </trkpt>
      <trkpt lat="44.40673" lon="4.43286">
        <ele>313.6051</ele>
        <time>2020-08-30 11:36:26</time>
      </trkpt>
      <trkpt lat="44.40656" lon="4.43261">
        <ele>313.40503</ele>
        <time>2020-08-30 11:36:29</time>
      </trkpt>
      <trkpt lat="44.406" lon="4.43193">
        <ele>312.00586</ele>
        <time>2020-08-30 11:36:39</time>
      </trkpt>
      <trkpt lat="44.40593" lon="4.43176">
        <ele>312.58313</ele>
        <time>2020-08-30 11:36:41</time>
      </trkpt>
      <trkpt lat="44.40591" lon="4.43166">
        <ele>311.318</ele>
        <time>2020-08-30 11:36:42</time>
      </trkpt>
      <trkpt lat="44.40585" lon="4.43162">
        <ele>311.34424</ele>
        <time>2020-08-30 11:36:43</time>
      </trkpt>
      <trkpt lat="44.40579" lon="4.43159">
        <ele>311.39154</ele>
        <time>2020-08-30 11:36:44</time>
      </trkpt>
      <trkpt lat="44.4056" lon="4.43151">
        <ele>310.43085</ele>
        <time>2020-08-30 11:36:47</time>
      </trkpt>
      <trkpt lat="44.40554" lon="4.43146">
        <ele>310.37146</ele>
        <time>2020-08-30 11:36:48</time>
      </trkpt>
      <trkpt lat="44.40548" lon="4.43141">
        <ele>310.15167</ele>
        <time>2020-08-30 11:36:49</time>
      </trkpt>
      <trkpt lat="44.40471" lon="4.43054">
        <ele>309.35156</ele>
        <time>2020-08-30 11:37:04</time>
      </trkpt>
      <trkpt lat="44.40454" lon="4.43024">
        <ele>309.11353</ele>
        <time>2020-08-30 11:37:08</time>
      </trkpt>
      <trkpt lat="44.40391" lon="4.42856">
        <ele>303.99744</ele>
        <time>2020-08-30 11:37:25</time>
      </trkpt>
      <trkpt lat="44.40387" lon="4.42835">
        <ele>302.89935</ele>
        <time>2020-08-30 11:37:27</time>
      </trkpt>
      <trkpt lat="44.40383" lon="4.42804">
        <ele>304.53424</ele>
        <time>2020-08-30 11:37:30</time>
      </trkpt>
      <trkpt lat="44.40383" lon="4.42784">
        <ele>301.00916</ele>
        <time>2020-08-30 11:37:32</time>
      </trkpt>
      <trkpt lat="44.40385" lon="4.42765">
        <ele>301.06354</ele>
        <time>2020-08-30 11:37:34</time>
      </trkpt>
      <trkpt lat="44.40391" lon="4.42738">
        <ele>301.6554</ele>
        <time>2020-08-30 11:37:37</time>
      </trkpt>
      <trkpt lat="44.404" lon="4.4272">
        <ele>300.19867</ele>
        <time>2020-08-30 11:37:39</time>
      </trkpt>
      <trkpt lat="44.40413" lon="4.42698">
        <ele>300.1413</ele>
        <time>2020-08-30 11:37:42</time>
      </trkpt>
      <trkpt lat="44.40429" lon="4.4268">
        <ele>299.67273</ele>
        <time>2020-08-30 11:37:45</time>
      </trkpt>
      <trkpt lat="44.40443" lon="4.42669">
        <ele>300.24945</ele>
        <time>2020-08-30 11:37:47</time>
      </trkpt>
      <trkpt lat="44.40458" lon="4.42663">
        <ele>299.5432</ele>
        <time>2020-08-30 11:37:49</time>
      </trkpt>
      <trkpt lat="44.40481" lon="4.42658">
        <ele>298.94196</ele>
        <time>2020-08-30 11:37:52</time>
      </trkpt>
      <trkpt lat="44.40525" lon="4.42649">
        <ele>296.6725</ele>
        <time>2020-08-30 11:37:58</time>
      </trkpt>
      <trkpt lat="44.40532" lon="4.42646">
        <ele>295.91296</ele>
        <time>2020-08-30 11:37:59</time>
      </trkpt>
      <trkpt lat="44.40538" lon="4.4264">
        <ele>299.23322</ele>
        <time>2020-08-30 11:38:00</time>
      </trkpt>
      <trkpt lat="44.40547" lon="4.42623">
        <ele>294.55237</ele>
        <time>2020-08-30 11:38:02</time>
      </trkpt>
      <trkpt lat="44.40555" lon="4.42607">
        <ele>294.11084</ele>
        <time>2020-08-30 11:38:04</time>
      </trkpt>
      <trkpt lat="44.4057" lon="4.42549">
        <ele>294.40533</ele>
        <time>2020-08-30 11:38:10</time>
      </trkpt>
      <trkpt lat="44.40584" lon="4.425">
        <ele>287.38403</ele>
        <time>2020-08-30 11:38:15</time>
      </trkpt>
      <trkpt lat="44.40624" lon="4.42384">
        <ele>283.90393</ele>
        <time>2020-08-30 11:38:27</time>
      </trkpt>
      <trkpt lat="44.40628" lon="4.42352">
        <ele>285.53345</ele>
        <time>2020-08-30 11:38:30</time>
      </trkpt>
      <trkpt lat="44.40641" lon="4.42239">
        <ele>281.22308</ele>
        <time>2020-08-30 11:38:41</time>
      </trkpt>
      <trkpt lat="44.40644" lon="4.42231">
        <ele>281.3401</ele>
        <time>2020-08-30 11:38:42</time>
      </trkpt>
      <trkpt lat="44.40649" lon="4.42225">
        <ele>280.7473</ele>
        <time>2020-08-30 11:38:43</time>
      </trkpt>
      <trkpt lat="44.40653" lon="4.4222">
        <ele>280.69507</ele>
        <time>2020-08-30 11:38:44</time>
      </trkpt>
      <trkpt lat="44.40659" lon="4.42218">
        <ele>280.9773</ele>
        <time>2020-08-30 11:38:45</time>
      </trkpt>
      <trkpt lat="44.40666" lon="4.42219">
        <ele>281.24792</ele>
        <time>2020-08-30 11:38:46</time>
      </trkpt>
      <trkpt lat="44.40672" lon="4.42222">
        <ele>280.9831</ele>
        <time>2020-08-30 11:38:47</time>
      </trkpt>
      <trkpt lat="44.40743" lon="4.42253">
        <ele>276.21375</ele>
        <time>2020-08-30 11:38:58</time>
      </trkpt>
      <trkpt lat="44.40858" lon="4.42268">
        <ele>272.40668</ele>
        <time>2020-08-30 11:39:13</time>
      </trkpt>
      <trkpt lat="44.40866" lon="4.42266">
        <ele>271.09277</ele>
        <time>2020-08-30 11:39:14</time>
      </trkpt>
      <trkpt lat="44.40871" lon="4.4226">
        <ele>270.31372</ele>
        <time>2020-08-30 11:39:15</time>
      </trkpt>
      <trkpt lat="44.40874" lon="4.42252">
        <ele>269.12634</ele>
        <time>2020-08-30 11:39:16</time>
      </trkpt>
      <trkpt lat="44.40876" lon="4.42242">
        <ele>268.43304</ele>
        <time>2020-08-30 11:39:17</time>
      </trkpt>
      <trkpt lat="44.40877" lon="4.42233">
        <ele>268.18225</ele>
        <time>2020-08-30 11:39:18</time>
      </trkpt>
      <trkpt lat="44.40875" lon="4.42223">
        <ele>268.01147</ele>
        <time>2020-08-30 11:39:19</time>
      </trkpt>
      <trkpt lat="44.40871" lon="4.42215">
        <ele>273.80457</ele>
        <time>2020-08-30 11:39:20</time>
      </trkpt>
      <trkpt lat="44.40866" lon="4.42207">
        <ele>265.2937</ele>
        <time>2020-08-30 11:39:21</time>
      </trkpt>
      <trkpt lat="44.40859" lon="4.422">
        <ele>265.21783</ele>
        <time>2020-08-30 11:39:22</time>
      </trkpt>
      <trkpt lat="44.40776" lon="4.42107">
        <ele>260.38538</ele>
        <time>2020-08-30 11:39:35</time>
      </trkpt>
      <trkpt lat="44.40772" lon="4.42098">
        <ele>260.13477</ele>
        <time>2020-08-30 11:39:36</time>
      </trkpt>
      <trkpt lat="44.4077" lon="4.42088">
        <ele>260.1109</ele>
        <time>2020-08-30 11:39:37</time>
      </trkpt>
      <trkpt lat="44.40769" lon="4.42077">
        <ele>259.47717</ele>
        <time>2020-08-30 11:39:38</time>
      </trkpt>
      <trkpt lat="44.40771" lon="4.42066">
        <ele>258.96484</ele>
        <time>2020-08-30 11:39:39</time>
      </trkpt>
      <trkpt lat="44.40775" lon="4.42056">
        <ele>260.52014</ele>
        <time>2020-08-30 11:39:40</time>
      </trkpt>
      <trkpt lat="44.40783" lon="4.42046">
        <ele>256.20483</ele>
        <time>2020-08-30 11:39:41</time>
      </trkpt>
      <trkpt lat="44.4079" lon="4.4204">
        <ele>256.4043</ele>
        <time>2020-08-30 11:39:42</time>
      </trkpt>
      <trkpt lat="44.40875" lon="4.41965">
        <ele>253.01782</ele>
        <time>2020-08-30 11:39:53</time>
      </trkpt>
      <trkpt lat="44.40935" lon="4.41889">
        <ele>251.47137</ele>
        <time>2020-08-30 11:40:03</time>
      </trkpt>
      <trkpt lat="44.40951" lon="4.41882">
        <ele>249.41064</ele>
        <time>2020-08-30 11:40:05</time>
      </trkpt>
      <trkpt lat="44.40967" lon="4.41878">
        <ele>247.60449</ele>
        <time>2020-08-30 11:40:07</time>
      </trkpt>
      <trkpt lat="44.40995" lon="4.41872">
        <ele>244.01495</ele>
        <time>2020-08-30 11:40:11</time>
      </trkpt>
      <trkpt lat="44.40999" lon="4.41866">
        <ele>243.29724</ele>
        <time>2020-08-30 11:40:12</time>
      </trkpt>
      <trkpt lat="44.41001" lon="4.41859">
        <ele>242.61023</ele>
        <time>2020-08-30 11:40:13</time>
      </trkpt>
      <trkpt lat="44.41002" lon="4.41852">
        <ele>240.67993</ele>
        <time>2020-08-30 11:40:14</time>
      </trkpt>
      <trkpt lat="44.40999" lon="4.41845">
        <ele>239.513</ele>
        <time>2020-08-30 11:40:15</time>
      </trkpt>
      <trkpt lat="44.40993" lon="4.41839">
        <ele>239.32843</ele>
        <time>2020-08-30 11:40:16</time>
      </trkpt>
      <trkpt lat="44.40987" lon="4.41837">
        <ele>239.75757</ele>
        <time>2020-08-30 11:40:17</time>
      </trkpt>
      <trkpt lat="44.40979" lon="4.41837">
        <ele>239.88269</ele>
        <time>2020-08-30 11:40:18</time>
      </trkpt>
      <trkpt lat="44.40946" lon="4.4184">
        <ele>238.80261</ele>
        <time>2020-08-30 11:40:22</time>
      </trkpt>
      <trkpt lat="44.40927" lon="4.41844">
        <ele>238.2583</ele>
        <time>2020-08-30 11:40:24</time>
      </trkpt>
      <trkpt lat="44.40881" lon="4.41867">
        <ele>232.30756</ele>
        <time>2020-08-30 11:40:29</time>
      </trkpt>
      <trkpt lat="44.40822" lon="4.419">
        <ele>227.09393</ele>
        <time>2020-08-30 11:40:36</time>
      </trkpt>
      <trkpt lat="44.40814" lon="4.41901">
        <ele>227.26025</ele>
        <time>2020-08-30 11:40:37</time>
      </trkpt>
      <trkpt lat="44.40797" lon="4.41899">
        <ele>225.6643</ele>
        <time>2020-08-30 11:40:39</time>
      </trkpt>
      <trkpt lat="44.40738" lon="4.41892">
        <ele>220.02759</ele>
        <time>2020-08-30 11:40:46</time>
      </trkpt>
      <trkpt lat="44.40729" lon="4.41896">
        <ele>219.33246</ele>
        <time>2020-08-30 11:40:47</time>
      </trkpt>
      <trkpt lat="44.40721" lon="4.41901">
        <ele>219.1604</ele>
        <time>2020-08-30 11:40:48</time>
      </trkpt>
      <trkpt lat="44.40699" lon="4.41914">
        <ele>215.77502</ele>
        <time>2020-08-30 11:40:51</time>
      </trkpt>
      <trkpt lat="44.40691" lon="4.41916">
        <ele>214.89441</ele>
        <time>2020-08-30 11:40:52</time>
      </trkpt>
      <trkpt lat="44.40684" lon="4.41913">
        <ele>213.20251</ele>
        <time>2020-08-30 11:40:53</time>
      </trkpt>
      <trkpt lat="44.40677" lon="4.41909">
        <ele>211.94678</ele>
        <time>2020-08-30 11:40:54</time>
      </trkpt>
      <trkpt lat="44.40671" lon="4.41901">
        <ele>212.18408</ele>
        <time>2020-08-30 11:40:55</time>
      </trkpt>
      <trkpt lat="44.4066" lon="4.41883">
        <ele>211.96661</ele>
        <time>2020-08-30 11:40:57</time>
      </trkpt>
      <trkpt lat="44.40622" lon="4.41817">
        <ele>209.1676</ele>
        <time>2020-08-30 11:41:04</time>
      </trkpt>
      <trkpt lat="44.40619" lon="4.41806">
        <ele>209.63184</ele>
        <time>2020-08-30 11:41:05</time>
      </trkpt>
      <trkpt lat="44.40615" lon="4.41779">
        <ele>208.74176</ele>
        <time>2020-08-30 11:41:07</time>
      </trkpt>
      <trkpt lat="44.4061" lon="4.41755">
        <ele>208.90833</ele>
        <time>2020-08-30 11:41:09</time>
      </trkpt>
      <trkpt lat="44.40606" lon="4.41745">
        <ele>210.90283</ele>
        <time>2020-08-30 11:41:10</time>
      </trkpt>
      <trkpt lat="44.406" lon="4.41736">
        <ele>207.97784</ele>
        <time>2020-08-30 11:41:11</time>
      </trkpt>
      <trkpt lat="44.40592" lon="4.41729">
        <ele>207.10406</ele>
        <time>2020-08-30 11:41:12</time>
      </trkpt>
      <trkpt lat="44.40583" lon="4.41725">
        <ele>206.27869</ele>
        <time>2020-08-30 11:41:13</time>
      </trkpt>
      <trkpt lat="44.40565" lon="4.41719">
        <ele>205.0614</ele>
        <time>2020-08-30 11:41:15</time>
      </trkpt>
      <trkpt lat="44.40516" lon="4.41713">
        <ele>207.97784</ele>
        <time>2020-08-30 11:41:20</time>
      </trkpt>
      <trkpt lat="44.40452" lon="4.41723">
        <ele>198.26581</ele>
        <time>2020-08-30 11:41:26</time>
      </trkpt>
      <trkpt lat="44.40433" lon="4.41732">
        <ele>197.41345</ele>
        <time>2020-08-30 11:41:28</time>
      </trkpt>
      <trkpt lat="44.40415" lon="4.41742">
        <ele>202.87122</ele>
        <time>2020-08-30 11:41:30</time>
      </trkpt>
      <trkpt lat="44.40409" lon="4.4175">
        <ele>194.92334</ele>
        <time>2020-08-30 11:41:31</time>
      </trkpt>
      <trkpt lat="44.40392" lon="4.41763">
        <ele>192.90393</ele>
        <time>2020-08-30 11:41:33</time>
      </trkpt>
      <trkpt lat="44.40377" lon="4.4177">
        <ele>190.11981</ele>
        <time>2020-08-30 11:41:35</time>
      </trkpt>
      <trkpt lat="44.40351" lon="4.41778">
        <ele>189.02747</ele>
        <time>2020-08-30 11:41:38</time>
      </trkpt>
      <trkpt lat="44.40343" lon="4.41784">
        <ele>188.07709</ele>
        <time>2020-08-30 11:41:39</time>
      </trkpt>
      <trkpt lat="44.40336" lon="4.41792">
        <ele>194.92334</ele>
        <time>2020-08-30 11:41:40</time>
      </trkpt>
      <trkpt lat="44.40323" lon="4.41811">
        <ele>187.35754</ele>
        <time>2020-08-30 11:41:42</time>
      </trkpt>
      <trkpt lat="44.40293" lon="4.41856">
        <ele>186.11853</ele>
        <time>2020-08-30 11:41:47</time>
      </trkpt>
      <trkpt lat="44.40285" lon="4.4186">
        <ele>186.06964</ele>
        <time>2020-08-30 11:41:48</time>
      </trkpt>
      <trkpt lat="44.40279" lon="4.41861">
        <ele>185.26685</ele>
        <time>2020-08-30 11:41:49</time>
      </trkpt>
      <trkpt lat="44.40271" lon="4.4186">
        <ele>187.6059</ele>
        <time>2020-08-30 11:41:50</time>
      </trkpt>
      <trkpt lat="44.40263" lon="4.41857">
        <ele>184.3595</ele>
        <time>2020-08-30 11:41:51</time>
      </trkpt>
      <trkpt lat="44.40257" lon="4.41851">
        <ele>184.31384</ele>
        <time>2020-08-30 11:41:52</time>
      </trkpt>
      <trkpt lat="44.40242" lon="4.4184">
        <ele>181.70691</ele>
        <time>2020-08-30 11:41:54</time>
      </trkpt>
      <trkpt lat="44.40224" lon="4.41835">
        <ele>181.21375</ele>
        <time>2020-08-30 11:41:56</time>
      </trkpt>
      <trkpt lat="44.40216" lon="4.41837">
        <ele>181.21948</ele>
        <time>2020-08-30 11:41:57</time>
      </trkpt>
      <trkpt lat="44.40208" lon="4.41842">
        <ele>180.72693</ele>
        <time>2020-08-30 11:41:58</time>
      </trkpt>
      <trkpt lat="44.402" lon="4.41848">
        <ele>180.90802</ele>
        <time>2020-08-30 11:41:59</time>
      </trkpt>
      <trkpt lat="44.40194" lon="4.41857">
        <ele>184.3595</ele>
        <time>2020-08-30 11:42:00</time>
      </trkpt>
      <trkpt lat="44.40167" lon="4.4189">
        <ele>179.47168</ele>
        <time>2020-08-30 11:42:05</time>
      </trkpt>
      <trkpt lat="44.40162" lon="4.41888">
        <ele>179.05438</ele>
        <time>2020-08-30 11:42:06</time>
      </trkpt>
      <trkpt lat="44.40158" lon="4.41883">
        <ele>179.50836</ele>
        <time>2020-08-30 11:42:07</time>
      </trkpt>
      <trkpt lat="44.40157" lon="4.41875">
        <ele>177.4383</ele>
        <time>2020-08-30 11:42:08</time>
      </trkpt>
      <trkpt lat="44.40158" lon="4.41868">
        <ele>176.65302</ele>
        <time>2020-08-30 11:42:09</time>
      </trkpt>
      <trkpt lat="44.40163" lon="4.41862">
        <ele>180.04926</ele>
        <time>2020-08-30 11:42:10</time>
      </trkpt>
      <trkpt lat="44.40168" lon="4.41858">
        <ele>175.44641</ele>
        <time>2020-08-30 11:42:11</time>
      </trkpt>
      <trkpt lat="44.40181" lon="4.41848">
        <ele>174.41614</ele>
        <time>2020-08-30 11:42:13</time>
      </trkpt>
      <trkpt lat="44.40239" lon="4.41795">
        <ele>169.61035</ele>
        <time>2020-08-30 11:42:21</time>
      </trkpt>
      <trkpt lat="44.40272" lon="4.41767">
        <ele>167.07916</ele>
        <time>2020-08-30 11:42:25</time>
      </trkpt>
      <trkpt lat="44.40277" lon="4.41756">
        <ele>166.64917</ele>
        <time>2020-08-30 11:42:26</time>
      </trkpt>
      <trkpt lat="44.40299" lon="4.41715">
        <ele>169.61035</ele>
        <time>2020-08-30 11:42:30</time>
      </trkpt>
      <trkpt lat="44.40307" lon="4.41708">
        <ele>160.40723</ele>
        <time>2020-08-30 11:42:31</time>
      </trkpt>
      <trkpt lat="44.40321" lon="4.41695">
        <ele>158.40948</ele>
        <time>2020-08-30 11:42:33</time>
      </trkpt>
      <trkpt lat="44.40325" lon="4.41684">
        <ele>158.63647</ele>
        <time>2020-08-30 11:42:34</time>
      </trkpt>
      <trkpt lat="44.40353" lon="4.41627">
        <ele>160.40723</ele>
        <time>2020-08-30 11:42:40</time>
      </trkpt>
      <trkpt lat="44.40375" lon="4.41608">
        <ele>152.0921</ele>
        <time>2020-08-30 11:42:43</time>
      </trkpt>
      <trkpt lat="44.40415" lon="4.41577">
        <ele>150.224</ele>
        <time>2020-08-30 11:42:48</time>
      </trkpt>
      <trkpt lat="44.40421" lon="4.41568">
        <ele>150.60333</ele>
        <time>2020-08-30 11:42:49</time>
      </trkpt>
      <trkpt lat="44.40426" lon="4.41557">
        <ele>152.38617</ele>
        <time>2020-08-30 11:42:50</time>
      </trkpt>
      <trkpt lat="44.40429" lon="4.41547">
        <ele>149.54803</ele>
        <time>2020-08-30 11:42:51</time>
      </trkpt>
      <trkpt lat="44.40432" lon="4.41536">
        <ele>149.64716</ele>
        <time>2020-08-30 11:42:52</time>
      </trkpt>
      <trkpt lat="44.40432" lon="4.41526">
        <ele>147.92548</ele>
        <time>2020-08-30 11:42:53</time>
      </trkpt>
      <trkpt lat="44.40431" lon="4.41503">
        <ele>145.93945</ele>
        <time>2020-08-30 11:42:55</time>
      </trkpt>
      <trkpt lat="44.40428" lon="4.41494">
        <ele>146.45227</ele>
        <time>2020-08-30 11:42:56</time>
      </trkpt>
      <trkpt lat="44.40382" lon="4.41368">
        <ele>145.30078</ele>
        <time>2020-08-30 11:43:10</time>
      </trkpt>
      <trkpt lat="44.40382" lon="4.41359">
        <ele>144.56177</ele>
        <time>2020-08-30 11:43:11</time>
      </trkpt>
      <trkpt lat="44.40384" lon="4.41349">
        <ele>144.47894</ele>
        <time>2020-08-30 11:43:12</time>
      </trkpt>
      <trkpt lat="44.40386" lon="4.41341">
        <ele>145.13129</ele>
        <time>2020-08-30 11:43:13</time>
      </trkpt>
      <trkpt lat="44.40393" lon="4.41328">
        <ele>145.5177</ele>
        <time>2020-08-30 11:43:15</time>
      </trkpt>
      <trkpt lat="44.40449" lon="4.41242">
        <ele>146.71997</ele>
        <time>2020-08-30 11:43:29</time>
      </trkpt>
      <trkpt lat="44.40457" lon="4.4122">
        <ele>145.7019</ele>
        <time>2020-08-30 11:43:32</time>
      </trkpt>
      <trkpt lat="44.40474" lon="4.41174">
        <ele>145.86572</ele>
        <time>2020-08-30 11:43:38</time>
      </trkpt>
      <trkpt lat="44.40479" lon="4.41168">
        <ele>146.02441</ele>
        <time>2020-08-30 11:43:39</time>
      </trkpt>
      <trkpt lat="44.40483" lon="4.41163">
        <ele>146.30286</ele>
        <time>2020-08-30 11:43:40</time>
      </trkpt>
      <trkpt lat="44.40498" lon="4.41152">
        <ele>147.29022</ele>
        <time>2020-08-30 11:43:43</time>
      </trkpt>
      <trkpt lat="44.40515" lon="4.41144">
        <ele>148.52051</ele>
        <time>2020-08-30 11:43:46</time>
      </trkpt>
      <trkpt lat="44.40551" lon="4.41132">
        <ele>147.92523</ele>
        <time>2020-08-30 11:43:52</time>
      </trkpt>
      <trkpt lat="44.40597" lon="4.41101">
        <ele>148.5426</ele>
        <time>2020-08-30 11:44:01</time>
      </trkpt>
      <trkpt lat="44.40667" lon="4.41013">
        <ele>139.70386</ele>
        <time>2020-08-30 11:44:19</time>
      </trkpt>
      <trkpt lat="44.40675" lon="4.41001">
        <ele>139.99414</ele>
        <time>2020-08-30 11:44:21</time>
      </trkpt>
      <trkpt lat="44.40687" lon="4.40986">
        <ele>141.64307</ele>
        <time>2020-08-30 11:44:24</time>
      </trkpt>
      <trkpt lat="44.40767" lon="4.40882">
        <ele>142.6853</ele>
        <time>2020-08-30 11:44:44</time>
      </trkpt>
      <trkpt lat="44.40807" lon="4.40834">
        <ele>145.61365</ele>
        <time>2020-08-30 11:44:54</time>
      </trkpt>
      <trkpt lat="44.4082" lon="4.4082">
        <ele>146.53186</ele>
        <time>2020-08-30 11:44:57</time>
      </trkpt>
      <trkpt lat="44.40833" lon="4.40804">
        <ele>144.58624</ele>
        <time>2020-08-30 11:45:00</time>
      </trkpt>
      <trkpt lat="44.40846" lon="4.40781">
        <ele>149.7345</ele>
        <time>2020-08-30 11:45:04</time>
      </trkpt>
      <trkpt lat="44.40855" lon="4.40762">
        <ele>150.39313</ele>
        <time>2020-08-30 11:45:07</time>
      </trkpt>
      <trkpt lat="44.40864" lon="4.40732">
        <ele>150.34167</ele>
        <time>2020-08-30 11:45:11</time>
      </trkpt>
      <trkpt lat="44.40868" lon="4.40707">
        <ele>150.13245</ele>
        <time>2020-08-30 11:45:14</time>
      </trkpt>
      <trkpt lat="44.40875" lon="4.40642">
        <ele>149.28418</ele>
        <time>2020-08-30 11:45:22</time>
      </trkpt>
      <trkpt lat="44.40879" lon="4.40627">
        <ele>148.78827</ele>
        <time>2020-08-30 11:45:24</time>
      </trkpt>
      <trkpt lat="44.40887" lon="4.40607">
        <ele>151.03015</ele>
        <time>2020-08-30 11:45:27</time>
      </trkpt>
      <trkpt lat="44.40887" lon="4.40599">
        <ele>152.04755</ele>
        <time>2020-08-30 11:45:28</time>
      </trkpt>
      <trkpt lat="44.40887" lon="4.40591">
        <ele>152.05634</ele>
        <time>2020-08-30 11:45:29</time>
      </trkpt>
      <trkpt lat="44.40885" lon="4.40575">
        <ele>150.84277</ele>
        <time>2020-08-30 11:45:31</time>
      </trkpt>
      <trkpt lat="44.40886" lon="4.40567">
        <ele>150.88788</ele>
        <time>2020-08-30 11:45:32</time>
      </trkpt>
      <trkpt lat="44.4092" lon="4.40323">
        <ele>154.81232</ele>
        <time>2020-08-30 11:46:02</time>
      </trkpt>
      <trkpt lat="44.40929" lon="4.4026">
        <ele>153.90637</ele>
        <time>2020-08-30 11:46:10</time>
      </trkpt>
      <trkpt lat="44.40928" lon="4.40244">
        <ele>153.73627</ele>
        <time>2020-08-30 11:46:12</time>
      </trkpt>
      <trkpt lat="44.40927" lon="4.40221">
        <ele>150.1524</ele>
        <time>2020-08-30 11:46:15</time>
      </trkpt>
      <trkpt lat="44.40892" lon="4.40036">
        <ele>153.54321</ele>
        <time>2020-08-30 11:46:40</time>
      </trkpt>
      <trkpt lat="44.40883" lon="4.3998">
        <ele>154.41626</ele>
        <time>2020-08-30 11:46:48</time>
      </trkpt>
      <trkpt lat="44.40865" lon="4.39861">
        <ele>154.62622</ele>
        <time>2020-08-30 11:47:05</time>
      </trkpt>
      <trkpt lat="44.40862" lon="4.39849">
        <ele>154.18982</ele>
        <time>2020-08-30 11:47:07</time>
      </trkpt>
      <trkpt lat="44.40855" lon="4.39823">
        <ele>156.01086</ele>
        <time>2020-08-30 11:47:11</time>
      </trkpt>
      <trkpt lat="44.40853" lon="4.39809">
        <ele>154.80048</ele>
        <time>2020-08-30 11:47:13</time>
      </trkpt>
      <trkpt lat="44.40844" lon="4.39779">
        <ele>152.42566</ele>
        <time>2020-08-30 11:47:18</time>
      </trkpt>
      <trkpt lat="44.40822" lon="4.39725">
        <ele>155.81738</ele>
        <time>2020-08-30 11:47:27</time>
      </trkpt>
      <trkpt lat="44.40806" lon="4.39681">
        <ele>155.59412</ele>
        <time>2020-08-30 11:47:35</time>
      </trkpt>
      <trkpt lat="44.40801" lon="4.39673">
        <ele>156.32043</ele>
        <time>2020-08-30 11:47:37</time>
      </trkpt>
      <trkpt lat="44.40778" lon="4.39641">
        <ele>157.76373</ele>
        <time>2020-08-30 11:47:44</time>
      </trkpt>
      <trkpt lat="44.40762" lon="4.39611">
        <ele>161.47388</ele>
        <time>2020-08-30 11:47:52</time>
      </trkpt>
      <trkpt lat="44.4076" lon="4.39609">
        <ele>160.86694</ele>
        <time>2020-08-30 11:47:53</time>
      </trkpt>
      <trkpt lat="44.40755" lon="4.39606">
        <ele>161.3778</ele>
        <time>2020-08-30 11:47:55</time>
      </trkpt>
      <trkpt lat="44.40752" lon="4.396">
        <ele>162.2561</ele>
        <time>2020-08-30 11:47:57</time>
      </trkpt>
      <trkpt lat="44.40744" lon="4.39589">
        <ele>160.88715</ele>
        <time>2020-08-30 11:48:01</time>
      </trkpt>
      <trkpt lat="44.40715" lon="4.39553">
        <ele>165.16833</ele>
        <time>2020-08-30 11:48:14</time>
      </trkpt>
      <trkpt lat="44.40715" lon="4.3955">
        <ele>166.39673</ele>
        <time>2020-08-30 11:48:15</time>
      </trkpt>
      <trkpt lat="44.40715" lon="4.39546">
        <ele>166.5127</ele>
        <time>2020-08-30 11:48:16</time>
      </trkpt>
      <trkpt lat="44.40716" lon="4.39538">
        <ele>168.29205</ele>
        <time>2020-08-30 11:48:18</time>
      </trkpt>
      <trkpt lat="44.40716" lon="4.39535">
        <ele>169.19836</ele>
        <time>2020-08-30 11:48:19</time>
      </trkpt>
      <trkpt lat="44.40717" lon="4.39532">
        <ele>162.84766</ele>
        <time>2020-08-30 11:48:20</time>
      </trkpt>
      <trkpt lat="44.40718" lon="4.39528">
        <ele>172.0221</ele>
        <time>2020-08-30 11:48:21</time>
      </trkpt>
      <trkpt lat="44.40719" lon="4.39525">
        <ele>172.82465</ele>
        <time>2020-08-30 11:48:22</time>
      </trkpt>
      <trkpt lat="44.40719" lon="4.39521">
        <ele>173.58319</ele>
        <time>2020-08-30 11:48:23</time>
      </trkpt>
      <trkpt lat="44.40718" lon="4.39517">
        <ele>175.06189</ele>
        <time>2020-08-30 11:48:24</time>
      </trkpt>
      <trkpt lat="44.40716" lon="4.39514">
        <ele>175.14703</ele>
        <time>2020-08-30 11:48:25</time>
      </trkpt>
      <trkpt lat="44.4071" lon="4.39502">
        <ele>173.82898</ele>
        <time>2020-08-30 11:48:29</time>
      </trkpt>
      <trkpt lat="44.40706" lon="4.39496">
        <ele>170.57776</ele>
        <time>2020-08-30 11:48:31</time>
      </trkpt>
      <trkpt lat="44.407" lon="4.3949">
        <ele>168.38147</ele>
        <time>2020-08-30 11:48:33</time>
      </trkpt>
      <trkpt lat="44.4069" lon="4.39479">
        <ele>165.82343</ele>
        <time>2020-08-30 11:48:37</time>
      </trkpt>
      <trkpt lat="44.40686" lon="4.39473">
        <ele>164.99402</ele>
        <time>2020-08-30 11:48:39</time>
      </trkpt>
      <trkpt lat="44.40683" lon="4.39468">
        <ele>163.94574</ele>
        <time>2020-08-30 11:48:44</time>
      </trkpt>
      <trkpt lat="44.40681" lon="4.39469">
        <ele>164.21729</ele>
        <time>2020-08-30 11:48:50</time>
      </trkpt>
      <trkpt lat="44.4068" lon="4.39465">
        <ele>166.45642</ele>
        <time>2020-08-30 11:48:54</time>
      </trkpt>
      <trkpt lat="44.40679" lon="4.39463">
        <ele>167.3786</ele>
        <time>2020-08-30 11:48:55</time>
      </trkpt>
      <trkpt lat="44.40678" lon="4.39462">
        <ele>167.9748</ele>
        <time>2020-08-30 11:48:56</time>
      </trkpt>
      <trkpt lat="44.40676" lon="4.39462">
        <ele>167.55292</ele>
        <time>2020-08-30 11:48:58</time>
      </trkpt>
      <trkpt lat="44.40674" lon="4.39465">
        <ele>164.58423</ele>
        <time>2020-08-30 11:55:14</time>
      </trkpt>
      <trkpt lat="44.40673" lon="4.39466">
        <ele>164.58423</ele>
        <time>2020-08-30 11:55:20</time>
      </trkpt>
      <trkpt lat="44.40673" lon="4.39466">
        <ele>164.87012</ele>
        <time>2020-08-30 11:55:21</time>
      </trkpt>
      <trkpt lat="44.40674" lon="4.39467">
        <ele>164.17297</ele>
        <time>2020-08-30 11:55:22</time>
      </trkpt>
      <trkpt lat="44.40676" lon="4.39469">
        <ele>164.41913</ele>
        <time>2020-08-30 11:55:25</time>
      </trkpt>
      <trkpt lat="44.40681" lon="4.39473">
        <ele>160.67493</ele>
        <time>2020-08-30 11:55:31</time>
      </trkpt>
      <trkpt lat="44.40682" lon="4.39474">
        <ele>160.63275</ele>
        <time>2020-08-30 11:55:32</time>
      </trkpt>
      <trkpt lat="44.40683" lon="4.39475">
        <ele>163.13446</ele>
        <time>2020-08-30 11:55:33</time>
      </trkpt>
      <trkpt lat="44.40684" lon="4.39478">
        <ele>161.307</ele>
        <time>2020-08-30 11:55:36</time>
      </trkpt>
      <trkpt lat="44.40686" lon="4.3948">
        <ele>164.19324</ele>
        <time>2020-08-30 11:55:38</time>
      </trkpt>
      <trkpt lat="44.40688" lon="4.39482">
        <ele>161.46503</ele>
        <time>2020-08-30 11:55:41</time>
      </trkpt>
      <trkpt lat="44.40692" lon="4.39487">
        <ele>159.8081</ele>
        <time>2020-08-30 11:55:45</time>
      </trkpt>
      <trkpt lat="44.40697" lon="4.39495">
        <ele>161.76337</ele>
        <time>2020-08-30 11:55:51</time>
      </trkpt>
      <trkpt lat="44.407" lon="4.39501">
        <ele>161.94818</ele>
        <time>2020-08-30 11:55:56</time>
      </trkpt>
      <trkpt lat="44.40705" lon="4.39506">
        <ele>161.76337</ele>
        <time>2020-08-30 11:56:00</time>
      </trkpt>
      <trkpt lat="44.40707" lon="4.39508">
        <ele>162.12036</ele>
        <time>2020-08-30 11:56:02</time>
      </trkpt>
      <trkpt lat="44.40709" lon="4.39511">
        <ele>162.83124</ele>
        <time>2020-08-30 11:56:05</time>
      </trkpt>
      <trkpt lat="44.4071" lon="4.39512">
        <ele>163.05273</ele>
        <time>2020-08-30 11:56:06</time>
      </trkpt>
      <trkpt lat="44.40715" lon="4.39518">
        <ele>163.22986</ele>
        <time>2020-08-30 11:56:13</time>
      </trkpt>
      <trkpt lat="44.40715" lon="4.39519">
        <ele>163.00067</ele>
        <time>2020-08-30 11:56:14</time>
      </trkpt>
      <trkpt lat="44.40715" lon="4.39522">
        <ele>163.5998</ele>
        <time>2020-08-30 11:56:17</time>
      </trkpt>
      <trkpt lat="44.40714" lon="4.39523">
        <ele>163.51917</ele>
        <time>2020-08-30 11:56:18</time>
      </trkpt>
      <trkpt lat="44.40714" lon="4.39523">
        <ele>164.16402</ele>
        <time>2020-08-30 11:56:20</time>
      </trkpt>
      <trkpt lat="44.40713" lon="4.39524">
        <ele>163.99127</ele>
        <time>2020-08-30 11:56:21</time>
      </trkpt>
      <trkpt lat="44.40712" lon="4.39526">
        <ele>161.6792</ele>
        <time>2020-08-30 11:56:22</time>
      </trkpt>
      <trkpt lat="44.40711" lon="4.39529">
        <ele>160.48657</ele>
        <time>2020-08-30 11:56:23</time>
      </trkpt>
      <trkpt lat="44.407" lon="4.39556">
        <ele>155.224</ele>
        <time>2020-08-30 11:56:31</time>
      </trkpt>
      <trkpt lat="44.40699" lon="4.39561">
        <ele>153.63763</ele>
        <time>2020-08-30 11:56:33</time>
      </trkpt>
      <trkpt lat="44.40699" lon="4.39563">
        <ele>153.20288</ele>
        <time>2020-08-30 11:56:34</time>
      </trkpt>
      <trkpt lat="44.40705" lon="4.39565">
        <ele>155.224</ele>
        <time>2020-08-30 11:56:40</time>
      </trkpt>
      <trkpt lat="44.40712" lon="4.39566">
        <ele>156.9071</ele>
        <time>2020-08-30 11:57:59</time>
      </trkpt>
      <trkpt lat="44.40712" lon="4.39566">
        <ele>157.13477</ele>
        <time>2020-08-30 11:58:44</time>
      </trkpt>
      <trkpt lat="44.40713" lon="4.39566">
        <ele>156.7721</ele>
        <time>2020-08-30 11:58:58</time>
      </trkpt>
      <trkpt lat="44.40715" lon="4.3957">
        <ele>160.58905</ele>
        <time>2020-08-30 11:59:01</time>
      </trkpt>
      <trkpt lat="44.40719" lon="4.39572">
        <ele>161.65967</ele>
        <time>2020-08-30 11:59:03</time>
      </trkpt>
      <trkpt lat="44.40728" lon="4.39576">
        <ele>164.85382</ele>
        <time>2020-08-30 11:59:07</time>
      </trkpt>
      <trkpt lat="44.40736" lon="4.39582">
        <ele>160.58905</ele>
        <time>2020-08-30 11:59:10</time>
      </trkpt>
      <trkpt lat="44.4074" lon="4.39589">
        <ele>163.40582</ele>
        <time>2020-08-30 11:59:12</time>
      </trkpt>
      <trkpt lat="44.40764" lon="4.39625">
        <ele>163.89246</ele>
        <time>2020-08-30 11:59:23</time>
      </trkpt>
      <trkpt lat="44.40772" lon="4.39633">
        <ele>162.58606</ele>
        <time>2020-08-30 11:59:26</time>
      </trkpt>
      <trkpt lat="44.40802" lon="4.39686">
        <ele>161.36438</ele>
        <time>2020-08-30 11:59:36</time>
      </trkpt>
      <trkpt lat="44.40849" lon="4.39803">
        <ele>164.52814</ele>
        <time>2020-08-30 12:00:01</time>
      </trkpt>
      <trkpt lat="44.40861" lon="4.39868">
        <ele>160.2887</ele>
        <time>2020-08-30 12:00:12</time>
      </trkpt>
      <trkpt lat="44.40897" lon="4.4007">
        <ele>155.15198</ele>
        <time>2020-08-30 12:00:42</time>
      </trkpt>
      <trkpt lat="44.40914" lon="4.40174">
        <ele>152.06934</ele>
        <time>2020-08-30 12:00:57</time>
      </trkpt>
      <trkpt lat="44.40925" lon="4.4021">
        <ele>149.0271</ele>
        <time>2020-08-30 12:01:03</time>
      </trkpt>
      <trkpt lat="44.40928" lon="4.40213">
        <ele>150.05615</ele>
        <time>2020-08-30 12:01:04</time>
      </trkpt>
      <trkpt lat="44.40931" lon="4.40215">
        <ele>150.4513</ele>
        <time>2020-08-30 12:01:05</time>
      </trkpt>
      <trkpt lat="44.40936" lon="4.40217">
        <ele>150.47223</ele>
        <time>2020-08-30 12:01:06</time>
      </trkpt>
      <trkpt lat="44.40945" lon="4.4022">
        <ele>149.83289</ele>
        <time>2020-08-30 12:01:08</time>
      </trkpt>
      <trkpt lat="44.40954" lon="4.4022">
        <ele>151.23358</ele>
        <time>2020-08-30 12:01:10</time>
      </trkpt>
      <trkpt lat="44.40986" lon="4.40222">
        <ele>149.82654</ele>
        <time>2020-08-30 12:01:17</time>
      </trkpt>
      <trkpt lat="44.40989" lon="4.40218">
        <ele>150.76666</ele>
        <time>2020-08-30 12:01:18</time>
      </trkpt>
      <trkpt lat="44.40992" lon="4.40215">
        <ele>151.1521</ele>
        <time>2020-08-30 12:01:19</time>
      </trkpt>
      <trkpt lat="44.40992" lon="4.40212">
        <ele>149.81384</ele>
        <time>2020-08-30 12:01:20</time>
      </trkpt>
      <trkpt lat="44.40993" lon="4.40209">
        <ele>153.1034</ele>
        <time>2020-08-30 12:01:21</time>
      </trkpt>
      <trkpt lat="44.40992" lon="4.40202">
        <ele>152.48425</ele>
        <time>2020-08-30 12:01:23</time>
      </trkpt>
      <trkpt lat="44.40993" lon="4.40194">
        <ele>152.50232</ele>
        <time>2020-08-30 12:01:25</time>
      </trkpt>
      <trkpt lat="44.40994" lon="4.40189">
        <ele>153.12372</ele>
        <time>2020-08-30 12:01:26</time>
      </trkpt>
      <trkpt lat="44.40995" lon="4.40186">
        <ele>153.70013</ele>
        <time>2020-08-30 12:01:27</time>
      </trkpt>
      <trkpt lat="44.40996" lon="4.40183">
        <ele>153.31848</ele>
        <time>2020-08-30 12:01:28</time>
      </trkpt>
      <trkpt lat="44.40996" lon="4.40182">
        <ele>153.1034</ele>
        <time>2020-08-30 12:01:30</time>
      </trkpt>
      <trkpt lat="44.41" lon="4.40186">
        <ele>151.30847</ele>
        <time>2020-08-30 12:02:03</time>
      </trkpt>
      <trkpt lat="44.41" lon="4.40187">
        <ele>152.31042</ele>
        <time>2020-08-30 12:02:33</time>
      </trkpt>
      <trkpt lat="44.41" lon="4.40187">
        <ele>152.23175</ele>
        <time>2020-08-30 12:02:42</time>
      </trkpt>
    </trkseg>
  </trk>
</gpx>